Provisional Data: Chest Creek near Patton, PA


Please select a monitoring station.
Please select start date.
Please select start date.

Toggle Unit: C/F Toggle Unit: C/F
Sample Time Temperature (C) Temperature (F) Specific Conductivity (mS/cm) pH   Turbidity (NTU+) DO (mg/L)
10/20/2020 12:00:00 AM 10.16 50.288 0.351 6.55 -0.08 8.58
10/20/2020 12:15:00 AM 10.16 50.288 0.351 6.55 -0.52 8.55
10/20/2020 12:30:00 AM 10.16 50.288 0.351 6.55 -1.54 8.54
10/20/2020 12:45:00 AM 10.16 50.288 0.351 6.55 -1.33 8.49
10/20/2020 1:00:00 AM 10.15 50.27 0.351 6.54 -0.9 8.48
10/20/2020 1:15:00 AM 10.13 50.234 0.351 6.55 -1.34 8.49
10/20/2020 1:30:00 AM 10.12 50.216 0.35 6.55 -1.15 8.49
10/20/2020 1:45:00 AM 10.12 50.216 0.35 6.54 -0.74 8.51
10/20/2020 2:00:00 AM 10.12 50.216 0.35 6.55 1.54 8.48
10/20/2020 2:15:00 AM 10.13 50.234 0.35 6.55 -1.2 8.48
10/20/2020 2:30:00 AM 10.13 50.234 0.35 6.55 -2.14 8.49
10/20/2020 2:45:00 AM 10.14 50.252 0.35 6.55 -0.57 8.46
10/20/2020 3:00:00 AM 10.14 50.252 0.35 6.54 -0.11 8.41
10/20/2020 3:15:00 AM 10.15 50.27 0.35 6.55 -1.32 8.43
10/20/2020 3:30:00 AM 10.16 50.288 0.35 6.55 -1.8 8.43
10/20/2020 3:45:00 AM 10.16 50.288 0.35 6.55 -1.76 8.43
10/20/2020 4:00:00 AM 10.17 50.306 0.35 6.55 0.38 8.36
10/20/2020 4:15:00 AM 10.17 50.306 0.35 6.54 -1.84 8.34
10/20/2020 4:30:00 AM 10.17 50.306 0.35 6.54 -0.22 8.36
10/20/2020 4:45:00 AM 10.16 50.288 0.35 6.54 -1.29 8.4
10/20/2020 5:00:00 AM 10.16 50.288 0.351 6.54 -1.8 8.32
10/20/2020 5:15:00 AM 10.16 50.288 0.351 6.54 -1.41 8.41
10/20/2020 5:30:00 AM 10.16 50.288 0.351 6.55 -1.29 8.43
10/20/2020 5:45:00 AM 10.17 50.306 0.352 6.54 -1.6 8.3
10/20/2020 6:00:00 AM 10.17 50.306 0.352 6.55 -1.43 8.32
10/20/2020 6:15:00 AM 10.17 50.306 0.352 6.54 0.31 8.37
10/20/2020 6:30:00 AM 10.17 50.306 0.352 6.54 -0.6 8.38
10/20/2020 6:45:00 AM 10.18 50.324 0.353 6.54 -0.65 8.38
10/20/2020 7:00:00 AM 10.19 50.342 0.353 6.55 -1.64 8.34
10/20/2020 7:15:00 AM 10.2 50.36 0.353 6.54 -2.18 8.35
10/20/2020 7:30:00 AM 10.2 50.36 0.353 6.54 -1.36 8.36
10/20/2020 7:45:00 AM 10.19 50.342 0.353 6.54 -2.09 8.39
10/20/2020 8:00:00 AM 10.18 50.324 0.353 6.54 -1.93 8.43
10/20/2020 8:15:00 AM 10.19 50.342 0.353 6.55 -2.41 8.46
10/20/2020 8:30:00 AM 10.22 50.396 0.353 6.55 -2.36 8.51
10/20/2020 8:45:00 AM 10.25 50.45 0.353 6.55 -2.25 8.44
10/20/2020 9:00:00 AM 10.3 50.54 0.353 6.56 -2.54 8.5
10/20/2020 9:15:00 AM 10.35 50.63 0.353 6.56 -2.51 8.64
10/20/2020 9:30:00 AM 10.4 50.72 0.353 6.57 -2.72 8.76
10/20/2020 9:45:00 AM 10.47 50.846 0.353 6.57 -2.71 8.79
10/20/2020 10:00:00 AM 10.58 51.044 0.352 6.59 -2.52 8.87
10/20/2020 10:15:00 AM 10.68 51.224 0.352 6.6 -2.49 9.06
10/20/2020 10:30:00 AM 10.82 51.476 0.352 6.61 -2.88 9.12
10/20/2020 10:45:00 AM 10.95 51.71 0.352 6.61 -2.33 9.25
10/20/2020 11:00:00 AM 11.22 52.196 0.351 6.64 -2.52 9.51
10/20/2020 11:15:00 AM 11.51 52.718 0.351 6.67 -2.02 9.73
10/20/2020 11:30:00 AM 11.75 53.15 0.351 6.67 -2.9 9.87
10/20/2020 11:45:00 AM 12.01 53.618 0.351 6.67 -2.7 9.96
10/20/2020 12:00:00 PM 12.3 54.14 0.35 6.7 -2.96 10.11
10/20/2020 12:15:00 PM 12.32 54.176 0.35 6.66 -1.72 10.1
10/20/2020 12:30:00 PM 12.36 54.248 0.35 6.66 -1.36 10.06
10/20/2020 12:45:00 PM 12.46 54.428 0.35 6.67 -2.81 10.13
10/20/2020 1:00:00 PM 12.63 54.734 0.35 6.7 -2.63 10.23
10/20/2020 1:15:00 PM 12.7 54.86 0.35 6.7 -2.02 10.23
10/20/2020 1:30:00 PM 12.72 54.896 0.35 6.68 -2.78 10.19
10/20/2020 1:45:00 PM 12.75 54.95 0.35 6.67 -2.43 10.17
10/20/2020 2:00:00 PM 12.76 54.968 0.35 6.67 -2.72 10.15
10/20/2020 2:15:00 PM 12.78 55.004 0.35 6.69 -2.38 10.19
10/20/2020 2:30:00 PM 12.84 55.112 0.35 6.7 -2.43 10.15
10/20/2020 2:45:00 PM 12.95 55.31 0.35 6.72 -2.75 10.18
10/20/2020 3:00:00 PM 13.04 55.472 0.35 6.71 -2.59 10.21
10/20/2020 3:15:00 PM 13.13 55.634 0.349 6.73 -2.35 10.27
10/20/2020 3:30:00 PM 13.14 55.652 0.349 6.73 -2.5 10.21
10/20/2020 3:45:00 PM 13.14 55.652 0.349 6.72 4.26 10.14
10/20/2020 4:00:00 PM 13.17 55.706 0.349 6.71 -1.28 10.1
10/20/2020 4:15:00 PM 13.19 55.742 0.349 6.72 -1.75 10.07
10/20/2020 4:30:00 PM 13.18 55.724 0.348 6.71 -2.05 9.93
10/20/2020 4:45:00 PM 13.16 55.688 0.349 6.71 -2.3 9.86
10/20/2020 5:00:00 PM 13.15 55.67 0.349 6.7 -2.52 9.71
10/20/2020 5:15:00 PM 13.12 55.616 0.35 6.69 -1.74 9.67
10/20/2020 5:30:00 PM 13.12 55.616 0.351 6.69 -1.06 9.51
10/20/2020 5:45:00 PM 13.1 55.58 0.352 6.69 -1.77 9.49
10/20/2020 6:00:00 PM 13.09 55.562 0.352 6.68 -2.4 9.36
10/20/2020 6:15:00 PM 13.06 55.508 0.352 6.68 -2.5 9.28
10/20/2020 6:30:00 PM 13.02 55.436 0.353 6.67 -2.33 9.2
10/20/2020 6:45:00 PM 12.98 55.364 0.353 6.67 -1.76 9.08
10/20/2020 7:00:00 PM 12.94 55.292 0.353 6.66 -1.96 9.07
10/20/2020 7:15:00 PM 12.88 55.184 0.353 6.65 -1.99 8.98
10/20/2020 7:30:00 PM 12.82 55.076 0.353 6.64 -1.28 8.88
10/20/2020 7:45:00 PM 12.76 54.968 0.353 6.63 -0.31 8.81
10/20/2020 8:00:00 PM 12.7 54.86 0.353 6.63 -0.47 8.7
10/20/2020 8:15:00 PM 12.65 54.77 0.353 6.62 -0.69 8.64
10/20/2020 8:30:00 PM 12.59 54.662 0.353 6.61 1.11 8.58
10/20/2020 8:45:00 PM 12.52 54.536 0.352 6.61 1.24 8.57
10/20/2020 9:00:00 PM 12.49 54.482 0.352 6.61 -0.58 8.59
10/20/2020 9:15:00 PM 12.45 54.41 0.351 6.6 0.77 8.42
10/20/2020 9:30:00 PM 12.39 54.302 0.351 6.6 1.82 8.44
10/20/2020 9:45:00 PM 12.34 54.212 0.35 6.6 -0.45 8.45
10/20/2020 10:00:00 PM 12.3 54.14 0.35 6.6 -0.89 8.4
10/20/2020 10:15:00 PM 12.27 54.086 0.35 6.59 1.86 8.37
10/20/2020 10:30:00 PM 12.24 54.032 0.35 6.59 0.16 8.34
10/20/2020 10:45:00 PM 12.21 53.978 0.35 6.59 -0.61 8.3
10/20/2020 11:00:00 PM 12.18 53.924 0.35 6.58 18.18 8.19
10/20/2020 11:15:00 PM 12.15 53.87 0.35 6.59 0.78 8.17
10/20/2020 11:30:00 PM 12.13 53.834 0.349 6.58 1.86 8.2
10/20/2020 11:45:00 PM 12.1 53.78 0.349 6.57 -0.45 8.21
10/21/2020 12:00:00 AM 12.06 53.708 0.349 6.58 0.45 8.18
10/21/2020 12:15:00 AM 12.01 53.618 0.349 6.58 0.45 8.18
10/21/2020 12:30:00 AM 11.97 53.546 0.349 6.57 0.62 8.16
10/21/2020 12:45:00 AM 11.95 53.51 0.349 6.57 1.85 8.18
10/21/2020 1:00:00 AM 11.91 53.438 0.349 6.57 0.73 8.2
10/21/2020 1:15:00 AM 11.85 53.33 0.349 6.57 1.04 8.17
10/21/2020 1:30:00 AM 11.79 53.222 0.349 6.56 0.89 8.08
10/21/2020 1:45:00 AM 11.71 53.078 0.349 6.56 3.88 8.14
10/21/2020 2:00:00 AM 11.65 52.97 0.349 6.56 0.45 8.14
10/21/2020 2:15:00 AM 11.59 52.862 0.349 6.56 1.12 8.07
10/21/2020 2:30:00 AM 11.53 52.754 0.348 6.56 -0.1 8.11
10/21/2020 2:45:00 AM 11.48 52.664 0.348 6.55 2.21 8.13
10/21/2020 3:00:00 AM 11.43 52.574 0.348 6.56 -0.44 8.13
10/21/2020 3:15:00 AM 11.37 52.466 0.348 6.56 1.81 8.13
10/21/2020 3:30:00 AM 11.32 52.376 0.348 6.56 0.7 8.17
10/21/2020 3:45:00 AM 11.26 52.268 0.348 6.56 1.03 8.24
10/21/2020 4:00:00 AM 11.21 52.178 0.347 6.56 1.61 8.21
10/21/2020 4:15:00 AM 11.17 52.106 0.347 6.56 1.42 8.19
10/21/2020 4:30:00 AM 11.11 51.998 0.347 6.56 1.58 8.2
10/21/2020 4:45:00 AM 11.08 51.944 0.347 6.56 -0.36 8.24
10/21/2020 5:00:00 AM 11.06 51.908 0.347 6.56 2.3 8.1
10/21/2020 5:15:00 AM 11.01 51.818 0.346 6.56 0.2 8.27
10/21/2020 5:30:00 AM 10.96 51.728 0.346 6.57 1.45 8.24
10/21/2020 5:45:00 AM 10.91 51.638 0.346 6.57 -0.38 8.27
10/21/2020 6:00:00 AM 10.87 51.566 0.345 6.56 26.12 8.26
10/21/2020 6:15:00 AM 10.83 51.494 0.345 6.57 -0.41 8.27
10/21/2020 6:30:00 AM 10.78 51.404 0.345 6.56 0.51 8.22
10/21/2020 6:45:00 AM 10.73 51.314 0.345 6.57 -0.13 8.3
10/21/2020 7:00:00 AM 10.7 51.26 0.345 6.57 -0.67 8.35
10/21/2020 7:15:00 AM 10.65 51.17 0.345 6.57 10.01 8.3
10/21/2020 7:30:00 AM 10.62 51.116 0.345 6.57 -0.55 8.31
10/21/2020 7:45:00 AM 10.59 51.062 0.345 6.57 -0.65 8.33
10/21/2020 8:00:00 AM 10.57 51.026 0.345 6.57 -0.8 8.36
10/21/2020 8:15:00 AM 10.58 51.044 0.345 6.58 5.9 8.44
10/21/2020 8:30:00 AM 10.6 51.08 0.345 6.58 4.82 8.47
10/21/2020 8:45:00 AM 10.63 51.134 0.345 6.6 -0.77 8.61
10/21/2020 9:00:00 AM 10.64 51.152 0.345 6.6 -0.15 8.58
10/21/2020 9:15:00 AM 10.73 51.314 0.345 6.62 -1.18 8.82
10/21/2020 9:30:00 AM 10.9 51.62 0.345 6.65 -2.25 9
10/21/2020 9:45:00 AM 11.07 51.926 0.345 6.66 -2.18 9.09
10/21/2020 10:00:00 AM 11.3 52.34 0.345 6.66 -1.18 9.13
10/21/2020 10:15:00 AM 11.61 52.898 0.345 6.69 -2.36 9.26
10/21/2020 10:30:00 AM 11.9 53.42 0.344 6.69 -2.27 9.34
10/21/2020 10:45:00 AM 12.22 53.996 0.345 6.7 -1.67 9.55
10/21/2020 11:00:00 AM 12.55 54.59 0.345 6.73 -2.44 9.6
10/21/2020 11:15:00 AM 12.89 55.202 0.345 6.73 -1.43 9.79
10/21/2020 11:30:00 AM 13.31 55.958 0.345 6.73 -2.16 9.82
10/21/2020 11:45:00 AM 13.69 56.642 0.345 6.75 -2.38 9.93
10/21/2020 12:00:00 PM 14.08 57.344 0.345 6.75 -2.22 10.06
10/21/2020 12:15:00 PM 14.46 58.028 0.345 6.76 1.41 10.21
10/21/2020 12:30:00 PM 14.82 58.676 0.345 6.78 -1.07 10.16
10/21/2020 12:45:00 PM 15.15 59.27 0.344 6.79 -1.84 10.33
10/21/2020 1:00:00 PM 15.5 59.9 0.344 6.81 -1.03 10.41
10/21/2020 1:15:00 PM 15.8 60.44 0.344 6.81 -1.51 10.37
10/21/2020 1:30:00 PM 16.11 60.998 0.344 6.82 -1.49 10.47
10/21/2020 1:45:00 PM 16.18 61.124 0.344 6.81 -2.16 10.27
10/21/2020 2:00:00 PM 16.46 61.628 0.344 6.84 -2.22 10.35
10/21/2020 2:15:00 PM 16.78 62.204 0.344 6.84 -1.93 10.45
10/21/2020 2:30:00 PM 17.14 62.852 0.344 6.85 1.02 10.37
10/21/2020 2:45:00 PM 17.39 63.302 0.344 6.86 115.89 10.66
10/21/2020 3:00:00 PM 17.63 63.734 0.344 6.87 2.69 10.53
10/21/2020 3:15:00 PM 17.8 64.04 0.344 6.88 11.48 10.56
10/21/2020 3:30:00 PM 17.9 64.22 0.344 6.9 -0.33 10.43
10/21/2020 3:45:00 PM 18.01 64.418 0.344 6.88 12.11 10.45
10/21/2020 4:00:00 PM 18.06 64.508 0.344 6.9 -1.3 10.38
10/21/2020 4:15:00 PM 18.06 64.508 0.345 6.89 0.98 10.34
10/21/2020 4:30:00 PM 17.97 64.346 0.344 6.86 -0.42 10.26
10/21/2020 4:45:00 PM 17.87 64.166 0.344 6.85 -0.76 10.14
10/21/2020 5:00:00 PM 17.76 63.968 0.345 6.84 -1.78 10
10/21/2020 5:15:00 PM 17.66 63.788 0.345 6.84 6.8 9.86
10/21/2020 5:30:00 PM 17.57 63.626 0.345 6.84 -1.45 9.61
10/21/2020 5:45:00 PM 17.48 63.464 0.345 6.82 -1.34 9.42
10/21/2020 6:00:00 PM 17.39 63.302 0.345 6.79 -0.92 9.19
10/21/2020 6:15:00 PM 17.31 63.158 0.345 6.79 -0.73 8.95
10/21/2020 6:30:00 PM 17.23 63.014 0.346 6.78 -0.84 8.84
10/21/2020 6:45:00 PM 17.14 62.852 0.346 6.76 -0.93 8.63
10/21/2020 7:00:00 PM 17.03 62.654 0.346 6.75 0.19 8.54
10/21/2020 7:15:00 PM 16.91 62.438 0.346 6.75 0.42 8.48
10/21/2020 7:30:00 PM 16.76 62.168 0.346 6.73 1.84 8.33
10/21/2020 7:45:00 PM 16.6 61.88 0.347 6.72 -0.1 8.27
10/21/2020 8:00:00 PM 16.46 61.628 0.347 6.71 0.63 8.2
10/21/2020 8:15:00 PM 16.3 61.34 0.347 6.7 -0.26 8.13
10/21/2020 8:30:00 PM 16.14 61.052 0.348 6.69 2.65 8.06
10/21/2020 8:45:00 PM 15.94 60.692 0.348 6.68 0.63 7.99
10/21/2020 9:00:00 PM 15.82 60.476 0.348 6.68 -0.42 7.9
10/21/2020 9:15:00 PM 15.73 60.314 0.349 6.67 0.11 7.85
10/21/2020 9:30:00 PM 15.6 60.08 0.349 6.67 -1.55 7.77
10/21/2020 9:45:00 PM 15.5 59.9 0.349 6.67 0.2 7.76
10/21/2020 10:00:00 PM 15.39 59.702 0.35 6.67 0.44 7.68
10/21/2020 10:15:00 PM 15.3 59.54 0.35 6.65 1.59 7.66
10/21/2020 10:30:00 PM 15.18 59.324 0.35 6.64 -0.03 7.63
10/21/2020 10:45:00 PM 15.07 59.126 0.35 6.64 0.47 7.59
10/21/2020 11:00:00 PM 15 59 0.35 6.64 0.64 7.58
10/21/2020 11:15:00 PM 14.9 58.82 0.35 6.64 1.37 7.6
10/21/2020 11:30:00 PM 14.81 58.658 0.35 6.64 0.06 7.52
10/21/2020 11:45:00 PM 14.71 58.478 0.35 6.63 -0.03 7.53
10/22/2020 12:00:00 AM 14.61 58.298 0.35 6.63 0.59 7.53
10/22/2020 12:15:00 AM 14.45 58.01 0.35 6.63 -0.43 7.54
10/22/2020 12:30:00 AM 14.35 57.83 0.35 6.62 0.62 7.56
10/22/2020 12:45:00 AM 14.23 57.614 0.35 6.62 -0.29 7.56
10/22/2020 1:00:00 AM 14.14 57.452 0.35 6.62 0.28 7.53
10/22/2020 1:15:00 AM 14.05 57.29 0.35 6.62 2.01 7.53
10/22/2020 1:30:00 AM 13.95 57.11 0.35 6.61 0.94 7.51
10/22/2020 1:45:00 AM 13.88 56.984 0.35 6.62 0.23 7.48
10/22/2020 2:00:00 AM 13.8 56.84 0.35 6.61 2.38 7.55
10/22/2020 2:15:00 AM 13.74 56.732 0.35 6.62 1.95 7.53
10/22/2020 2:30:00 AM 13.66 56.588 0.35 6.62 0.87 7.5
10/22/2020 2:45:00 AM 13.61 56.498 0.35 6.62 1.92 7.52
10/22/2020 3:00:00 AM 13.54 56.372 0.35 6.62 1.26 7.54
10/22/2020 3:15:00 AM 13.48 56.264 0.35 6.62 0.1 7.52
10/22/2020 3:30:00 AM 13.41 56.138 0.35 6.62 1.96 7.58
10/22/2020 3:45:00 AM 13.34 56.012 0.35 6.62 0.52 7.55
10/22/2020 4:00:00 AM 13.27 55.886 0.35 6.62 4.72 7.55
10/22/2020 4:15:00 AM 13.19 55.742 0.35 6.63 3.25 7.6
10/22/2020 4:30:00 AM 13.15 55.67 0.35 6.62 0.86 7.57
10/22/2020 4:45:00 AM 13.12 55.616 0.35 6.63 -0.58 7.58
10/22/2020 5:00:00 AM 13.12 55.616 0.35 6.63 0.13 7.62
10/22/2020 5:15:00 AM 13.11 55.598 0.35 6.63 0.16 7.64
10/22/2020 5:30:00 AM 13.1 55.58 0.35 6.64 -1.47 7.62
10/22/2020 5:45:00 AM 13.09 55.562 0.35 6.63 -0.47 7.64
10/22/2020 6:00:00 AM 13.07 55.526 0.35 6.63 0.2 7.6
10/22/2020 6:15:00 AM 13.04 55.472 0.35 6.63 0.16 7.6
10/22/2020 6:30:00 AM 12.96 55.328 0.35 6.62 0.6 7.69
10/22/2020 6:45:00 AM 12.87 55.166 0.35 6.62 1.03 7.61
10/22/2020 7:00:00 AM 12.76 54.968 0.35 6.62 -0.21 7.7
10/22/2020 7:15:00 AM 12.68 54.824 0.35 6.61 3.22 7.7
10/22/2020 7:30:00 AM 12.59 54.662 0.35 6.61 -0.17 7.75
10/22/2020 7:45:00 AM 12.52 54.536 0.35 6.61 0.1 7.8
10/22/2020 8:00:00 AM 12.47 54.446 0.35 6.61 -1.4 7.82
10/22/2020 8:15:00 AM 12.43 54.374 0.35 6.62 -1.36 7.81
10/22/2020 8:30:00 AM 12.4 54.32 0.35 6.62 -1.02 7.89
10/22/2020 8:45:00 AM 12.41 54.338 0.349 6.63 -0.66 8.05
10/22/2020 9:00:00 AM 12.46 54.428 0.349 6.65 -0.06 8.11
10/22/2020 9:15:00 AM 12.53 54.554 0.349 6.67 -0.04 8.28
10/22/2020 9:30:00 AM 12.64 54.752 0.349 6.7 -0.43 8.34
10/22/2020 9:45:00 AM 12.78 55.004 0.349 6.7 -1.7 8.52
10/22/2020 10:00:00 AM 12.94 55.292 0.349 6.73 -1.45 8.53
10/22/2020 10:15:00 AM 13.15 55.67 0.349 6.72 -1.51 8.66
10/22/2020 10:30:00 AM 13.39 56.102 0.349 6.73 -1.5 8.76
10/22/2020 10:45:00 AM 13.66 56.588 0.349 6.74 -1.26 9.08
10/22/2020 11:00:00 AM 13.91 57.038 0.348 6.75 -1.64 8.95
10/22/2020 11:15:00 AM 14.27 57.686 0.349 6.75 -1.68 9.09
10/22/2020 11:30:00 AM 14.59 58.262 0.349 6.76 -1.58 9.12
10/22/2020 11:45:00 AM 14.97 58.946 0.349 6.78 2.23 9.46
10/22/2020 12:00:00 PM 15.3 59.54 0.348 6.79 -1.91 9.4
10/22/2020 12:15:00 PM 15.64 60.152 0.348 6.8 -1.73 9.6
10/22/2020 12:30:00 PM 16.04 60.872 0.349 6.81 -0.66 9.62
10/22/2020 12:45:00 PM 16.31 61.358 0.348 6.81 0.97 9.73
10/22/2020 1:00:00 PM 16.62 61.916 0.349 6.81 -0.77 9.78
10/22/2020 1:15:00 PM 16.92 62.456 0.349 6.83 -1.09 9.9
10/22/2020 1:30:00 PM 17.16 62.888 0.348 6.83 0.36 9.99
10/22/2020 1:45:00 PM 17.38 63.284 0.348 6.85 0.78 9.99
10/22/2020 2:00:00 PM 17.57 63.626 0.348 6.85 -0.62 10.08
10/22/2020 2:15:00 PM 17.82 64.076 0.349 6.85 -0.74 9.93
10/22/2020 2:30:00 PM 18.07 64.526 0.348 6.87 0.76 10
10/22/2020 2:45:00 PM 18.26 64.868 0.349 6.89 -1.3 10.2
10/22/2020 3:00:00 PM 18.44 65.192 0.348 6.87 -0.66 9.91
10/22/2020 3:15:00 PM 18.61 65.498 0.348 6.9 0.23 10.15
10/22/2020 3:30:00 PM 18.76 65.768 0.349 6.9 -0.34 10.1
10/22/2020 3:45:00 PM 18.8 65.84 0.349 6.9 -0.52 10.26
10/22/2020 4:00:00 PM 18.72 65.696 0.349 6.86 -0.87 10.11
10/22/2020 4:15:00 PM 18.82 65.876 0.349 6.9 -0.61 10.14
10/22/2020 4:30:00 PM 18.85 65.93 0.349 6.88 -0.8 9.72
10/22/2020 4:45:00 PM 18.76 65.768 0.349 6.87 -0.73 9.87
10/22/2020 5:00:00 PM 18.71 65.67799 0.349 6.86 7.9 9.8
10/22/2020 5:15:00 PM 18.62 65.516 0.349 6.86 -1.16 9.58
10/22/2020 5:30:00 PM 18.49 65.282 0.349 6.83 -1.07 9.45
10/22/2020 5:45:00 PM 18.36 65.048 0.349 6.83 0.7 9.26
10/22/2020 6:00:00 PM 18.21 64.778 0.349 6.82 -1.06 9.12
10/22/2020 6:15:00 PM 18.05 64.49 0.349 6.8 -0.87 8.89
10/22/2020 6:30:00 PM 17.89 64.202 0.349 6.79 -0.73 8.73
10/22/2020 6:45:00 PM 17.71 63.878 0.349 6.77 -0.71 8.54
10/22/2020 7:00:00 PM 17.52 63.536 0.348 6.76 -0.63 8.4
10/22/2020 7:15:00 PM 17.35 63.23 0.348 6.75 0.47 8.27
10/22/2020 7:30:00 PM 17.2 62.96 0.348 6.74 0.75 8.08
10/22/2020 7:45:00 PM 16.97 62.546 0.348 6.73 1.93 8.07
10/22/2020 8:00:00 PM 16.73 62.114 0.348 6.73 3.17 8.01
10/22/2020 8:15:00 PM 16.54 61.772 0.348 6.73 1.45 7.89
10/22/2020 8:30:00 PM 16.36 61.448 0.349 6.71 3.62 7.86
10/22/2020 8:45:00 PM 16.17 61.106 0.349 6.71 1.16 7.76
10/22/2020 9:00:00 PM 15.94 60.692 0.349 6.71 0.95 7.7
10/22/2020 9:15:00 PM 15.72 60.296 0.349 6.7 0.78 7.71
10/22/2020 9:30:00 PM 15.57 60.026 0.349 6.7 0.17 7.68
10/22/2020 9:45:00 PM 15.39 59.702 0.349 6.69 2.39 7.61
10/22/2020 10:00:00 PM 15.21 59.378 0.349 6.69 1.58 7.61
10/22/2020 10:15:00 PM 15.05 59.09 0.349 6.69 1.36 7.6
10/22/2020 10:30:00 PM 14.91 58.838 0.349 6.68 2.66 7.57
10/22/2020 10:45:00 PM 14.74 58.532 0.349 6.68 2.02 7.54
10/22/2020 11:00:00 PM 14.59 58.262 0.35 6.68 0.1 7.51
10/22/2020 11:15:00 PM 14.5 58.1 0.35 6.68 1.21 7.51
10/22/2020 11:30:00 PM 14.38 57.884 0.35 6.67 2.93 7.46
10/22/2020 11:45:00 PM 14.24 57.632 0.35 6.67 1.54 7.51
10/23/2020 12:00:00 AM 14.11 57.398 0.35 6.67 1.98 7.51
10/23/2020 12:15:00 AM 14 57.2 0.35 6.66 1 7.5
10/23/2020 12:30:00 AM 13.91 57.038 0.35 6.66 1.08 7.42
10/23/2020 12:45:00 AM 13.8 56.84 0.35 6.66 2.81 7.46
10/23/2020 1:00:00 AM 13.73 56.714 0.35 6.66 2.09 7.5
10/23/2020 1:15:00 AM 13.62 56.516 0.35 6.66 3.68 7.52
10/23/2020 1:30:00 AM 13.53 56.354 0.35 6.66 1.26 7.51
10/23/2020 1:45:00 AM 13.45 56.21 0.35 6.66 1.06 7.54
10/23/2020 2:00:00 AM 13.37 56.066 0.35 6.66 1.66 7.45
10/23/2020 2:15:00 AM 13.29 55.922 0.35 6.65 9.68 7.51
10/23/2020 2:30:00 AM 13.19 55.742 0.35 6.65 5.5 7.48
10/23/2020 2:45:00 AM 13.14 55.652 0.35 6.66 2.7 7.51
10/23/2020 3:00:00 AM 13.06 55.508 0.35 6.65 10.36 7.48
10/23/2020 3:15:00 AM 12.99 55.382 0.349 6.65 2.9 7.57
10/23/2020 3:30:00 AM 12.92 55.256 0.35 6.65 -0.14 7.58
10/23/2020 3:45:00 AM 12.86 55.148 0.35 6.65 3.2 7.57
10/23/2020 4:00:00 AM 12.79 55.022 0.35 6.66 0.77 7.62
10/23/2020 4:15:00 AM 12.73 54.914 0.35 6.65 0.42 7.62
10/23/2020 4:30:00 AM 12.67 54.806 0.35 6.65 1.16 7.62
10/23/2020 4:45:00 AM 12.62 54.716 0.35 6.65 4.39 7.61
10/23/2020 5:00:00 AM 12.61 54.698 0.35 6.65 0.56 7.61
10/23/2020 5:15:00 AM 12.59 54.662 0.35 6.66 4.78 7.59
10/23/2020 5:30:00 AM 12.58 54.644 0.35 6.65 102.09 7.63
10/23/2020 5:45:00 AM 12.53 54.554 0.35 6.66 2 7.69
10/23/2020 6:00:00 AM 12.45 54.41 0.35 6.65 -0.26 7.66
10/23/2020 6:15:00 AM 12.39 54.302 0.35 6.64 0.2 7.63
10/23/2020 6:30:00 AM 12.33 54.194 0.35 6.64 0.45 7.71
10/23/2020 6:45:00 AM 12.3 54.14 0.35 6.65 1.65 7.72
10/23/2020 7:00:00 AM 12.24 54.032 0.35 6.64 0.74 7.62
10/23/2020 7:15:00 AM 12.2 53.96 0.35 6.64 0.74 7.75
10/23/2020 7:30:00 AM 12.15 53.87 0.35 6.65 -1.25 7.78
10/23/2020 7:45:00 AM 12.12 53.816 0.35 6.65 -1.65 7.8
10/23/2020 8:00:00 AM 12.12 53.816 0.35 6.65 -1.94 7.79
10/23/2020 8:15:00 AM 12.11 53.798 0.35 6.65 -0.42 7.82
10/23/2020 8:30:00 AM 12.11 53.798 0.35 6.66 -0.84 7.9
10/23/2020 8:45:00 AM 12.11 53.798 0.351 6.66 -1.97 7.97
10/23/2020 9:00:00 AM 12.14 53.852 0.35 6.66 -0.94 8.04
10/23/2020 9:15:00 AM 12.23 54.014 0.35 6.68 -0.9 8.18
10/23/2020 9:30:00 AM 12.42 54.356 0.35 6.71 -1.66 8.27
10/23/2020 9:45:00 AM 12.52 54.536 0.35 6.71 -1.02 8.48
10/23/2020 10:00:00 AM 12.72 54.896 0.35 6.73 -2.29 8.63
10/23/2020 10:15:00 AM 12.93 55.274 0.35 6.74 -2.59 8.7
10/23/2020 10:30:00 AM 13.2 55.76 0.35 6.76 -1.41 8.81
10/23/2020 10:45:00 AM 13.57 56.426 0.35 6.77 -2.15 8.83
10/23/2020 11:00:00 AM 13.81 56.858 0.35 6.78 -2.3 9.08
10/23/2020 11:15:00 AM 14.14 57.452 0.35 6.77 -2.41 9.03
10/23/2020 11:30:00 AM 14.36 57.848 0.35 6.79 -2.39 9.21
10/23/2020 11:45:00 AM 14.77 58.586 0.35 6.8 -2.1 9.26
10/23/2020 12:00:00 PM 15.12 59.216 0.35 6.79 -2.11 9.37
10/23/2020 12:15:00 PM 15.45 59.81 0.35 6.81 -1.98 9.51
10/23/2020 12:30:00 PM 15.84 60.512 0.35 6.82 -1.85 9.64
10/23/2020 12:45:00 PM 16.15 61.07 0.35 6.82 -1.56 9.59
10/23/2020 1:00:00 PM 16.31 61.358 0.349 6.82 -1 9.85
10/23/2020 1:15:00 PM 16.37 61.466 0.349 6.81 -1.98 9.77
10/23/2020 1:30:00 PM 16.62 61.916 0.349 6.85 -2.3 9.89
10/23/2020 1:45:00 PM 16.93 62.474 0.349 6.86 -2.07 10.06
10/23/2020 2:00:00 PM 17.25 63.05 0.349 6.87 -2.02 9.92
10/23/2020 2:15:00 PM 17.64 63.752 0.35 6.88 -1.59 9.93
10/23/2020 2:30:00 PM 17.76 63.968 0.35 6.87 -1.84 9.88
10/23/2020 2:45:00 PM 17.76 63.968 0.349 6.84 -2.29 9.93
10/23/2020 3:00:00 PM 17.95 64.31 0.349 6.88 -1.91 9.96
10/23/2020 3:15:00 PM 18.22 64.796 0.349 6.9 -1.95 9.84
10/23/2020 3:30:00 PM 18.24 64.832 0.349 6.89 -1.71 10.08
10/23/2020 3:45:00 PM 18.23 64.814 0.349 6.88 -1.56 10.03
10/23/2020 4:00:00 PM 18.11 64.598 0.349 6.86 -1.83 9.91
10/23/2020 4:15:00 PM 18.04 64.472 0.349 6.85 -1.91 9.66
10/23/2020 4:30:00 PM 17.95 64.31 0.349 6.85 -2.09 9.55
10/23/2020 4:45:00 PM 17.93 64.274 0.349 6.84 -2.16 9.47
10/23/2020 5:00:00 PM 17.98 64.364 0.349 6.85 1.09 9.47
10/23/2020 5:15:00 PM 17.96 64.328 0.349 6.86 -2.18 9.46
10/23/2020 5:30:00 PM 17.91 64.238 0.349 6.85 -1.7 9.25
10/23/2020 5:45:00 PM 17.83 64.094 0.349 6.84 -1.45 9.11
10/23/2020 6:00:00 PM 17.71 63.878 0.35 6.84 -0.52 9.06
10/23/2020 6:15:00 PM 17.62 63.716 0.35 6.82 -1.59 8.86
10/23/2020 6:30:00 PM 17.47 63.446 0.35 6.79 -1.77 8.62
10/23/2020 6:45:00 PM 17.32 63.176 0.349 6.78 1.3 8.52
10/23/2020 7:00:00 PM 17.18 62.924 0.349 6.77 -1.48 8.35
10/23/2020 7:15:00 PM 17.01 62.618 0.349 6.77 -1.53 8.27
10/23/2020 7:30:00 PM 16.86 62.348 0.349 6.76 -0.89 8.16
10/23/2020 7:45:00 PM 16.71 62.078 0.349 6.75 -0.62 8
10/23/2020 8:00:00 PM 16.55 61.79 0.35 6.74 -1.01 7.99
10/23/2020 8:15:00 PM 16.4 61.52 0.35 6.73 -0.25 7.91
10/23/2020 8:30:00 PM 16.25 61.25 0.35 6.72 -0.15 7.8
10/23/2020 8:45:00 PM 16.07 60.926 0.35 6.71 -1.01 7.78
10/23/2020 9:00:00 PM 15.92 60.656 0.35 6.7 0.02 7.75
10/23/2020 9:15:00 PM 15.76 60.368 0.35 6.7 -0.89 7.7
10/23/2020 9:30:00 PM 15.62 60.116 0.351 6.7 -0.03 7.64
10/23/2020 9:45:00 PM 15.46 59.828 0.35 6.69 -0.84 7.62
10/23/2020 10:00:00 PM 15.31 59.558 0.351 6.69 -0.05 7.61
10/23/2020 10:15:00 PM 15.18 59.324 0.351 6.68 0.32 7.49
10/23/2020 10:30:00 PM 15.04 59.072 0.351 6.67 -0.98 7.55
10/23/2020 10:45:00 PM 14.93 58.874 0.351 6.68 -0.38 7.51
10/23/2020 11:00:00 PM 14.79 58.622 0.351 6.68 -0.66 7.49
10/23/2020 11:15:00 PM 14.67 58.406 0.351 6.67 2.43 7.44
10/23/2020 11:30:00 PM 14.55 58.19 0.351 6.67 0.93 7.43
10/23/2020 11:45:00 PM 14.44 57.992 0.351 6.67 0.75 7.45
10/24/2020 12:00:00 AM 14.37 57.866 0.351 6.64 1.73 7.36
10/24/2020 12:15:00 AM 14.28 57.704 0.351 6.66 1.69 7.39
10/24/2020 12:30:00 AM 14.2 57.56 0.351 6.65 3.66 7.29
10/24/2020 12:45:00 AM 14.12 57.416 0.351 6.66 1.93 7.33
10/24/2020 1:00:00 AM 14.1 57.38 0.351 6.65 2.87 7.37
10/24/2020 1:15:00 AM 14.04 57.272 0.351 6.66 1.67 7.35
10/24/2020 1:30:00 AM 14 57.2 0.351 6.65 3.15 7.37
10/24/2020 1:45:00 AM 13.96 57.128 0.351 6.65 2.05 7.36
10/24/2020 2:00:00 AM 13.92 57.056 0.351 6.65 8.37 7.29
10/24/2020 2:15:00 AM 13.91 57.038 0.35 6.66 4.73 7.39
10/24/2020 2:30:00 AM 13.9 57.02 0.35 6.66 4.3 7.29
10/24/2020 2:45:00 AM 13.89 57.002 0.35 6.66 4.5 7.41
10/24/2020 3:00:00 AM 13.88 56.984 0.35 6.66 2.87 7.36
10/24/2020 3:15:00 AM 13.9 57.02 0.348 6.66 5.29 7.37
10/24/2020 3:30:00 AM 13.9 57.02 0.348 6.66 3.84 7.28
10/24/2020 3:45:00 AM 13.9 57.02 0.347 6.66 2.49 7.26
10/24/2020 4:00:00 AM 13.93 57.074 0.343 6.66 5.08 7.34
10/24/2020 4:15:00 AM 13.95 57.11 0.34 6.65 3.28 7.2
10/24/2020 4:30:00 AM 13.94 57.092 0.341 6.65 3.5 7.23
10/24/2020 4:45:00 AM 13.93 57.074 0.343 6.65 10.13 7.26
10/24/2020 5:00:00 AM 13.93 57.074 0.344 6.65 3.6 7.12
10/24/2020 5:15:00 AM 13.94 57.092 0.345 6.65 8.08 7.17
10/24/2020 5:30:00 AM 13.95 57.11 0.346 6.66 1.3 7.26
10/24/2020 5:45:00 AM 13.97 57.146 0.347 6.66 1.99 7.29
10/24/2020 6:00:00 AM 13.98 57.164 0.348 6.67 -0.41 7.18
10/24/2020 6:15:00 AM 13.98 57.164 0.35 6.66 0.22 7.35
10/24/2020 6:30:00 AM 13.92 57.056 0.351 6.65 -0.09 7.32
10/24/2020 6:45:00 AM 13.84 56.912 0.352 6.65 0.37 7.38
10/24/2020 7:00:00 AM 13.77 56.786 0.353 6.64 0.65 7.36
10/24/2020 7:15:00 AM 13.73 56.714 0.354 6.63 0.21 7.33
10/24/2020 7:30:00 AM 13.65 56.57 0.354 6.63 1.27 7.29
10/24/2020 7:45:00 AM 13.56 56.408 0.353 6.63 0.21 7.33
10/24/2020 8:00:00 AM 13.52 56.336 0.353 6.62 0.05 7.23
10/24/2020 8:15:00 AM 13.46 56.228 0.353 6.62 -0.98 7.39
10/24/2020 8:30:00 AM 13.41 56.138 0.352 6.62 -0.61 7.37
10/24/2020 8:45:00 AM 13.36 56.048 0.351 6.62 -0.61 7.44
10/24/2020 9:00:00 AM 13.32 55.976 0.35 6.63 -0.75 7.46
10/24/2020 9:15:00 AM 13.29 55.922 0.35 6.63 -1.33 7.52
10/24/2020 9:30:00 AM 13.27 55.886 0.349 6.64 -0.67 7.59
10/24/2020 9:45:00 AM 13.27 55.886 0.348 6.64 -0.68 7.68
10/24/2020 10:00:00 AM 13.26 55.868 0.347 6.65 -1.06 7.76
10/24/2020 10:15:00 AM 13.26 55.868 0.347 6.65 -0.63 7.93
10/24/2020 10:30:00 AM 13.29 55.922 0.346 6.67 0.51 8.12
10/24/2020 10:45:00 AM 13.3 55.94 0.346 6.68 -0.06 8.15
10/24/2020 11:00:00 AM 13.35 56.03 0.346 6.7 -0.8 8.36
10/24/2020 11:15:00 AM 13.47 56.246 0.346 6.72 -1.17 8.56
10/24/2020 11:30:00 AM 13.45 56.21 0.347 6.72 -0.91 8.63
10/24/2020 11:45:00 AM 13.44 56.192 0.347 6.7 -0.56 8.51
10/24/2020 12:00:00 PM 13.41 56.138 0.347 6.71 -0.37 8.75
10/24/2020 12:15:00 PM 13.39 56.102 0.347 6.71 -1.05 8.81
10/24/2020 12:30:00 PM 13.41 56.138 0.347 6.72 -1.63 8.96
10/24/2020 12:45:00 PM 13.63 56.534 0.347 6.75 -1.68 8.95
10/24/2020 1:00:00 PM 13.65 56.57 0.347 6.76 -1.37 9.19
10/24/2020 1:15:00 PM 13.7 56.66 0.347 6.77 -1.38 9.34
10/24/2020 1:30:00 PM 13.7 56.66 0.347 6.77 -1.41 9.44
10/24/2020 1:45:00 PM 13.67 56.606 0.347 6.77 -1.47 9.58
10/24/2020 2:00:00 PM 13.66 56.588 0.347 6.77 -0.16 9.62
10/24/2020 2:15:00 PM 13.66 56.588 0.347 6.78 -1.36 9.67
10/24/2020 2:30:00 PM 13.67 56.606 0.347 6.78 -1.18 9.77
10/24/2020 2:45:00 PM 13.68 56.624 0.347 6.79 -0.96 9.88
10/24/2020 3:00:00 PM 13.7 56.66 0.347 6.8 1.76 9.87
10/24/2020 3:15:00 PM 13.76 56.768 0.347 6.81 0.67 9.91
10/24/2020 3:30:00 PM 13.75 56.75 0.347 6.82 -0.38 10.08
10/24/2020 3:45:00 PM 13.77 56.786 0.347 6.83 1.04 10.13
10/24/2020 4:00:00 PM 13.74 56.732 0.347 6.83 -1.43 10.1
10/24/2020 4:15:00 PM 13.73 56.714 0.347 6.82 -1.4 10.03
10/24/2020 4:30:00 PM 13.7 56.66 0.347 6.83 -0.1 10.18
10/24/2020 4:45:00 PM 13.62 56.516 0.348 6.83 -1.35 10.11
10/24/2020 5:00:00 PM 13.54 56.372 0.348 6.8 -1.33 9.97
10/24/2020 5:15:00 PM 13.45 56.21 0.348 6.8 -1.49 9.98
10/24/2020 5:30:00 PM 13.33 55.994 0.348 6.8 -1.02 9.88
10/24/2020 5:45:00 PM 13.22 55.796 0.348 6.78 -1.46 9.77
10/24/2020 6:00:00 PM 13.1 55.58 0.348 6.78 -0.89 9.68
10/24/2020 6:15:00 PM 13 55.4 0.348 6.77 -1.08 9.49
10/24/2020 6:30:00 PM 12.87 55.166 0.349 6.76 -0.75 9.38
10/24/2020 6:45:00 PM 12.78 55.004 0.349 6.75 -1.14 9.27
10/24/2020 7:00:00 PM 12.7 54.86 0.349 6.74 -1.17 9.14
10/24/2020 7:15:00 PM 12.63 54.734 0.349 6.74 -0.9 9.04
10/24/2020 7:30:00 PM 12.56 54.608 0.349 6.74 -0.81 8.98
10/24/2020 7:45:00 PM 12.48 54.464 0.35 6.73 1.09 8.88
10/24/2020 8:00:00 PM 12.37 54.266 0.349 6.72 0.6 8.77
10/24/2020 8:15:00 PM 12.27 54.086 0.349 6.71 0.49 8.78
10/24/2020 8:30:00 PM 12.13 53.834 0.35 6.71 0.57 8.75
10/24/2020 8:45:00 PM 12 53.6 0.349 6.71 0.5 8.68
10/24/2020 9:00:00 PM 11.88 53.384 0.35 6.7 -0.25 8.63
10/24/2020 9:15:00 PM 11.76 53.168 0.35 6.69 6.21 8.6
10/24/2020 9:30:00 PM 11.7 53.06 0.35 6.69 -0.07 8.54
10/24/2020 9:45:00 PM 11.63 52.934 0.35 6.69 0.43 8.5
10/24/2020 10:00:00 PM 11.58 52.844 0.35 6.69 2.31 8.48
10/24/2020 10:15:00 PM 11.54 52.772 0.35 6.68 1.55 8.46
10/24/2020 10:30:00 PM 11.49 52.682 0.351 6.68 1.77 8.38
10/24/2020 10:45:00 PM 11.42 52.556 0.351 6.67 1.39 8.35
10/24/2020 11:00:00 PM 11.31 52.358 0.351 6.67 1.33 8.37
10/24/2020 11:15:00 PM 11.2 52.16 0.351 6.67 2.71 8.33
10/24/2020 11:30:00 PM 11.05 51.89 0.351 6.67 8.09 8.35
10/24/2020 11:45:00 PM 10.96 51.728 0.352 6.67 19.04 8.31
10/25/2020 12:00:00 AM 10.87 51.566 0.351 6.66 27.95 8.3
10/25/2020 12:15:00 AM 10.77 51.386 0.351 6.67 33.79 8.33
10/25/2020 12:30:00 AM 10.67 51.206 0.351 6.67 33.85 8.33
10/25/2020 12:45:00 AM 10.58 51.044 0.351 6.68 34.48 8.36
10/25/2020 1:00:00 AM 10.52 50.936 0.351 6.68 28.9 8.3
10/25/2020 1:15:00 AM 10.44 50.792 0.351 6.68 26.57 8.34
10/25/2020 1:30:00 AM 10.35 50.63 0.351 6.68 20.34 8.33
10/25/2020 1:45:00 AM 10.27 50.486 0.351 6.68 18.76 8.36
10/25/2020 2:00:00 AM 10.19 50.342 0.352 6.68 15 8.36
10/25/2020 2:15:00 AM 10.11 50.198 0.353 6.68 10.67 8.4
10/25/2020 2:30:00 AM 10.02 50.036 0.355 6.68 12.26 8.4
10/25/2020 2:45:00 AM 9.94 49.892 0.356 6.68 11.73 8.44
10/25/2020 3:00:00 AM 9.85 49.73 0.357 6.68 11.57 8.49
10/25/2020 3:15:00 AM 9.76 49.568 0.357 6.69 9.92 8.51
10/25/2020 3:30:00 AM 9.69 49.442 0.357 6.69 11.41 8.52
10/25/2020 3:45:00 AM 9.61 49.298 0.358 6.69 12.99 8.55
10/25/2020 4:00:00 AM 9.54 49.172 0.358 6.69 14.14 8.54
10/25/2020 4:15:00 AM 9.45 49.01 0.358 6.69 18.07 8.61
10/25/2020 4:30:00 AM 9.37 48.866 0.358 6.69 19.92 8.58
10/25/2020 4:45:00 AM 9.31 48.758 0.357 6.69 17.93 8.64
10/25/2020 5:00:00 AM 9.25 48.65 0.357 6.69 19.87 8.54
10/25/2020 5:15:00 AM 9.2 48.56 0.357 6.7 15.35 8.65
10/25/2020 5:30:00 AM 9.12 48.416 0.357 6.7 13.35 8.63
10/25/2020 5:45:00 AM 9.1 48.38 0.357 6.7 13.97 8.68
10/25/2020 6:00:00 AM 9.1 48.38 0.357 6.7 11.22 8.65
10/25/2020 6:15:00 AM 9.1 48.38 0.357 6.7 9.51 8.7
10/25/2020 6:30:00 AM 9.1 48.38 0.357 6.7 7.41 8.71
10/25/2020 6:45:00 AM 9.09 48.362 0.357 6.7 8.46 8.68
10/25/2020 7:00:00 AM 9.06 48.308 0.356 6.7 7.47 8.75
10/25/2020 7:15:00 AM 9.04 48.272 0.357 6.71 4.89 8.7
10/25/2020 7:30:00 AM 8.98 48.164 0.357 6.7 3.96 8.75
10/25/2020 7:45:00 AM 8.93 48.074 0.357 6.69 6.57 8.74
10/25/2020 8:00:00 AM 8.89 48.002 0.357 6.68 3.8 8.75
10/25/2020 8:15:00 AM 8.86 47.948 0.357 6.68 8.06 8.76
10/25/2020 8:30:00 AM 8.83 47.894 0.357 6.67 14.9 8.77
10/25/2020 8:45:00 AM 8.82 47.876 0.357 6.67 20.07 8.84
10/25/2020 9:00:00 AM 8.82 47.876 0.357 6.67 17.34 8.9
10/25/2020 9:15:00 AM 8.85 47.93 0.357 6.69 16.76 9
10/25/2020 9:30:00 AM 8.91 48.038 0.357 6.69 17.25 9.13
10/25/2020 9:45:00 AM 8.95 48.11 0.357 6.7 15.1 9.19
10/25/2020 10:00:00 AM 8.99 48.182 0.357 6.7 13.72 9.33
10/25/2020 10:15:00 AM 9.09 48.362 0.356 6.71 9.64 9.44
10/25/2020 10:30:00 AM 9.2 48.56 0.356 6.71 7.69 9.56
10/25/2020 10:45:00 AM 9.41 48.938 0.356 6.74 5.99 9.69
10/25/2020 11:00:00 AM 9.63 49.334 0.356 6.76 3.17 9.79
10/25/2020 11:15:00 AM 9.91 49.838 0.355 6.77 3.09 9.87
10/25/2020 11:30:00 AM 10.06 50.108 0.355 6.77 2.22 10.07
10/25/2020 11:45:00 AM 10.2 50.36 0.355 6.77 1.09 10.19
10/25/2020 12:00:00 PM 10.39 50.702 0.354 6.8 0.25 10.31
10/25/2020 12:15:00 PM 10.47 50.846 0.354 6.79 0.01 10.37
10/25/2020 12:30:00 PM 10.61 51.098 0.354 6.8 -0.51 10.45
10/25/2020 12:45:00 PM 10.71 51.278 0.353 6.79 -0.3 10.54
10/25/2020 1:00:00 PM 10.87 51.566 0.353 6.81 -0.59 10.64
10/25/2020 1:15:00 PM 11.02 51.836 0.353 6.82 1.69 10.67
10/25/2020 1:30:00 PM 11.14 52.052 0.352 6.81 -1.11 10.74
10/25/2020 1:45:00 PM 11.24 52.232 0.352 6.81 -1.05 10.82
10/25/2020 2:00:00 PM 11.35 52.43 0.352 6.82 0.37 10.88
10/25/2020 2:15:00 PM 11.47 52.646 0.351 6.83 -1.05 10.89
10/25/2020 2:30:00 PM 11.55 52.79 0.351 6.84 -0.67 10.94
10/25/2020 2:45:00 PM 11.59 52.862 0.351 6.82 0.73 10.87
10/25/2020 3:00:00 PM 11.58 52.844 0.351 6.81 -0.39 10.92
10/25/2020 3:15:00 PM 11.52 52.736 0.351 6.8 0.27 10.85
10/25/2020 3:30:00 PM 11.42 52.556 0.351 6.77 0.07 10.71
10/25/2020 3:45:00 PM 11.32 52.376 0.351 6.78 -0.02 10.62
10/25/2020 4:00:00 PM 11.24 52.232 0.351 6.77 -0.47 10.53
10/25/2020 4:15:00 PM 11.21 52.178 0.351 6.77 -0.52 10.44
10/25/2020 4:30:00 PM 11.2 52.16 0.351 6.78 -0.46 10.43
10/25/2020 4:45:00 PM 11.14 52.052 0.351 6.78 -0.15 10.42
10/25/2020 5:00:00 PM 11.09 51.962 0.351 6.78 -1.14 10.38
10/25/2020 5:15:00 PM 11.04 51.872 0.351 6.78 -1.27 10.28
10/25/2020 5:30:00 PM 10.97 51.746 0.351 6.78 -1.47 10.25
10/25/2020 5:45:00 PM 10.89 51.602 0.351 6.77 -1.29 10.08
10/25/2020 6:00:00 PM 10.82 51.476 0.351 6.76 -1.32 10.03
10/25/2020 6:15:00 PM 10.73 51.314 0.351 6.75 -1.64 9.91
10/25/2020 6:30:00 PM 10.64 51.152 0.352 6.75 -1.69 9.82
10/25/2020 6:45:00 PM 10.54 50.972 0.352 6.74 -1.19 9.75
10/25/2020 7:00:00 PM 10.46 50.828 0.352 6.73 1.55 9.69
10/25/2020 7:15:00 PM 10.41 50.738 0.352 6.73 0.86 9.59
10/25/2020 7:30:00 PM 10.33 50.594 0.352 6.72 -0.83 9.55
10/25/2020 7:45:00 PM 10.26 50.468 0.352 6.72 -1 9.45
10/25/2020 8:00:00 PM 10.2 50.36 0.353 6.72 -0.82 9.44
10/25/2020 8:15:00 PM 10.15 50.27 0.353 6.71 0.04 9.36
10/25/2020 8:30:00 PM 10.11 50.198 0.353 6.7 -0.4 9.32
10/25/2020 8:45:00 PM 10.03 50.054 0.351 6.71 -0.56 9.3
10/25/2020 9:00:00 PM 9.98 49.964 0.35 6.7 0.54 9.31
10/25/2020 9:15:00 PM 9.92 49.856 0.35 6.7 0.8 9.25
10/25/2020 9:30:00 PM 9.88 49.784 0.35 6.69 1.94 9.25
10/25/2020 9:45:00 PM 9.84 49.712 0.349 6.69 1.9 9.16
10/25/2020 10:00:00 PM 9.79 49.622 0.346 6.67 2.1 9.1
10/25/2020 10:15:00 PM 9.73 49.514 0.347 6.66 6.14 9.07
10/25/2020 10:30:00 PM 9.69 49.442 0.349 6.67 0.91 9.03
10/25/2020 10:45:00 PM 9.67 49.406 0.35 6.66 7.43 8.86
10/25/2020 11:00:00 PM 9.61 49.298 0.351 6.66 0.82 8.99
10/25/2020 11:15:00 PM 9.58 49.244 0.351 6.65 2.81 8.94
10/25/2020 11:30:00 PM 9.54 49.172 0.351 6.66 5.03 8.93
10/25/2020 11:45:00 PM 9.46 49.028 0.352 6.65 1.71 8.94
10/26/2020 12:00:00 AM 9.42 48.956 0.352 6.65 1.9 8.95
10/26/2020 12:15:00 AM 9.34 48.812 0.353 6.65 1.42 8.99
10/26/2020 12:30:00 AM 9.3 48.74 0.353 6.65 1.08 8.97
10/26/2020 12:45:00 AM 9.27 48.686 0.353 6.66 6.56 8.93
10/26/2020 1:00:00 AM 9.23 48.614 0.354 6.66 4.14 8.99
10/26/2020 1:15:00 AM 9.22 48.596 0.354 6.65 1.1 8.94
10/26/2020 1:30:00 AM 9.2 48.56 0.354 6.64 2.07 8.91
10/26/2020 1:45:00 AM 9.18 48.524 0.354 6.65 2.59 8.92
10/26/2020 2:00:00 AM 9.18 48.524 0.354 6.64 2.75 8.85
10/26/2020 2:15:00 AM 9.13 48.434 0.354 6.63 3.12 8.83
10/26/2020 2:30:00 AM 9.09 48.362 0.354 6.63 1.94 8.88
10/26/2020 2:45:00 AM 9.07 48.326 0.353 6.63 0.7 8.89
10/26/2020 3:00:00 AM 9.06 48.308 0.353 6.63 2.11 8.85
10/26/2020 3:15:00 AM 9.03 48.254 0.353 6.63 0.57 8.91
10/26/2020 3:30:00 AM 9.01 48.218 0.352 6.63 0.94 8.87
10/26/2020 3:45:00 AM 9.01 48.218 0.352 6.63 1.1 8.85
10/26/2020 4:00:00 AM 8.99 48.182 0.352 6.62 1.37 8.86
10/26/2020 4:15:00 AM 8.98 48.164 0.352 6.63 1.94 8.87
10/26/2020 4:30:00 AM 8.97 48.146 0.352 6.62 1.85 8.86
10/26/2020 4:45:00 AM 8.98 48.164 0.352 6.62 2.01 8.86
10/26/2020 5:00:00 AM 8.98 48.164 0.352 6.63 1.52 8.89
10/26/2020 5:15:00 AM 8.98 48.164 0.352 6.63 1.32 8.86
10/26/2020 5:30:00 AM 8.97 48.146 0.352 6.63 1.17 8.88
10/26/2020 5:45:00 AM 8.98 48.164 0.351 6.63 1.48 8.88
10/26/2020 6:00:00 AM 8.98 48.164 0.352 6.63 0.14 8.89
10/26/2020 6:15:00 AM 8.99 48.182 0.352 6.63 1.25 8.88
10/26/2020 6:30:00 AM 8.99 48.182 0.352 6.63 0.99 8.89
10/26/2020 6:45:00 AM 9.01 48.218 0.352 6.63 1.4 8.87
10/26/2020 7:00:00 AM 9.01 48.218 0.352 6.63 42.62 8.87
10/26/2020 7:15:00 AM 9.03 48.254 0.352 6.63 -0.26 8.86
10/26/2020 7:30:00 AM 9.04 48.272 0.352 6.63 0.8 8.87
10/26/2020 7:45:00 AM 9.05 48.29 0.352 6.63 -0.18 8.83
10/26/2020 8:00:00 AM 9.06 48.308 0.352 6.63 -0.35 8.87
10/26/2020 8:15:00 AM 9.08 48.344 0.352 6.63 0.19 8.89
10/26/2020 8:30:00 AM 9.11 48.398 0.352 6.63 -0.22 8.89
10/26/2020 8:45:00 AM 9.16 48.488 0.352 6.64 0.68 8.99
10/26/2020 9:00:00 AM 9.22 48.596 0.352 6.66 1.29 9.05
10/26/2020 9:15:00 AM 9.27 48.686 0.352 6.65 0.26 9.08
10/26/2020 9:30:00 AM 9.33 48.794 0.352 6.65 -0.38 9.11
10/26/2020 9:45:00 AM 9.41 48.938 0.352 6.66 -0.64 9.19
10/26/2020 10:00:00 AM 9.49 49.082 0.352 6.66 -0.01 9.25
10/26/2020 10:15:00 AM 9.6 49.28 0.352 6.67 -0.77 9.38
10/26/2020 10:30:00 AM 9.74 49.532 0.351 6.68 -0.9 9.45
10/26/2020 10:45:00 AM 9.85 49.73 0.351 6.69 -0.78 9.56
10/26/2020 11:00:00 AM 10 50 0.351 6.69 -0.37 9.68
10/26/2020 11:15:00 AM 10.14 50.252 0.351 6.69 1.12 9.79
10/26/2020 11:30:00 AM 10.32 50.576 0.351 6.7 -0.71 9.82
10/26/2020 11:45:00 AM 10.48 50.864 0.351 6.71 -0.92 9.99
10/26/2020 12:00:00 PM 10.64 51.152 0.35 6.72 -0.72 10.07
10/26/2020 12:15:00 PM 10.81 51.458 0.35 6.72 -0.98 10.08
10/26/2020 12:30:00 PM 10.94 51.692 0.35 6.73 -0.86 10.24
10/26/2020 12:45:00 PM 11.1 51.98 0.35 6.73 0.12 10.35
10/26/2020 1:00:00 PM 11.23 52.214 0.35 6.73 -0.73 10.32
10/26/2020 1:15:00 PM 11.41 52.538 0.35 6.75 0.13 10.39
10/26/2020 1:30:00 PM 11.49 52.682 0.35 6.74 -0.31 10.42
10/26/2020 1:45:00 PM 11.58 52.844 0.35 6.73 0.19 10.39
10/26/2020 2:00:00 PM 11.64 52.952 0.35 6.72 -0.13 10.38
10/26/2020 2:15:00 PM 11.76 53.168 0.349 6.73 1.12 10.36
10/26/2020 2:30:00 PM 11.89 53.402 0.349 6.74 0.41 10.45
10/26/2020 2:45:00 PM 12.03 53.654 0.349 6.76 0.02 10.59
10/26/2020 3:00:00 PM 12.29 54.122 0.348 6.78 -0.74 10.54
10/26/2020 3:15:00 PM 12.45 54.41 0.348 6.78 -0.41 10.71
10/26/2020 3:30:00 PM 12.49 54.482 0.348 6.77 -0.56 10.6
10/26/2020 3:45:00 PM 12.51 54.518 0.348 6.76 -0.1 10.61
10/26/2020 4:00:00 PM 12.5 54.5 0.348 6.75 0.27 10.47
10/26/2020 4:15:00 PM 12.49 54.482 0.349 6.75 -0.37 10.38
10/26/2020 4:30:00 PM 12.48 54.464 0.349 6.75 1.31 10.32
10/26/2020 4:45:00 PM 12.46 54.428 0.349 6.74 -0.56 10.2
10/26/2020 5:00:00 PM 12.44 54.392 0.349 6.73 -0.38 9.95
10/26/2020 5:15:00 PM 12.42 54.356 0.349 6.72 -0.37 9.91
10/26/2020 5:30:00 PM 12.39 54.302 0.349 6.72 0.18 9.78
10/26/2020 5:45:00 PM 12.37 54.266 0.349 6.71 0.97 9.69
10/26/2020 6:00:00 PM 12.35 54.23 0.349 6.7 0.23 9.57
10/26/2020 6:15:00 PM 12.32 54.176 0.349 6.7 0.76 9.42
10/26/2020 6:30:00 PM 12.29 54.122 0.35 6.69 0.98 9.37
10/26/2020 6:45:00 PM 12.26 54.068 0.35 6.68 1.25 9.28
10/26/2020 7:00:00 PM 12.22 53.996 0.35 6.68 2.37 9.17
10/26/2020 7:15:00 PM 12.18 53.924 0.35 6.68 2.99 9.13
10/26/2020 7:30:00 PM 12.15 53.87 0.35 6.68 2.57 9.1
10/26/2020 7:45:00 PM 12.12 53.816 0.35 6.66 3.36 8.93
10/26/2020 8:00:00 PM 12.08 53.744 0.35 6.66 7.25 8.96
10/26/2020 8:15:00 PM 12.03 53.654 0.35 6.66 4.53 8.91
10/26/2020 8:30:00 PM 11.97 53.546 0.35 6.65 3.13 8.83
10/26/2020 8:45:00 PM 11.93 53.474 0.35 6.65 6.59 8.79
10/26/2020 9:00:00 PM 11.9 53.42 0.35 6.64 5.32 8.64
10/26/2020 9:15:00 PM 11.85 53.33 0.349 6.64 2.52 8.74
10/26/2020 9:30:00 PM 11.82 53.276 0.349 6.64 3.6 8.7
10/26/2020 9:45:00 PM 11.76 53.168 0.349 6.63 3.44 8.63
10/26/2020 10:00:00 PM 11.72 53.096 0.349 6.63 3.1 8.59
10/26/2020 10:15:00 PM 11.65 52.97 0.349 6.62 4.06 8.59
10/26/2020 10:30:00 PM 11.61 52.898 0.349 6.62 2.47 8.6
10/26/2020 10:45:00 PM 11.55 52.79 0.349 6.62 3.58 8.55
10/26/2020 11:00:00 PM 11.5 52.7 0.349 6.62 2.96 8.59
10/26/2020 11:15:00 PM 11.43 52.574 0.349 6.62 3.28 8.55
10/26/2020 11:30:00 PM 11.37 52.466 0.349 6.61 3.19 8.54
10/26/2020 11:45:00 PM 11.32 52.376 0.349 6.61 6.85 8.41
10/27/2020 12:00:00 AM 11.26 52.268 0.349 6.61 3.8 8.53
10/27/2020 12:15:00 AM 11.23 52.214 0.349 6.61 2.83 8.49
10/27/2020 12:30:00 AM 11.17 52.106 0.349 6.62 3.7 8.48
10/27/2020 12:45:00 AM 11.13 52.034 0.35 6.62 3.65 8.48
10/27/2020 1:00:00 AM 11.09 51.962 0.35 6.61 3.35 8.47
10/27/2020 1:15:00 AM 11.05 51.89 0.35 6.61 3.61 8.45
10/27/2020 1:30:00 AM 11 51.8 0.35 6.61 4.75 8.38
10/27/2020 1:45:00 AM 10.94 51.692 0.351 6.61 5.33 8.44
10/27/2020 2:00:00 AM 10.91 51.638 0.351 6.6 7.14 8.41
10/27/2020 2:15:00 AM 10.85 51.53 0.351 6.61 3.73 8.47
10/27/2020 2:30:00 AM 10.82 51.476 0.351 6.61 6.6 8.41
10/27/2020 2:45:00 AM 10.78 51.404 0.351 6.61 2.51 8.43
10/27/2020 3:00:00 AM 10.75 51.35 0.351 6.61 4.74 8.49
10/27/2020 3:15:00 AM 10.72 51.296 0.351 6.61 3.48 8.48
10/27/2020 3:30:00 AM 10.68 51.224 0.351 6.61 8.81 8.47
10/27/2020 3:45:00 AM 10.61 51.098 0.352 6.6 3.47 8.51
10/27/2020 4:00:00 AM 10.56 51.008 0.352 6.61 6.39 8.49
10/27/2020 4:15:00 AM 10.51 50.918 0.352 6.61 3.26 8.52
10/27/2020 4:30:00 AM 10.47 50.846 0.352 6.62 2.54 8.53
10/27/2020 4:45:00 AM 10.44 50.792 0.352 6.61 1.15 8.48
10/27/2020 5:00:00 AM 10.41 50.738 0.353 6.61 1.24 8.5
10/27/2020 5:15:00 AM 10.37 50.666 0.353 6.61 1.8 8.49
10/27/2020 5:30:00 AM 10.35 50.63 0.353 6.61 1.55 8.48
10/27/2020 5:45:00 AM 10.31 50.558 0.353 6.61 5.15 8.56
10/27/2020 6:00:00 AM 10.28 50.504 0.353 6.61 1.72 8.54
10/27/2020 6:15:00 AM 10.25 50.45 0.353 6.62 2.09 8.57
10/27/2020 6:30:00 AM 10.22 50.396 0.353 6.61 1.88 8.61
10/27/2020 6:45:00 AM 10.2 50.36 0.353 6.61 2.2 8.6
10/27/2020 7:00:00 AM 10.17 50.306 0.353 6.61 0.94 8.59
10/27/2020 7:15:00 AM 10.14 50.252 0.353 6.61 1.44 8.62
10/27/2020 7:30:00 AM 10.1 50.18 0.352 6.61 2.02 8.65
10/27/2020 7:45:00 AM 10.08 50.144 0.353 6.61 1.15 8.62
10/27/2020 8:00:00 AM 10.06 50.108 0.353 6.62 8.99 8.66
10/27/2020 8:15:00 AM 10.04 50.072 0.353 6.61 4.06 8.57
10/27/2020 8:30:00 AM 10.03 50.054 0.353 6.62 0.41 8.62
10/27/2020 8:45:00 AM 10.03 50.054 0.353 6.62 0.49 8.68
10/27/2020 9:00:00 AM 10.03 50.054 0.353 6.62 0.94 8.77
10/27/2020 9:15:00 AM 10.04 50.072 0.353 6.63 1.14 8.77
10/27/2020 9:30:00 AM 10.07 50.126 0.352 6.63 0.36 8.91
10/27/2020 9:45:00 AM 10.09 50.162 0.352 6.63 0.24 8.96
10/27/2020 10:00:00 AM 10.12 50.216 0.352 6.64 -0.02 9.07
10/27/2020 10:15:00 AM 10.17 50.306 0.352 6.65 0.2 9.2
10/27/2020 10:30:00 AM 10.21 50.378 0.351 6.66 0.23 9.31
10/27/2020 10:45:00 AM 10.27 50.486 0.351 6.66 0.09 9.39
10/27/2020 11:00:00 AM 10.35 50.63 0.351 6.67 0.6 9.52
10/27/2020 11:15:00 AM 10.46 50.828 0.351 6.68 0.1 9.62
10/27/2020 11:30:00 AM 10.59 51.062 0.351 6.7 0.42 9.7
10/27/2020 11:45:00 AM 10.65 51.17 0.351 6.68 0.2 9.76
10/27/2020 12:00:00 PM 10.79 51.422 0.35 6.7 0.77 9.85
10/27/2020 12:15:00 PM 10.91 51.638 0.35 6.7 1.59 9.98
10/27/2020 12:30:00 PM 11 51.8 0.35 6.68 0.23 10.08
10/27/2020 12:45:00 PM 11.08 51.944 0.35 6.71 1.35 10.23
10/27/2020 1:00:00 PM 11.13 52.034 0.35 6.72 1.07 10.21
10/27/2020 1:15:00 PM 11.18 52.124 0.349 6.71 0.62 10.28
10/27/2020 1:30:00 PM 11.24 52.232 0.349 6.72 1.83 10.34
10/27/2020 1:45:00 PM 11.28 52.304 0.349 6.73 1.25 10.36
10/27/2020 2:00:00 PM 11.35 52.43 0.349 6.73 1.27 10.48
10/27/2020 2:15:00 PM 11.46 52.628 0.348 6.75 0.8 10.55
10/27/2020 2:30:00 PM 11.5 52.7 0.348 6.75 0.03 10.58
10/27/2020 2:45:00 PM 11.51 52.718 0.348 6.74 1.6 10.58
10/27/2020 3:00:00 PM 11.5 52.7 0.348 6.73 0.73 10.59
10/27/2020 3:15:00 PM 11.51 52.718 0.347 6.75 0.63 10.59
10/27/2020 3:30:00 PM 11.52 52.736 0.347 6.74 1.61 10.52
10/27/2020 3:45:00 PM 11.5 52.7 0.347 6.75 4.46 10.47
10/27/2020 4:00:00 PM 11.46 52.628 0.347 6.73 1.03 10.41
10/27/2020 4:15:00 PM 11.45 52.61 0.347 6.74 5.64 10.34
10/27/2020 4:30:00 PM 11.44 52.592 0.346 6.75 2.4 10.3
10/27/2020 4:45:00 PM 11.41 52.538 0.346 6.73 1.36 10.31
10/27/2020 5:00:00 PM 11.39 52.502 0.346 6.74 1.5 10.23
10/27/2020 5:15:00 PM 11.37 52.466 0.345 6.73 0.49 10.17
10/27/2020 5:30:00 PM 11.34 52.412 0.345 6.72 0.22 10.09
10/27/2020 5:45:00 PM 11.28 52.304 0.344 6.72 1.23 9.93
10/27/2020 6:00:00 PM 11.24 52.232 0.344 6.71 0.71 9.89
10/27/2020 6:15:00 PM 11.21 52.178 0.344 6.71 0.74 9.74
10/27/2020 6:30:00 PM 11.17 52.106 0.344 6.71 1.64 9.68
10/27/2020 6:45:00 PM 11.13 52.034 0.343 6.71 1.72 9.62
10/27/2020 7:00:00 PM 11.1 51.98 0.343 6.69 1.63 9.54
10/27/2020 7:15:00 PM 11.07 51.926 0.343 6.69 4.23 9.44
10/27/2020 7:30:00 PM 11.03 51.854 0.343 6.68 2.13 9.4
10/27/2020 7:45:00 PM 10.99 51.782 0.343 6.68 2.44 9.32
10/27/2020 8:00:00 PM 10.96 51.728 0.342 6.67 6.53 9.19
10/27/2020 8:15:00 PM 10.93 51.674 0.342 6.67 4.49 9.22
10/27/2020 8:30:00 PM 10.88 51.584 0.342 6.67 2.33 9.16
10/27/2020 8:45:00 PM 10.84 51.512 0.342 6.66 5.01 9.16
10/27/2020 9:00:00 PM 10.81 51.458 0.342 6.66 3.06 9.07
10/27/2020 9:15:00 PM 10.76 51.368 0.342 6.65 2.8 9.06
10/27/2020 9:30:00 PM 10.72 51.296 0.342 6.65 4.81 8.96
10/27/2020 9:45:00 PM 10.68 51.224 0.341 6.66 3.05 8.96
10/27/2020 10:00:00 PM 10.63 51.134 0.34 6.65 2.43 8.92
10/27/2020 10:15:00 PM 10.6 51.08 0.341 6.64 3.26 8.97
10/27/2020 10:30:00 PM 10.56 51.008 0.341 6.64 2.71 8.94
10/27/2020 10:45:00 PM 10.53 50.954 0.341 6.64 3.43 8.92
10/27/2020 11:00:00 PM 10.5 50.9 0.341 6.64 2.72 8.86
10/27/2020 11:15:00 PM 10.47 50.846 0.341 6.64 3.66 8.89
10/27/2020 11:30:00 PM 10.45 50.81 0.34 6.64 3.14 8.88
10/27/2020 11:45:00 PM 10.41 50.738 0.339 6.64 4.4 8.87
10/28/2020 12:00:00 AM 10.4 50.72 0.339 6.63 2.42 8.82
10/28/2020 12:15:00 AM 10.37 50.666 0.336 6.63 3.51 8.75
10/28/2020 12:30:00 AM 10.36 50.648 0.333 6.62 5.48 8.74
10/28/2020 12:45:00 AM 10.34 50.612 0.333 6.62 3.36 8.73
10/28/2020 1:00:00 AM 10.33 50.594 0.335 6.62 5.72 8.68
10/28/2020 1:15:00 AM 10.3 50.54 0.336 6.62 3.42 8.7
10/28/2020 1:30:00 AM 10.29 50.522 0.336 6.61 3.46 8.67
10/28/2020 1:45:00 AM 10.28 50.504 0.336 6.62 3.42 8.76
10/28/2020 2:00:00 AM 10.29 50.522 0.334 6.62 3.33 8.71
10/28/2020 2:15:00 AM 10.29 50.522 0.331 6.61 3.15 8.61
10/28/2020 2:30:00 AM 10.28 50.504 0.331 6.61 4.67 8.61
10/28/2020 2:45:00 AM 10.27 50.486 0.334 6.61 3.85 8.67
10/28/2020 3:00:00 AM 10.27 50.486 0.337 6.6 4.47 8.66
10/28/2020 3:15:00 AM 10.26 50.468 0.34 6.6 3.61 8.68
10/28/2020 3:30:00 AM 10.26 50.468 0.341 6.6 3.28 8.69
10/28/2020 3:45:00 AM 10.25 50.45 0.342 6.6 3.63 8.65
10/28/2020 4:00:00 AM 10.27 50.486 0.342 6.6 3.11 8.67
10/28/2020 4:15:00 AM 10.28 50.504 0.338 6.6 6.27 8.65
10/28/2020 4:30:00 AM 10.29 50.522 0.337 6.59 4.27 8.61
10/28/2020 4:45:00 AM 10.29 50.522 0.34 6.58 4.88 8.64
10/28/2020 5:00:00 AM 10.29 50.522 0.342 6.58 4.34 8.62
10/28/2020 5:15:00 AM 10.29 50.522 0.344 6.58 10.22 8.59
10/28/2020 5:30:00 AM 10.29 50.522 0.344 6.58 3.91 8.57
10/28/2020 5:45:00 AM 10.29 50.522 0.344 6.58 4.33 8.58
10/28/2020 6:00:00 AM 10.29 50.522 0.343 6.58 4.17 8.57
10/28/2020 6:15:00 AM 10.29 50.522 0.343 6.58 4.33 8.54
10/28/2020 6:30:00 AM 10.3 50.54 0.341 6.58 3.21 8.53
10/28/2020 6:45:00 AM 10.3 50.54 0.341 6.58 4.27 8.51
10/28/2020 7:00:00 AM 10.3 50.54 0.34 6.57 3.8 8.53
10/28/2020 7:15:00 AM 10.29 50.522 0.339 6.57 6.47 8.55
10/28/2020 7:30:00 AM 10.29 50.522 0.338 6.57 3.39 8.51
10/28/2020 7:45:00 AM 10.28 50.504 0.337 6.57 3.97 8.48
10/28/2020 8:00:00 AM 10.28 50.504 0.338 6.57 3.13 8.51
10/28/2020 8:15:00 AM 10.28 50.504 0.338 6.57 5.11 8.54
10/28/2020 8:30:00 AM 10.28 50.504 0.338 6.57 4.85 8.5
10/28/2020 8:45:00 AM 10.29 50.522 0.338 6.58 4.99 8.58
10/28/2020 9:00:00 AM 10.29 50.522 0.339 6.58 3.21 8.64
10/28/2020 9:15:00 AM 10.31 50.558 0.339 6.58 3.68 8.67
10/28/2020 9:30:00 AM 10.33 50.594 0.339 6.59 5.37 8.76
10/28/2020 9:45:00 AM 10.35 50.63 0.34 6.59 2.45 8.71
10/28/2020 10:00:00 AM 10.38 50.684 0.34 6.6 2.98 8.8
10/28/2020 10:15:00 AM 10.42 50.756 0.34 6.6 1.97 8.91
10/28/2020 10:30:00 AM 10.46 50.828 0.34 6.61 2.41 9.09
10/28/2020 10:45:00 AM 10.5 50.9 0.34 6.62 2.1 9.18
10/28/2020 11:00:00 AM 10.53 50.954 0.339 6.62 3.31 9.23
10/28/2020 11:15:00 AM 10.57 51.026 0.339 6.63 2.98 9.33
10/28/2020 11:30:00 AM 10.63 51.134 0.338 6.64 3.07 9.39
10/28/2020 11:45:00 AM 10.8 51.44 0.338 6.66 2.16 9.55
10/28/2020 12:00:00 PM 10.93 51.674 0.338 6.67 3.24 9.64
10/28/2020 12:15:00 PM 10.98 51.764 0.337 6.67 2.84 9.77
10/28/2020 12:30:00 PM 11.01 51.818 0.337 6.67 2.22 9.86
10/28/2020 12:45:00 PM 11.09 51.962 0.337 6.67 2.05 9.92
10/28/2020 1:00:00 PM 11.19 52.142 0.337 6.68 2.64 9.99
10/28/2020 1:15:00 PM 11.3 52.34 0.337 6.69 2.44 10.04
10/28/2020 1:30:00 PM 11.31 52.358 0.337 6.69 2.19 10.14
10/28/2020 1:45:00 PM 11.29 52.322 0.337 6.68 1.91 10.14
10/28/2020 2:00:00 PM 11.25 52.25 0.337 6.69 2.59 10.18
10/28/2020 2:15:00 PM 11.25 52.25 0.337 6.7 2.21 10.16
10/28/2020 2:30:00 PM 11.29 52.322 0.337 6.71 2.92 10.2
10/28/2020 2:45:00 PM 11.33 52.394 0.337 6.7 1.99 10.25
10/28/2020 3:00:00 PM 11.37 52.466 0.337 6.72 2.73 10.31
10/28/2020 3:15:00 PM 11.39 52.502 0.337 6.72 1.99 10.31
10/28/2020 3:30:00 PM 11.38 52.484 0.337 6.71 1.9 10.26
10/28/2020 3:45:00 PM 11.36 52.448 0.337 6.71 1.96 10.2
10/28/2020 4:00:00 PM 11.34 52.412 0.337 6.71 1.99 10.14
10/28/2020 4:15:00 PM 11.31 52.358 0.337 6.7 1.65 10.08
10/28/2020 4:30:00 PM 11.27 52.286 0.337 6.69 2.3 9.96
10/28/2020 4:45:00 PM 11.22 52.196 0.337 6.7 2.56 9.87
10/28/2020 5:00:00 PM 11.19 52.142 0.337 6.69 2.33 9.83
10/28/2020 5:15:00 PM 11.16 52.088 0.337 6.69 2.34 9.76
10/28/2020 5:30:00 PM 11.13 52.034 0.338 6.68 8.18 9.73
10/28/2020 5:45:00 PM 11.1 51.98 0.338 6.69 5.78 9.66
10/28/2020 6:00:00 PM 11.09 51.962 0.339 6.69 5.88 9.56
10/28/2020 6:15:00 PM 11.05 51.89 0.34 6.68 5.04 9.5
10/28/2020 6:30:00 PM 11.02 51.836 0.341 6.68 3.58 9.45
10/28/2020 6:45:00 PM 10.99 51.782 0.341 6.67 2.78 9.37
10/28/2020 7:00:00 PM 10.97 51.746 0.342 6.66 3.39 9.33
10/28/2020 7:15:00 PM 10.93 51.674 0.342 6.66 3.31 9.31
10/28/2020 7:30:00 PM 10.9 51.62 0.342 6.66 4.58 9.23
10/28/2020 7:45:00 PM 10.88 51.584 0.342 6.67 5.71 9.19
10/28/2020 8:00:00 PM 10.85 51.53 0.342 6.66 3.34 9.16
10/28/2020 8:15:00 PM 10.82 51.476 0.343 6.66 5.61 9.12
10/28/2020 8:30:00 PM 10.79 51.422 0.343 6.65 3.67 9.06
10/28/2020 8:45:00 PM 10.77 51.386 0.343 6.65 4.3 8.98
10/28/2020 9:00:00 PM 10.74 51.332 0.343 6.64 5.79 9.02
10/28/2020 9:15:00 PM 10.72 51.296 0.343 6.64 5.78 8.86
10/28/2020 9:30:00 PM 10.7 51.26 0.343 6.64 5.04 8.91
10/28/2020 9:45:00 PM 10.67 51.206 0.344 6.64 3.76 8.91
10/28/2020 10:00:00 PM 10.65 51.17 0.344 6.64 5.63 8.9
10/28/2020 10:15:00 PM 10.64 51.152 0.344 6.63 5.68 8.84
10/28/2020 10:30:00 PM 10.61 51.098 0.345 6.63 5.38 8.81
10/28/2020 10:45:00 PM 10.59 51.062 0.346 6.62 5.27 8.85
10/28/2020 11:00:00 PM 10.57 51.026 0.347 6.63 4.14 8.82
10/28/2020 11:15:00 PM 10.56 51.008 0.348 6.62 159.5 8.8
10/28/2020 11:30:00 PM 10.54 50.972 0.348 6.63 7.9 8.77
10/28/2020 11:45:00 PM 10.53 50.954 0.349 6.62 10.91 8.79
10/29/2020 12:00:00 AM 10.52 50.936 0.349 6.62 9.05 8.8
10/29/2020 12:15:00 AM 10.51 50.918 0.349 6.63 8.47 8.78
10/29/2020 12:30:00 AM 10.5 50.9 0.348 6.63 7.05 8.79
10/29/2020 12:45:00 AM 10.5 50.9 0.348 6.63 6.84 8.79
10/29/2020 1:00:00 AM 10.49 50.882 0.349 6.63 6.63 8.8
10/29/2020 1:15:00 AM 10.48 50.864 0.349 6.63 7.24 8.8
10/29/2020 1:30:00 AM 10.48 50.864 0.349 6.62 6.99 8.78
10/29/2020 1:45:00 AM 10.47 50.846 0.349 6.63 5.84 8.8
10/29/2020 2:00:00 AM 10.46 50.828 0.348 6.62 7.82 8.76
10/29/2020 2:15:00 AM 10.46 50.828 0.348 6.62 7.67 8.78
10/29/2020 2:30:00 AM 10.45 50.81 0.348 6.63 6.38 8.78
10/29/2020 2:45:00 AM 10.44 50.792 0.347 6.63 8.15 8.8
10/29/2020 3:00:00 AM 10.44 50.792 0.346 6.63 5.22 8.81
10/29/2020 3:15:00 AM 10.43 50.774 0.346 6.63 5.82 8.82
10/29/2020 3:30:00 AM 10.42 50.756 0.345 6.62 8.07 8.83
10/29/2020 3:45:00 AM 10.42 50.756 0.344 6.63 7.35 8.8
10/29/2020 4:00:00 AM 10.41 50.738 0.342 6.64 5.9 8.84
10/29/2020 4:15:00 AM 10.41 50.738 0.339 6.63 6.88 8.83
10/29/2020 4:30:00 AM 10.41 50.738 0.335 6.64 8.29 8.83
10/29/2020 4:45:00 AM 10.4 50.72 0.332 6.64 8.67 8.85
10/29/2020 5:00:00 AM 10.4 50.72 0.33 6.64 6.88 8.89
10/29/2020 5:15:00 AM 10.39 50.702 0.325 6.64 14.23 8.9
10/29/2020 5:30:00 AM 10.39 50.702 0.317 6.63 12.22 8.94
10/29/2020 5:45:00 AM 10.39 50.702 0.309 6.64 15.83 8.97
10/29/2020 6:00:00 AM 10.39 50.702 0.303 6.64 17.07 9.04
10/29/2020 6:15:00 AM 10.38 50.684 0.3 6.65 17.93 9.1
10/29/2020 6:30:00 AM 10.36 50.648 0.302 6.64 15.71 9.14
10/29/2020 6:45:00 AM 10.35 50.63 0.298 6.64 17.2 9.18
10/29/2020 7:00:00 AM 10.35 50.63 0.29 6.64 16.29 9.23
10/29/2020 7:15:00 AM 10.33 50.594 0.291 6.64 18.93 9.22
10/29/2020 7:30:00 AM 10.32 50.576 0.294 6.64 19.52 9.22
10/29/2020 7:45:00 AM 10.3 50.54 0.289 6.64 29.58 9.24
10/29/2020 8:00:00 AM 10.29 50.522 0.283 6.64 16.41 9.27
10/29/2020 8:15:00 AM 10.28 50.504 0.275 6.64 17.76 9.31
10/29/2020 8:30:00 AM 10.28 50.504 0.27 6.63 26.12 9.33
10/29/2020 8:45:00 AM 10.27 50.486 0.245 6.64 20.22 9.28
10/29/2020 9:00:00 AM 10.26 50.468 0.245 6.63 18.06 9.3
10/29/2020 9:15:00 AM 10.25 50.45 0.264 6.64 15.76 9.37
10/29/2020 9:30:00 AM 10.25 50.45 0.263 6.64 16.04 9.4
10/29/2020 9:45:00 AM 10.24 50.432 0.263 6.64 13.67 9.44
10/29/2020 10:00:00 AM 10.23 50.414 0.258 6.64 11.69 9.48
10/29/2020 10:15:00 AM 10.23 50.414 0.257 6.65 13.31 9.53
10/29/2020 10:30:00 AM 10.23 50.414 0.256 6.65 27.52 9.56
10/29/2020 10:45:00 AM 10.22 50.396 0.256 6.66 22.52 9.61
10/29/2020 11:00:00 AM 10.21 50.378 0.26 6.65 9.66 9.62
10/29/2020 11:15:00 AM 10.21 50.378 0.263 6.66 16.92 9.65
10/29/2020 11:30:00 AM 10.21 50.378 0.263 6.67 20.4 9.71
10/29/2020 11:45:00 AM 10.23 50.414 0.263 6.68 18.69 9.75
10/29/2020 12:00:00 PM 10.23 50.414 0.268 6.68 20.35 9.77
10/29/2020 12:15:00 PM 10.25 50.45 0.272 6.71 17.36 9.79
10/29/2020 12:30:00 PM 10.25 50.45 0.271 6.7 38.83 9.8
10/29/2020 12:45:00 PM 10.24 50.432 0.273 6.7 23.88 9.81
10/29/2020 1:00:00 PM 10.21 50.378 0.283 6.7 31.21 9.83
10/29/2020 1:15:00 PM 10.21 50.378 0.294 6.72 42.2 9.85
10/29/2020 1:30:00 PM 10.23 50.414 0.3 6.72 42.05 9.88
10/29/2020 1:45:00 PM 10.23 50.414 0.3 6.72 37.67 9.89
10/29/2020 2:00:00 PM 10.24 50.432 0.297 6.73 51.01 9.89
10/29/2020 2:15:00 PM 10.21 50.378 0.299 6.73 51.6 9.88
10/29/2020 2:30:00 PM 10.19 50.342 0.297 6.73 40.58 9.85
10/29/2020 2:45:00 PM 10.19 50.342 0.291 6.74 50.18 9.8
10/29/2020 3:00:00 PM 10.18 50.324 0.284 6.74 55.15 9.77
10/29/2020 3:15:00 PM 10.15 50.27 0.279 6.75 51.03 9.76
10/29/2020 3:30:00 PM 10.13 50.234 0.275 6.75 53.65 9.75
10/29/2020 3:45:00 PM 10.1 50.18 0.274 6.76 66.98 9.72
10/29/2020 4:00:00 PM 10.11 50.198 0.267 6.75 63.06 9.71
10/29/2020 4:15:00 PM 10.08 50.144 0.262 6.73 64.42 9.69
10/29/2020 4:30:00 PM 10.06 50.108 0.261 6.73 65.91 9.67
10/29/2020 4:45:00 PM 10.07 50.126 0.256 6.74 60.64 9.65
10/29/2020 5:00:00 PM 10.08 50.144 0.258 6.74 61.28 9.62
10/29/2020 5:15:00 PM 10.09 50.162 0.258 6.73 56.95 9.59
10/29/2020 5:30:00 PM 10.09 50.162 0.258 6.73 40.84 9.57
10/29/2020 5:45:00 PM 10.07 50.126 0.258 6.73 61.02 9.54
10/29/2020 6:00:00 PM 10.05 50.09 0.258 6.73 44.86 9.49
10/29/2020 6:15:00 PM 10.03 50.054 0.257 6.74 72.46 9.45
10/29/2020 6:30:00 PM 10.01 50.018 0.256 6.73 67.07 9.43
10/29/2020 6:45:00 PM 9.99 49.982 0.255 6.73 57.71 9.4
10/29/2020 7:00:00 PM 9.98 49.964 0.255 6.72 56.81 9.4
10/29/2020 7:15:00 PM 9.96 49.928 0.254 6.73 52.48 9.39
10/29/2020 7:30:00 PM 9.94 49.892 0.253 6.71 53.05 9.41
10/29/2020 7:45:00 PM 9.92 49.856 0.251 6.72 76.23 9.42
10/29/2020 8:00:00 PM 9.91 49.838 0.247 6.74 79.18 9.42
10/29/2020 8:15:00 PM 9.89 49.802 0.244 6.71 70.09 9.42
10/29/2020 8:30:00 PM 9.88 49.784 0.241 6.7 58.74 9.41
10/29/2020 8:45:00 PM 9.87 49.766 0.238 6.7 64.3 9.4
10/29/2020 9:00:00 PM 9.85 49.73 0.237 6.69 83.87 9.4
10/29/2020 9:15:00 PM 9.83 49.694 0.236 6.68 120.3 9.4
10/29/2020 9:30:00 PM 9.8 49.64 0.235 6.68 78.57 9.39
10/29/2020 9:45:00 PM 9.78 49.604 0.233 6.69 76.56 9.38
10/29/2020 10:00:00 PM 9.76 49.568 0.232 6.66 62.02 9.37
10/29/2020 10:15:00 PM 9.74 49.532 0.23 6.66 85.7 9.36
10/29/2020 10:30:00 PM 9.73 49.514 0.229 6.67 61.54 9.36
10/29/2020 10:45:00 PM 9.7 49.46 0.228 6.65 74.84 9.36
10/29/2020 11:00:00 PM 9.68 49.424 0.228 6.64 75.65 9.36
10/29/2020 11:15:00 PM 9.67 49.406 0.228 6.65 63.2 9.36
10/29/2020 11:30:00 PM 9.66 49.388 0.229 6.65 53.71 9.36
10/29/2020 11:45:00 PM 9.65 49.37 0.229 6.63 63.91 9.37
10/30/2020 12:00:00 AM 9.64 49.352 0.229 6.64 56.36 9.37
10/30/2020 12:15:00 AM 9.63 49.334 0.23 6.65 72.3 9.38
10/30/2020 12:30:00 AM 9.62 49.316 0.23 6.67 50.77 9.38
10/30/2020 12:45:00 AM 9.6 49.28 0.229 6.64 57.85 9.39
10/30/2020 1:00:00 AM 9.58 49.244 0.229 6.65 63.96 9.39
10/30/2020 1:15:00 AM 9.56 49.208 0.228 6.65 47.35 9.39
10/30/2020 1:30:00 AM 9.54 49.172 0.228 6.64 53 9.4
10/30/2020 1:45:00 AM 9.52 49.136 0.228 6.65 57.31 9.4
10/30/2020 2:00:00 AM 9.51 49.118 0.228 6.65 49.46 9.41
10/30/2020 2:15:00 AM 9.49 49.082 0.228 6.65 70.92 9.42
10/30/2020 2:30:00 AM 9.48 49.064 0.228 6.66 50.69 9.42
10/30/2020 2:45:00 AM 9.46 49.028 0.228 6.66 57.78 9.43
10/30/2020 3:00:00 AM 9.44 48.992 0.227 6.64 40.1 9.45
10/30/2020 3:15:00 AM 9.41 48.938 0.227 6.64 28.49 9.46
10/30/2020 3:30:00 AM 9.38 48.884 0.225 6.65 49.38 9.48
10/30/2020 3:45:00 AM 9.35 48.83 0.224 6.62 46.15 9.5
10/30/2020 4:00:00 AM 9.31 48.758 0.224 6.65 52.13 9.52
10/30/2020 4:15:00 AM 9.28 48.704 0.222 6.63 36.94 9.54
10/30/2020 4:30:00 AM 9.26 48.668 0.221 6.62 37.42 9.55
10/30/2020 4:45:00 AM 9.22 48.596 0.22 6.64 35.13 9.57
10/30/2020 5:00:00 AM 9.19 48.542 0.218 6.61 30.04 9.58
10/30/2020 5:15:00 AM 9.17 48.506 0.218 6.64 34.94 9.59
10/30/2020 5:30:00 AM 9.16 48.488 0.218 6.64 34.92 9.59
10/30/2020 5:45:00 AM 9.15 48.47 0.217 6.62 35.12 9.59
10/30/2020 6:00:00 AM 9.14 48.452 0.218 6.63 32.23 9.59
10/30/2020 6:15:00 AM 9.13 48.434 0.218 6.63 29.65 9.6
10/30/2020 6:30:00 AM 9.11 48.398 0.219 6.63 31.03 9.6
10/30/2020 6:45:00 AM 9.09 48.362 0.219 6.63 29.23 9.62
10/30/2020 7:00:00 AM 9.06 48.308 0.22 6.63 26.52 9.63
10/30/2020 7:15:00 AM 9.04 48.272 0.22 6.61 25.69 9.63
10/30/2020 7:30:00 AM 9.02 48.236 0.221 6.6 27.29 9.65
10/30/2020 7:45:00 AM 9 48.2 0.221 6.63 33.38 9.67
10/30/2020 8:00:00 AM 8.99 48.182 0.221 6.62 26.14 9.68
10/30/2020 8:15:00 AM 8.97 48.146 0.222 6.61 27.34 9.7
10/30/2020 8:30:00 AM 8.95 48.11 0.222 6.61 26.78 9.72
10/30/2020 8:45:00 AM 8.94 48.092 0.222 6.62 25.88 9.74
10/30/2020 9:00:00 AM 8.92 48.056 0.221 6.61 23.95 9.76
10/30/2020 9:15:00 AM 8.91 48.038 0.221 6.62 21.47 9.78
10/30/2020 9:30:00 AM 8.94 48.092 0.221 6.61 20.96 9.8
10/30/2020 9:45:00 AM 8.96 48.128 0.22 6.62 24.08 9.82
10/30/2020 10:00:00 AM 8.97 48.146 0.22 6.63 23.05 9.83
10/30/2020 10:15:00 AM 8.97 48.146 0.22 6.6 22.56 9.84
10/30/2020 10:30:00 AM 8.96 48.128 0.219 6.61 23.58 9.86
10/30/2020 10:45:00 AM 8.95 48.11 0.22 6.62 21.39 9.88
10/30/2020 11:00:00 AM 8.94 48.092 0.219 6.6 21.13 9.89
10/30/2020 11:15:00 AM 8.94 48.092 0.219 6.6 23.52 9.9
10/30/2020 11:30:00 AM 8.92 48.056 0.218 6.58 21.31 9.9
10/30/2020 11:45:00 AM 8.92 48.056 0.217 6.61 23.95 9.91
10/30/2020 12:00:00 PM 8.93 48.074 0.216 6.61 28.35 9.93
10/30/2020 12:15:00 PM 8.94 48.092 0.216 6.62 22.28 9.94
10/30/2020 12:30:00 PM 8.96 48.128 0.215 6.62 21.63 9.95
10/30/2020 12:45:00 PM 8.96 48.128 0.215 6.6 21.88 9.96
10/30/2020 1:00:00 PM 8.96 48.128 0.214 6.61 19.74 9.97
10/30/2020 1:15:00 PM 8.99 48.182 0.214 6.61 21.96 9.98
10/30/2020 1:30:00 PM 9 48.2 0.213 6.6 25.06 9.99
10/30/2020 1:45:00 PM 9.05 48.29 0.212 6.61 20.45 10
10/30/2020 2:00:00 PM 9.1 48.38 0.212 6.61 21.94 10.02
10/30/2020 2:15:00 PM 9.11 48.398 0.211 6.59 20.01 10.03
10/30/2020 2:30:00 PM 9.09 48.362 0.211 6.6 20.37 10.03
10/30/2020 2:45:00 PM 9.07 48.326 0.211 6.59 21.04 10.03
10/30/2020 3:00:00 PM 9.08 48.344 0.21 6.59 21.18 10.04
10/30/2020 3:15:00 PM 9.05 48.29 0.21 6.57 20.26 10.03
10/30/2020 3:30:00 PM 9.06 48.308 0.209 6.57 25.28 10.04
10/30/2020 3:45:00 PM 9.09 48.362 0.209 6.58 19.2 10.06
10/30/2020 4:00:00 PM 9.1 48.38 0.208 6.57 18.22 10.07
10/30/2020 4:15:00 PM 9.07 48.326 0.208 6.56 21.71 10.07
10/30/2020 4:30:00 PM 9.05 48.29 0.208 6.56 19.22 10.08
10/30/2020 4:45:00 PM 9.02 48.236 0.207 6.56 23.72 10.08
10/30/2020 5:00:00 PM 8.97 48.146 0.207 6.55 17.09 10.07
10/30/2020 5:15:00 PM 8.95 48.11 0.206 6.56 18.13 10.07
10/30/2020 5:30:00 PM 8.9 48.02 0.206 6.53 16.92 10.08
10/30/2020 5:45:00 PM 8.86 47.948 0.206 6.53 20.07 10.08
10/30/2020 6:00:00 PM 8.81 47.858 0.206 6.54 22.22 10.08
10/30/2020 6:15:00 PM 8.76 47.768 0.205 6.54 19.89 10.08
10/30/2020 6:30:00 PM 8.7 47.66 0.205 6.51 19.72 10.08
10/30/2020 6:45:00 PM 8.65 47.57 0.205 6.53 20.88 10.1
10/30/2020 7:00:00 PM 8.6 47.48 0.205 6.52 18.65 10.1
10/30/2020 7:15:00 PM 8.57 47.426 0.204 6.51 20.21 10.1
10/30/2020 7:30:00 PM 8.53 47.354 0.204 6.53 20.7 10.1
10/30/2020 7:45:00 PM 8.49 47.282 0.204 6.53 21.03 10.11
10/30/2020 8:00:00 PM 8.46 47.228 0.204 6.53 21.64 10.12
10/30/2020 8:15:00 PM 8.42 47.156 0.204 6.52 19.84 10.13
10/30/2020 8:30:00 PM 8.4 47.12 0.204 6.52 18.03 10.12
10/30/2020 8:45:00 PM 8.39 47.102 0.204 6.52 19.1 10.14
10/30/2020 9:00:00 PM 8.37 47.066 0.204 6.52 16.28 10.14
10/30/2020 9:15:00 PM 8.36 47.048 0.203 6.52 18.63 10.15
10/30/2020 9:30:00 PM 8.34 47.012 0.203 6.53 19.33 10.16
10/30/2020 9:45:00 PM 8.32 46.976 0.203 6.52 40.66 10.17
10/30/2020 10:00:00 PM 8.3 46.94 0.203 6.52 15.13 10.18
10/30/2020 10:15:00 PM 8.28 46.904 0.203 6.53 18.54 10.19
10/30/2020 10:30:00 PM 8.25 46.85 0.203 6.52 20.98 10.19
10/30/2020 10:45:00 PM 8.23 46.814 0.203 6.51 18.11 10.2
10/30/2020 11:00:00 PM 8.2 46.76 0.203 6.5 16.78 10.22
10/30/2020 11:15:00 PM 8.17 46.706 0.203 6.52 18.56 10.22
10/30/2020 11:30:00 PM 8.15 46.67 0.203 6.5 20.69 10.23
10/30/2020 11:45:00 PM 8.12 46.616 0.203 6.51 18.57 10.24
10/31/2020 12:00:00 AM 8.09 46.562 0.203 6.5 18.63 10.25
10/31/2020 12:15:00 AM 8.07 46.526 0.203 6.51 19.78 10.26
10/31/2020 12:30:00 AM 8.05 46.49 0.203 6.51 17.54 10.27
10/31/2020 12:45:00 AM 8.03 46.454 0.203 6.51 17.89 10.29
10/31/2020 1:00:00 AM 8 46.4 0.204 6.51 16.47 10.3
10/31/2020 1:15:00 AM 7.98 46.364 0.204 6.5 16.18 10.3
10/31/2020 1:30:00 AM 7.96 46.328 0.204 6.5 16.36 10.32
10/31/2020 1:45:00 AM 7.94 46.292 0.204 6.5 17.14 10.32
10/31/2020 2:00:00 AM 7.91 46.238 0.204 6.52 18.12 10.34
10/31/2020 2:15:00 AM 7.89 46.202 0.204 6.51 16.57 10.35
10/31/2020 2:30:00 AM 7.86 46.148 0.204 6.5 16.38 10.35
10/31/2020 2:45:00 AM 7.84 46.112 0.204 6.5 18.01 10.36
10/31/2020 3:00:00 AM 7.82 46.076 0.204 6.51 21.35 10.36
10/31/2020 3:15:00 AM 7.79 46.022 0.204 6.5 15.89 10.37
10/31/2020 3:30:00 AM 7.76 45.968 0.205 6.51 15.74 10.38
10/31/2020 3:45:00 AM 7.72 45.896 0.205 6.5 16.5 10.38
10/31/2020 4:00:00 AM 7.69 45.842 0.205 6.51 16.02 10.41
10/31/2020 4:15:00 AM 7.66 45.788 0.205 6.51 15.31 10.41
10/31/2020 4:30:00 AM 7.62 45.716 0.205 6.5 16.29 10.42
10/31/2020 4:45:00 AM 7.6 45.68 0.205 6.5 14.69 10.43
10/31/2020 5:00:00 AM 7.57 45.626 0.205 6.5 15.19 10.44
10/31/2020 5:15:00 AM 7.53 45.554 0.206 6.51 18.15 10.45
10/31/2020 5:30:00 AM 7.49 45.482 0.206 6.49 15.78 10.47
10/31/2020 5:45:00 AM 7.42 45.356 0.206 6.49 15.22 10.49
10/31/2020 6:00:00 AM 7.36 45.248 0.206 6.49 22.25 10.5
10/31/2020 6:15:00 AM 7.3 45.14 0.206 6.49 14.95 10.52
10/31/2020 6:30:00 AM 7.24 45.032 0.206 6.49 15.26 10.53
10/31/2020 6:45:00 AM 7.19 44.942 0.207 6.48 15.95 10.54
10/31/2020 7:00:00 AM 7.13 44.834 0.207 6.48 14.69 10.56
10/31/2020 7:15:00 AM 7.08 44.744 0.207 6.48 13.51 10.57
10/31/2020 7:30:00 AM 7.03 44.654 0.207 6.48 11.3 10.59
10/31/2020 7:45:00 AM 6.98 44.564 0.207 6.48 12.12 10.6
10/31/2020 8:00:00 AM 6.94 44.492 0.208 6.49 11.98 10.62
10/31/2020 8:15:00 AM 6.9 44.42 0.208 6.5 11.44 10.64
10/31/2020 8:30:00 AM 6.86 44.348 0.208 6.49 13.12 10.66
10/31/2020 8:45:00 AM 6.83 44.294 0.208 6.49 11.88 10.68
10/31/2020 9:00:00 AM 6.82 44.276 0.209 6.5 11.1 10.71
10/31/2020 9:15:00 AM 6.82 44.276 0.209 6.5 11.92 10.74
10/31/2020 9:30:00 AM 6.83 44.294 0.209 6.51 11.33 10.76
10/31/2020 9:45:00 AM 6.87 44.366 0.209 6.51 10.45 10.79
10/31/2020 10:00:00 AM 6.94 44.492 0.209 6.52 10.39 10.81
10/31/2020 10:15:00 AM 7.02 44.636 0.209 6.54 11.01 10.84
10/31/2020 10:30:00 AM 7.15 44.87 0.21 6.53 10.54 10.85
10/31/2020 10:45:00 AM 7.25 45.05 0.21 6.55 10.01 10.87
10/31/2020 11:00:00 AM 7.35 45.23 0.21 6.55 10.82 10.88
10/31/2020 11:15:00 AM 7.47 45.446 0.21 6.56 10.63 10.89
10/31/2020 11:30:00 AM 7.49 45.482 0.21 6.54 9.91 10.9
10/31/2020 11:45:00 AM 7.6 45.68 0.211 6.55 9.49 10.9
10/31/2020 12:00:00 PM 7.76 45.968 0.211 6.57 10.74 10.91
10/31/2020 12:15:00 PM 7.88 46.184 0.211 6.58 10.02 10.92
10/31/2020 12:30:00 PM 7.97 46.346 0.211 6.57 9.77 10.92
10/31/2020 12:45:00 PM 8.04 46.472 0.212 6.55 10.46 10.92
10/31/2020 1:00:00 PM 8.22 46.796 0.212 6.58 11.04 10.92
10/31/2020 1:15:00 PM 8.19 46.742 0.212 6.54 9.64 10.92
10/31/2020 1:30:00 PM 8.37 47.066 0.212 6.57 11.37 10.92
10/31/2020 1:45:00 PM 8.5 47.3 0.212 6.58 10.37 10.93
10/31/2020 2:00:00 PM 8.56 47.408 0.213 6.56 10.07 10.92
10/31/2020 2:15:00 PM 8.67 47.606 0.213 6.57 8.76 10.91
10/31/2020 2:30:00 PM 8.78 47.804 0.213 6.56 10 10.9
10/31/2020 2:45:00 PM 8.83 47.894 0.213 6.57 10.07 10.88
10/31/2020 3:00:00 PM 8.89 48.002 0.214 6.56 10.9 10.89
10/31/2020 3:15:00 PM 8.91 48.038 0.214 6.56 9.64 10.88
10/31/2020 3:30:00 PM 8.9 48.02 0.214 6.55 9.48 10.87
10/31/2020 3:45:00 PM 8.87 47.966 0.214 6.55 10.09 10.86
10/31/2020 4:00:00 PM 8.8 47.84 0.214 6.54 10.97 10.86
10/31/2020 4:15:00 PM 8.72 47.696 0.215 6.52 9.19 10.86
10/31/2020 4:30:00 PM 8.61 47.498 0.215 6.51 9.69 10.86
10/31/2020 4:45:00 PM 8.45 47.21 0.215 6.51 10.64 10.85
10/31/2020 5:00:00 PM 8.28 46.904 0.216 6.5 10.53 10.83
10/31/2020 5:15:00 PM 8.11 46.598 0.216 6.49 9.38 10.81
10/31/2020 5:30:00 PM 7.97 46.346 0.216 6.49 9.11 10.8
10/31/2020 5:45:00 PM 7.86 46.148 0.216 6.49 9.08 10.78
10/31/2020 6:00:00 PM 7.78 46.004 0.217 6.5 14.99 10.76
10/31/2020 6:15:00 PM 7.73 45.914 0.217 6.5 9.17 10.75
10/31/2020 6:30:00 PM 7.68 45.824 0.217 6.5 9.57 10.74
10/31/2020 6:45:00 PM 7.63 45.734 0.218 6.5 9.85 10.73
10/31/2020 7:00:00 PM 7.59 45.662 0.218 6.51 10.26 10.71
10/31/2020 7:15:00 PM 7.55 45.59 0.218 6.5 11.36 10.71
10/31/2020 7:30:00 PM 7.5 45.5 0.218 6.49 10.32 10.7
10/31/2020 7:45:00 PM 7.45 45.41 0.219 6.49 10.75 10.7
10/31/2020 8:00:00 PM 7.4 45.32 0.219 6.5 13.05 10.71
10/31/2020 8:15:00 PM 7.34 45.212 0.219 6.49 10.6 10.7
10/31/2020 8:30:00 PM 7.28 45.104 0.219 6.5 11.46 10.71
10/31/2020 8:45:00 PM 7.22 44.996 0.219 6.49 10.44 10.7
10/31/2020 9:00:00 PM 7.17 44.906 0.22 6.49 12.05 10.71
10/31/2020 9:15:00 PM 7.12 44.816 0.22 6.49 9.25 10.72
10/31/2020 9:30:00 PM 7.07 44.726 0.221 6.49 11.94 10.72
10/31/2020 9:45:00 PM 7.03 44.654 0.221 6.51 11.73 10.73
10/31/2020 10:00:00 PM 6.99 44.582 0.221 6.49 12.45 10.73
10/31/2020 10:15:00 PM 6.94 44.492 0.221 6.49 11.82 10.72
10/31/2020 10:30:00 PM 6.9 44.42 0.222 6.49 11.72 10.73
10/31/2020 10:45:00 PM 6.87 44.366 0.222 6.48 12.42 10.74
10/31/2020 11:00:00 PM 6.83 44.294 0.222 6.49 11.15 10.74
10/31/2020 11:15:00 PM 6.79 44.222 0.222 6.49 9.97 10.75
10/31/2020 11:30:00 PM 6.75 44.15 0.223 6.49 11.16 10.76
10/31/2020 11:45:00 PM 6.71 44.078 0.223 6.5 12.16 10.76
11/1/2020 12:00:00 AM 6.67 44.006 0.223 6.5 10.73 10.77
11/1/2020 12:15:00 AM 6.63 43.934 0.223 6.48 10.86 10.77
11/1/2020 12:30:00 AM 6.6 43.88 0.224 6.49 10.88 10.77
11/1/2020 12:45:00 AM 6.56 43.808 0.224 6.48 10.86 10.78
11/1/2020 1:00:00 AM 6.53 43.754 0.224 6.5 11.98 10.79
11/1/2020 1:15:00 AM 6.49 43.682 0.224 6.5 10.76 10.79
11/1/2020 1:30:00 AM 6.46 43.628 0.224 6.48 11.49 10.8
11/1/2020 1:45:00 AM 6.43 43.574 0.224 6.49 10.98 10.79
11/1/2020 2:00:00 AM 6.39 43.502 0.225 6.5 11.19 10.81
11/1/2020 2:15:00 AM 6.37 43.466 0.225 6.5 10.21 10.81
11/1/2020 2:30:00 AM 6.34 43.412 0.225 6.5 10.26 10.82
11/1/2020 2:45:00 AM 6.32 43.376 0.225 6.5 12.34 10.82
11/1/2020 3:00:00 AM 6.29 43.322 0.226 6.48 10.13 10.82
11/1/2020 3:15:00 AM 6.27 43.286 0.226 6.49 7.58 10.82
11/1/2020 3:30:00 AM 6.19 43.142 0.227 6.49 11 10.85
11/1/2020 3:45:00 AM 6.17 43.106 0.227 6.48 10.22 10.84
11/1/2020 4:00:00 AM 6.14 43.052 0.227 6.48 10.46 10.84
11/1/2020 4:15:00 AM 6.12 43.016 0.227 6.49 10.1 10.86
11/1/2020 4:30:00 AM 6.09 42.962 0.228 6.49 12.85 10.87
11/1/2020 4:45:00 AM 6.06 42.908 0.228 6.48 10.4 10.87
11/1/2020 5:00:00 AM 6.04 42.872 0.228 6.48 10.68 10.87
11/1/2020 5:15:00 AM 6.02 42.836 0.228 6.48 11.1 10.88
11/1/2020 5:30:00 AM 6 42.8 0.229 6.48 10.4 10.88
11/1/2020 5:45:00 AM 5.98 42.764 0.229 6.48 10.87 10.89
11/1/2020 6:00:00 AM 5.95 42.71 0.229 6.48 10.76 10.89
11/1/2020 6:15:00 AM 5.92 42.656 0.229 6.48 10.44 10.9
11/1/2020 6:30:00 AM 5.9 42.62 0.229 6.49 9.54 10.9
11/1/2020 6:45:00 AM 5.89 42.602 0.229 6.5 9.18 10.91
11/1/2020 7:00:00 AM 5.9 42.62 0.23 6.49 9.86 10.91
11/1/2020 7:15:00 AM 5.91 42.638 0.23 6.5 10.29 10.92
11/1/2020 7:30:00 AM 5.92 42.656 0.23 6.49 9.51 10.92
11/1/2020 7:45:00 AM 5.94 42.692 0.23 6.51 9.29 10.93
11/1/2020 8:00:00 AM 5.96 42.728 0.23 6.5 9.34 10.93
11/1/2020 8:15:00 AM 5.98 42.764 0.23 6.51 8.83 10.94
11/1/2020 8:30:00 AM 6.02 42.836 0.23 6.51 8.35 10.95
11/1/2020 8:45:00 AM 6.05 42.89 0.23 6.5 8.44 10.96
11/1/2020 9:00:00 AM 6.09 42.962 0.23 6.51 9.05 10.97
11/1/2020 9:15:00 AM 6.12 43.016 0.23 6.52 7.43 10.97
11/1/2020 9:30:00 AM 6.16 43.088 0.231 6.51 7.94 10.98
11/1/2020 9:45:00 AM 6.22 43.196 0.231 6.52 7.76 11
11/1/2020 10:00:00 AM 6.3 43.34 0.231 6.53 8.13 11.02
11/1/2020 10:15:00 AM 6.36 43.448 0.231 6.53 8.06 11.03
11/1/2020 10:30:00 AM 6.46 43.628 0.231 6.53 7.7 11.04
11/1/2020 10:45:00 AM 6.5 43.7 0.231 6.53 8.26 11.03
11/1/2020 11:00:00 AM 6.57 43.826 0.232 6.53 8.31 11.03
11/1/2020 11:15:00 AM 6.64 43.952 0.232 6.54 7.96 11.04
11/1/2020 11:30:00 AM 6.69 44.042 0.232 6.54 9.05 11.03
11/1/2020 11:45:00 AM 6.72 44.096 0.232 6.53 8.27 11.01
11/1/2020 12:00:00 PM 6.78 44.204 0.232 6.54 8.25 11.02
11/1/2020 12:15:00 PM 7.04 44.672 0.232 6.57 8.02 11.02
11/1/2020 12:30:00 PM 7.16 44.888 0.232 6.56 8.1 11.04
11/1/2020 12:45:00 PM 7.12 44.816 0.232 6.53 8.71 11
11/1/2020 1:00:00 PM 7.13 44.834 0.231 6.54 9.08 10.98
11/1/2020 1:15:00 PM 7.31 45.158 0.225 6.57 14.9 10.94
11/1/2020 1:30:00 PM 7.39 45.302 0.226 6.56 12.25 10.95
11/1/2020 1:45:00 PM 7.47 45.446 0.231 6.56 8.87 10.98
11/1/2020 2:00:00 PM 7.48 45.464 0.237 6.54 10.56 10.95
11/1/2020 2:15:00 PM 7.45 45.41 0.237 6.55 10.36 10.93
11/1/2020 2:30:00 PM 7.45 45.41 0.234 6.54 11.45 10.91
11/1/2020 2:45:00 PM 7.57 45.626 0.231 6.56 10.91 10.91
11/1/2020 3:00:00 PM 7.56 45.608 0.23 6.54 10.58 10.92
11/1/2020 3:15:00 PM 7.56 45.608 0.229 6.53 10.75 10.94
11/1/2020 3:30:00 PM 7.5 45.5 0.229 6.53 9.86 10.95
11/1/2020 3:45:00 PM 7.45 45.41 0.229 6.51 9.81 10.95
11/1/2020 4:00:00 PM 7.39 45.302 0.229 6.51 9.62 10.94
11/1/2020 4:15:00 PM 7.3 45.14 0.23 6.52 9.23 10.94
11/1/2020 4:30:00 PM 7.2 44.96 0.23 6.51 9.47 10.93
11/1/2020 4:45:00 PM 7.11 44.798 0.231 6.5 9.46 10.91
11/1/2020 5:00:00 PM 6.99 44.582 0.232 6.5 8.42 10.9
11/1/2020 5:15:00 PM 6.92 44.456 0.232 6.49 8.49 10.88
11/1/2020 5:30:00 PM 6.83 44.294 0.233 6.5 8.56 10.87
11/1/2020 5:45:00 PM 6.75 44.15 0.233 6.49 7.04 10.85
11/1/2020 6:00:00 PM 6.68 44.024 0.234 6.5 7 10.86
11/1/2020 6:15:00 PM 6.6 43.88 0.234 6.5 6.35 10.86
11/1/2020 6:30:00 PM 6.55 43.79 0.235 6.49 7.02 10.86
11/1/2020 6:45:00 PM 6.4 43.52 0.234 6.49 7.62 10.86
11/1/2020 7:00:00 PM 6.32 43.376 0.234 6.48 6.63 10.87
11/1/2020 7:15:00 PM 6.27 43.286 0.235 6.5 7.18 10.87
11/1/2020 7:30:00 PM 6.18 43.124 0.235 6.49 7.69 10.88
11/1/2020 7:45:00 PM 6.07 42.926 0.236 6.48 7.45 10.9
11/1/2020 8:00:00 PM 5.96 42.728 0.236 6.48 7.61 10.92
11/1/2020 8:15:00 PM 5.86 42.548 0.236 6.49 8.08 10.93
11/1/2020 8:30:00 PM 5.76 42.368 0.237 6.5 7.43 10.95
11/1/2020 8:45:00 PM 5.71 42.278 0.237 6.49 6.86 10.96
11/1/2020 9:00:00 PM 5.64 42.152 0.237 6.5 7.26 10.98
11/1/2020 9:15:00 PM 5.59 42.062 0.237 6.5 7.39 10.99
11/1/2020 9:30:00 PM 5.48 41.864 0.236 6.49 6.74 11.01
11/1/2020 9:45:00 PM 5.42 41.756 0.237 6.5 7.28 11.03
11/1/2020 10:00:00 PM 5.41 41.738 0.236 6.5 6.56 11.04
11/1/2020 10:15:00 PM 5.36 41.648 0.236 6.5 6.6 11.05
11/1/2020 10:30:00 PM 5.31 41.558 0.237 6.5 6.78 11.06
11/1/2020 10:45:00 PM 5.25 41.45 0.237 6.51 7.2 11.07
11/1/2020 11:00:00 PM 5.22 41.396 0.237 6.5 6.77 11.09
11/1/2020 11:15:00 PM 5.17 41.306 0.237 6.51 7.45 11.1
11/1/2020 11:30:00 PM 5.14 41.252 0.236 6.51 7.38 11.11
11/1/2020 11:45:00 PM 5.11 41.198 0.236 6.51 6.75 11.12
11/2/2020 12:00:00 AM 5.05 41.09 0.237 6.51 6.87 11.13
11/2/2020 12:15:00 AM 5.03 41.054 0.237 6.51 6.38 11.13
11/2/2020 12:30:00 AM 5 41 0.238 6.51 6.89 11.15
11/2/2020 12:45:00 AM 4.97 40.946 0.239 6.51 6.56 11.17
11/2/2020 1:00:00 AM 4.96 40.928 0.24 6.52 7.11 11.17
11/2/2020 1:15:00 AM 4.92 40.856 0.241 6.52 6.64 11.19
11/2/2020 1:30:00 AM 4.9 40.82 0.241 6.52 6.89 11.19
11/2/2020 1:45:00 AM 4.87 40.766 0.24 6.52 6.32 11.2
11/2/2020 2:00:00 AM 4.82 40.676 0.24 6.52 6.15 11.21
11/2/2020 2:15:00 AM 4.8 40.64 0.24 6.52 6.55 11.23
11/2/2020 2:30:00 AM 4.76 40.568 0.24 6.52 6.82 11.23
11/2/2020 2:45:00 AM 4.73 40.514 0.239 6.52 6.05 11.25
11/2/2020 3:00:00 AM 4.69 40.442 0.239 6.52 6.62 11.27
11/2/2020 3:15:00 AM 4.66 40.388 0.239 6.52 6.58 11.27
11/2/2020 3:30:00 AM 4.63 40.334 0.238 6.52 7.23 11.27
11/2/2020 3:45:00 AM 4.61 40.298 0.238 6.52 7.43 11.29
11/2/2020 4:00:00 AM 4.57 40.226 0.238 6.52 7.31 11.29
11/2/2020 4:15:00 AM 4.54 40.172 0.238 6.52 6.79 11.3
11/2/2020 4:30:00 AM 4.53 40.154 0.238 6.52 7.12 11.31
11/2/2020 4:45:00 AM 4.51 40.118 0.238 6.53 7.93 11.32
11/2/2020 5:00:00 AM 4.48 40.064 0.238 6.52 7.44 11.33
11/2/2020 5:15:00 AM 4.44 39.992 0.238 6.52 6.52 11.34
11/2/2020 5:30:00 AM 4.39 39.902 0.237 6.52 6.46 11.35
11/2/2020 5:45:00 AM 4.22 39.596 0.237 6.5 7.07 11.37
11/2/2020 6:00:00 AM 4.12 39.416 0.237 6.5 7.12 11.38
11/2/2020 6:15:00 AM 4.04 39.272 0.237 6.51 7.25 11.4
11/2/2020 6:30:00 AM 3.98 39.164 0.237 6.51 6.66 11.41
11/2/2020 6:45:00 AM 3.97 39.146 0.237 6.53 6.46 11.44
11/2/2020 7:00:00 AM 3.93 39.074 0.237 6.52 6.55 11.46
11/2/2020 7:15:00 AM 3.91 39.038 0.237 6.52 6.09 11.49
11/2/2020 7:30:00 AM 3.89 39.002 0.237 6.54 6.73 11.52
11/2/2020 7:45:00 AM 3.89 39.002 0.237 6.54 6.52 11.56
11/2/2020 8:00:00 AM 3.89 39.002 0.237 6.56 6.68 11.57
11/2/2020 8:15:00 AM 3.93 39.074 0.237 6.54 5.74 11.59
11/2/2020 8:30:00 AM 3.94 39.092 0.238 6.56 5.96 11.62
11/2/2020 8:45:00 AM 3.96 39.128 0.237 6.55 5.22 11.66
11/2/2020 9:00:00 AM 4 39.2 0.241 6.56 5.49 11.69
11/2/2020 9:15:00 AM 4.03 39.254 0.244 6.56 5.98 11.73
11/2/2020 9:30:00 AM 4.08 39.344 0.247 6.56 5.57 11.75
11/2/2020 9:45:00 AM 4.13 39.434 0.251 6.57 5.48 11.78
11/2/2020 10:00:00 AM 4.24 39.632 0.254 6.58 5.74 11.8
11/2/2020 10:15:00 AM 4.33 39.794 0.265 6.58 5.71 11.82
11/2/2020 10:30:00 AM 4.43 39.974 0.276 6.59 5.67 11.83
11/2/2020 10:45:00 AM 4.59 40.262 0.269 6.6 5.53 11.85
11/2/2020 11:00:00 AM 4.81 40.658 0.262 6.61 5.22 11.86
11/2/2020 11:15:00 AM 4.97 40.946 0.258 6.6 5.82 11.87
11/2/2020 11:30:00 AM 5.02 41.036 0.256 6.6 5.15 11.86
11/2/2020 11:45:00 AM 5.13 41.234 0.254 6.61 5.23 11.86
11/2/2020 12:00:00 PM 5.22 41.396 0.251 6.61 5.4 11.86
11/2/2020 12:15:00 PM 5.26 41.468 0.251 6.61 5.4 11.86
11/2/2020 12:30:00 PM 5.35 41.63 0.249 6.6 5.15 11.86
11/2/2020 12:45:00 PM 5.42 41.756 0.248 6.61 5.08 11.85
11/2/2020 1:00:00 PM 5.48 41.864 0.247 6.61 5.47 11.85
11/2/2020 1:15:00 PM 5.56 42.008 0.246 6.61 6.26 11.84
11/2/2020 1:30:00 PM 5.63 42.134 0.245 6.61 5.32 11.83
11/2/2020 1:45:00 PM 5.71 42.278 0.244 6.61 5.61 11.82
11/2/2020 2:00:00 PM 5.71 42.278 0.243 6.59 5.37 11.83
11/2/2020 2:15:00 PM 5.76 42.368 0.243 6.58 5.04 11.81
11/2/2020 2:30:00 PM 5.62 42.116 0.243 6.56 5.17 11.81
11/2/2020 2:45:00 PM 5.66 42.188 0.241 6.58 5.24 11.82
11/2/2020 3:00:00 PM 5.56 42.008 0.24 6.57 5.83 11.81
11/2/2020 3:15:00 PM 5.52 41.936 0.24 6.56 5.32 11.81
11/2/2020 3:30:00 PM 5.45 41.81 0.24 6.56 5.41 11.8
11/2/2020 3:45:00 PM 5.35 41.63 0.239 6.55 5.18 11.82
11/2/2020 4:00:00 PM 5.22 41.396 0.239 6.54 5.15 11.81
11/2/2020 4:15:00 PM 5.06 41.108 0.239 6.54 5.16 11.8
11/2/2020 4:30:00 PM 4.89 40.802 0.239 6.53 5.71 11.79
11/2/2020 4:45:00 PM 4.77 40.586 0.239 6.52 5.39 11.78
11/2/2020 5:00:00 PM 4.67 40.406 0.238 6.53 5.25 11.76
11/2/2020 5:15:00 PM 4.59 40.262 0.239 6.52 5.92 11.74
11/2/2020 5:30:00 PM 4.53 40.154 0.238 6.53 5.32 11.72
11/2/2020 5:45:00 PM 4.48 40.064 0.238 6.53 5.41 11.7
11/2/2020 6:00:00 PM 4.43 39.974 0.238 6.53 5.65 11.7
11/2/2020 6:15:00 PM 4.39 39.902 0.238 6.53 5.67 11.69
11/2/2020 6:30:00 PM 4.34 39.812 0.238 6.53 6.61 11.67
11/2/2020 6:45:00 PM 4.3 39.74 0.238 6.53 6.29 11.67
11/2/2020 7:00:00 PM 4.27 39.686 0.238 6.53 6.47 11.67
11/2/2020 7:15:00 PM 4.24 39.632 0.238 6.53 6.65 11.65
11/2/2020 7:30:00 PM 4.19 39.542 0.238 6.53 6.51 11.66
11/2/2020 7:45:00 PM 4.15 39.47 0.239 6.54 7.04 11.67
11/2/2020 8:00:00 PM 4.14 39.452 0.239 6.53 7 11.68
11/2/2020 8:15:00 PM 4.1 39.38 0.239 6.53 7.93 11.67
11/2/2020 8:30:00 PM 4.04 39.272 0.239 6.54 7.36 11.69
11/2/2020 8:45:00 PM 3.98 39.164 0.239 6.53 7.44 11.69
11/2/2020 9:00:00 PM 3.94 39.092 0.239 6.53 7.23 11.71
11/2/2020 9:15:00 PM 3.89 39.002 0.239 6.53 7.74 11.71
11/2/2020 9:30:00 PM 3.87 38.966 0.239 6.53 7.23 11.72
11/2/2020 9:45:00 PM 3.84 38.912 0.239 6.53 7.2 11.72
11/2/2020 10:00:00 PM 3.78 38.804 0.239 6.53 7.82 11.73
11/2/2020 10:15:00 PM 3.73 38.714 0.239 6.54 7.53 11.73
11/2/2020 10:30:00 PM 3.68 38.624 0.239 6.53 7.64 11.75
11/2/2020 10:45:00 PM 3.64 38.552 0.239 6.55 7.19 11.76
11/2/2020 11:00:00 PM 3.6 38.48 0.239 6.53 6.87 11.77
11/2/2020 11:15:00 PM 3.56 38.408 0.239 6.54 6.96 11.77
11/2/2020 11:30:00 PM 3.53 38.354 0.24 6.53 7.33 11.78
11/2/2020 11:45:00 PM 3.5 38.3 0.24 6.53 7.16 11.78
11/3/2020 12:00:00 AM 3.46 38.228 0.24 6.53 6.86 11.8
11/3/2020 12:15:00 AM 3.43 38.174 0.24 6.55 6.28 11.79
11/3/2020 12:30:00 AM 3.42 38.156 0.241 6.53 6.43 11.8
11/3/2020 12:45:00 AM 3.4 38.12 0.241 6.55 6.5 11.81
11/3/2020 1:00:00 AM 3.38 38.084 0.241 6.53 6.25 11.8
11/3/2020 1:15:00 AM 3.37 38.066 0.241 6.53 6.54 11.8
11/3/2020 1:30:00 AM 3.36 38.048 0.241 6.53 6.1 11.81
11/3/2020 1:45:00 AM 3.34 38.012 0.242 6.53 6.11 11.82
11/3/2020 2:00:00 AM 3.32 37.976 0.242 6.53 6.16 11.82
11/3/2020 2:15:00 AM 3.29 37.922 0.242 6.53 5.9 11.82
11/3/2020 2:30:00 AM 3.28 37.904 0.242 6.53 6.3 11.82
11/3/2020 2:45:00 AM 3.26 37.868 0.242 6.53 6.12 11.83
11/3/2020 3:00:00 AM 3.24 37.832 0.243 6.52 6.51 11.83
11/3/2020 3:15:00 AM 3.22 37.796 0.243 6.53 6.3 11.84
11/3/2020 3:30:00 AM 3.2 37.76 0.243 6.54 6.34 11.84
11/3/2020 3:45:00 AM 3.17 37.706 0.243 6.53 6.45 11.86
11/3/2020 4:00:00 AM 3.16 37.688 0.243 6.54 6 11.86
11/3/2020 4:15:00 AM 3.14 37.652 0.243 6.52 6.32 11.87
11/3/2020 4:30:00 AM 3.13 37.634 0.243 6.53 6.69 11.87
11/3/2020 4:45:00 AM 3.12 37.616 0.244 6.53 6.23 11.87
11/3/2020 5:00:00 AM 3.1 37.58 0.244 6.52 6.26 11.89
11/3/2020 5:15:00 AM 3.09 37.562 0.244 6.53 5.97 11.88
11/3/2020 5:30:00 AM 3.07 37.526 0.244 6.54 6.22 11.89
11/3/2020 5:45:00 AM 3.05 37.49 0.244 6.53 5.64 11.9
11/3/2020 6:00:00 AM 3.03 37.454 0.244 6.52 5.86 11.91
11/3/2020 6:15:00 AM 3.02 37.436 0.244 6.52 5.66 11.91
11/3/2020 6:30:00 AM 3 37.4 0.244 6.52 5.93 11.92
11/3/2020 6:45:00 AM 2.98 37.364 0.245 6.53 5.93 11.93
11/3/2020 7:00:00 AM 2.96 37.328 0.245 6.52 5.83 11.94
11/3/2020 7:15:00 AM 2.95 37.31 0.245 6.52 5.81 11.96
11/3/2020 7:30:00 AM 2.95 37.31 0.245 6.52 5.58 11.98
11/3/2020 7:45:00 AM 2.96 37.328 0.245 6.53 5.98 12.01
11/3/2020 8:00:00 AM 2.98 37.364 0.245 6.53 5.41 12.03
11/3/2020 8:15:00 AM 3.01 37.418 0.245 6.54 5.52 12.05
11/3/2020 8:30:00 AM 3.07 37.526 0.245 6.54 5.81 12.08
11/3/2020 8:45:00 AM 3.13 37.634 0.245 6.55 5.59 12.1
11/3/2020 9:00:00 AM 3.21 37.778 0.245 6.56 5.35 12.13
11/3/2020 9:15:00 AM 3.34 38.012 0.245 6.57 5.69 12.15
11/3/2020 9:30:00 AM 3.5 38.3 0.245 6.58 5.61 12.17
11/3/2020 9:45:00 AM 3.66 38.588 0.245 6.58 5.36 12.18
11/3/2020 10:00:00 AM 3.86 38.948 0.245 6.59 5.31 12.19
11/3/2020 10:15:00 AM 4.07 39.326 0.245 6.59 5.5 12.19
11/3/2020 10:30:00 AM 4.29 39.722 0.245 6.59 5.3 12.19
11/3/2020 10:45:00 AM 4.54 40.172 0.244 6.59 5.51 12.17
11/3/2020 11:00:00 AM 4.78 40.604 0.244 6.6 5.57 12.15
11/3/2020 11:15:00 AM 5.01 41.018 0.244 6.61 5.55 12.13
11/3/2020 11:30:00 AM 5.25 41.45 0.244 6.61 5.84 12.12
11/3/2020 11:45:00 AM 5.46 41.828 0.244 6.61 5.62 12.09
11/3/2020 12:00:00 PM 5.67 42.206 0.244 6.61 5.67 12.08
11/3/2020 12:15:00 PM 5.87 42.566 0.244 6.6 5.63 12.06
11/3/2020 12:30:00 PM 6.05 42.89 0.244 6.61 5.81 12.03
11/3/2020 12:45:00 PM 6.23 43.214 0.244 6.6 5.88 12.01
11/3/2020 1:00:00 PM 6.36 43.448 0.244 6.6 6.13 11.98
11/3/2020 1:15:00 PM 6.5 43.7 0.244 6.6 5.87 11.96
11/3/2020 1:30:00 PM 6.63 43.934 0.244 6.6 6.5 11.94
11/3/2020 1:45:00 PM 6.73 44.114 0.244 6.6 6.05 11.92
11/3/2020 2:00:00 PM 6.8 44.24 0.244 6.6 6.15 11.9
11/3/2020 2:15:00 PM 6.83 44.294 0.244 6.59 6.02 11.88
11/3/2020 2:30:00 PM 6.85 44.33 0.244 6.59 6.13 11.88
11/3/2020 2:45:00 PM 6.86 44.348 0.244 6.57 5.71 11.85
11/3/2020 3:00:00 PM 6.81 44.258 0.245 6.56 5.76 11.84
11/3/2020 3:15:00 PM 6.74 44.132 0.245 6.57 5.8 11.82
11/3/2020 3:30:00 PM 6.66 43.988 0.245 6.56 8.39 11.81
11/3/2020 3:45:00 PM 6.54 43.772 0.245 6.55 8.62 11.8
11/3/2020 4:00:00 PM 6.37 43.466 0.245 6.54 6.3 11.78
11/3/2020 4:15:00 PM 6.16 43.088 0.245 6.51 6 11.75
11/3/2020 4:30:00 PM 5.95 42.71 0.245 6.5 5.68 11.73
11/3/2020 4:45:00 PM 5.76 42.368 0.245 6.49 5.88 11.71
11/3/2020 5:00:00 PM 5.61 42.098 0.246 6.5 5.54 11.68
11/3/2020 5:15:00 PM 5.48 41.864 0.246 6.5 5.29 11.67
11/3/2020 5:30:00 PM 5.37 41.666 0.246 6.51 5.72 11.67
11/3/2020 5:45:00 PM 5.27 41.486 0.246 6.5 5.46 11.66
11/3/2020 6:00:00 PM 5.18 41.324 0.246 6.51 5.5 11.65
11/3/2020 6:15:00 PM 5.1 41.18 0.247 6.5 5.48 11.63
11/3/2020 6:30:00 PM 5.04 41.072 0.247 6.5 5.8 11.64
11/3/2020 6:45:00 PM 4.99 40.982 0.247 6.5 5.76 11.63
11/3/2020 7:00:00 PM 4.94 40.892 0.247 6.5 6.02 11.62
11/3/2020 7:15:00 PM 4.9 40.82 0.247 6.51 6.4 11.61
11/3/2020 7:30:00 PM 4.87 40.766 0.247 6.52 6.96 11.61
11/3/2020 7:45:00 PM 4.84 40.712 0.247 6.52 6.91 11.59
11/3/2020 8:00:00 PM 4.81 40.658 0.247 6.52 6.37 11.6
11/3/2020 8:15:00 PM 4.78 40.604 0.247 6.52 6.94 11.59
11/3/2020 8:30:00 PM 4.75 40.55 0.247 6.5 6.52 11.57
11/3/2020 8:45:00 PM 4.72 40.496 0.247 6.51 6.89 11.58
11/3/2020 9:00:00 PM 4.69 40.442 0.248 6.5 6.95 11.58
11/3/2020 9:15:00 PM 4.65 40.37 0.248 6.51 6.86 11.58
11/3/2020 9:30:00 PM 4.61 40.298 0.248 6.5 7.19 11.58
11/3/2020 9:45:00 PM 4.57 40.226 0.248 6.51 7.64 11.58
11/3/2020 10:00:00 PM 4.53 40.154 0.248 6.49 6.92 11.59
11/3/2020 10:15:00 PM 4.48 40.064 0.248 6.49 7.34 11.6
11/3/2020 10:30:00 PM 4.43 39.974 0.248 6.49 6.51 11.61
11/3/2020 10:45:00 PM 4.38 39.884 0.249 6.49 6.61 11.59
11/3/2020 11:00:00 PM 4.32 39.776 0.249 6.49 6.54 11.63
11/3/2020 11:15:00 PM 4.27 39.686 0.249 6.49 6.26 11.65
11/3/2020 11:30:00 PM 4.22 39.596 0.249 6.49 6.46 11.64
11/3/2020 11:45:00 PM 4.17 39.506 0.249 6.49 6.38 11.67
11/4/2020 12:00:00 AM 4.13 39.434 0.249 6.49 6.64 11.68
11/4/2020 12:15:00 AM 4.08 39.344 0.249 6.49 6.34 11.69
11/4/2020 12:30:00 AM 4.04 39.272 0.249 6.48 6.53 11.7
11/4/2020 12:45:00 AM 4.01 39.218 0.249 6.49 6.39 11.7
11/4/2020 1:00:00 AM 3.97 39.146 0.25 6.49 6.35 11.71
11/4/2020 1:15:00 AM 3.95 39.11 0.25 6.49 6.82 11.71
11/4/2020 1:30:00 AM 3.92 39.056 0.25 6.48 6.61 11.71
11/4/2020 1:45:00 AM 3.89 39.002 0.25 6.48 6.88 11.7
11/4/2020 2:00:00 AM 3.87 38.966 0.25 6.48 7.2 11.71
11/4/2020 2:15:00 AM 3.85 38.93 0.25 6.49 6.73 11.7
11/4/2020 2:30:00 AM 3.83 38.894 0.251 6.48 6.43 11.7
11/4/2020 2:45:00 AM 3.81 38.858 0.25 6.47 6.99 11.71
11/4/2020 3:00:00 AM 3.79 38.822 0.251 6.48 7.22 11.72
11/4/2020 3:15:00 AM 3.77 38.786 0.251 6.48 6.29 11.73
11/4/2020 3:30:00 AM 3.75 38.75 0.251 6.48 6.51 11.71
11/4/2020 3:45:00 AM 3.72 38.696 0.251 6.48 7.07 11.7
11/4/2020 4:00:00 AM 3.7 38.66 0.251 6.48 6.81 11.73
11/4/2020 4:15:00 AM 3.68 38.624 0.251 6.48 6.24 11.73
11/4/2020 4:30:00 AM 3.66 38.588 0.252 6.48 6.56 11.74
11/4/2020 4:45:00 AM 3.63 38.534 0.252 6.47 7.04 11.75
11/4/2020 5:00:00 AM 3.61 38.498 0.252 6.48 6.85 11.75
11/4/2020 5:15:00 AM 3.59 38.462 0.252 6.47 6.97 11.76
11/4/2020 5:30:00 AM 3.56 38.408 0.252 6.49 7.17 11.77
11/4/2020 5:45:00 AM 3.54 38.372 0.252 6.47 7.03 11.78
11/4/2020 6:00:00 AM 3.52 38.336 0.252 6.47 6.33 11.79
11/4/2020 6:15:00 AM 3.49 38.282 0.253 6.47 6.71 11.81
11/4/2020 6:30:00 AM 3.47 38.246 0.253 6.48 6.99 11.81
11/4/2020 6:45:00 AM 3.45 38.21 0.253 6.47 7.38 11.83
11/4/2020 7:00:00 AM 3.43 38.174 0.253 6.48 6.37 11.84
11/4/2020 7:15:00 AM 3.42 38.156 0.252 6.48 6.86 11.84
11/4/2020 7:30:00 AM 3.41 38.138 0.252 6.48 6.45 11.87
11/4/2020 7:45:00 AM 3.41 38.138 0.253 6.48 6.69 11.88
11/4/2020 8:00:00 AM 3.43 38.174 0.253 6.49 6.6 11.92
11/4/2020 8:15:00 AM 3.48 38.264 0.253 6.49 6.08 11.95
11/4/2020 8:30:00 AM 3.53 38.354 0.253 6.5 7 11.98
11/4/2020 8:45:00 AM 3.62 38.516 0.253 6.51 5.83 11.99
11/4/2020 9:00:00 AM 3.73 38.714 0.253 6.51 5.62 11.99
11/4/2020 9:15:00 AM 3.89 39.002 0.253 6.53 5.89 12.03
11/4/2020 9:30:00 AM 4.08 39.344 0.252 6.53 5.91 12.06
11/4/2020 9:45:00 AM 4.31 39.758 0.252 6.55 5.68 12.06
11/4/2020 10:00:00 AM 4.57 40.226 0.252 6.56 5.85 12.06
11/4/2020 10:15:00 AM 4.83 40.694 0.252 6.56 5.8 12.05
11/4/2020 10:30:00 AM 5.11 41.198 0.252 6.56 5.72 12.07
11/4/2020 10:45:00 AM 5.42 41.756 0.252 6.57 5.62 12.05
11/4/2020 11:00:00 AM 5.71 42.278 0.252 6.57 5.95 12.05
11/4/2020 11:15:00 AM 6.01 42.818 0.252 6.58 5.82 12.02
11/4/2020 11:30:00 AM 6.3 43.34 0.252 6.58 5.95 12.01
11/4/2020 11:45:00 AM 6.59 43.862 0.252 6.58 5.96 12
11/4/2020 12:00:00 PM 6.86 44.348 0.251 6.58 6.29 11.96
11/4/2020 12:15:00 PM 7.11 44.798 0.252 6.59 6.24 11.94
11/4/2020 12:30:00 PM 7.35 45.23 0.252 6.59 5.76 11.91
11/4/2020 12:45:00 PM 7.57 45.626 0.252 6.59 6.06 11.88
11/4/2020 1:00:00 PM 7.77 45.986 0.252 6.59 6.03 11.86
11/4/2020 1:15:00 PM 7.94 46.292 0.252 6.59 6.21 11.84
11/4/2020 1:30:00 PM 8.09 46.562 0.252 6.58 6.52 11.78
11/4/2020 1:45:00 PM 8.22 46.796 0.252 6.59 6.95 11.78
11/4/2020 2:00:00 PM 8.32 46.976 0.252 6.58 6.3 11.7
11/4/2020 2:15:00 PM 8.39 47.102 0.253 6.58 6.34 11.68
11/4/2020 2:30:00 PM 8.43 47.174 0.253 6.58 6.59 11.66
11/4/2020 2:45:00 PM 8.44 47.192 0.253 6.58 6.23 11.67
11/4/2020 3:00:00 PM 8.42 47.156 0.253 6.56 6.02 11.64
11/4/2020 3:15:00 PM 8.36 47.048 0.253 6.56 6.9 11.61
11/4/2020 3:30:00 PM 8.29 46.922 0.253 6.55 6.92 11.59
11/4/2020 3:45:00 PM 8.18 46.724 0.253 6.55 16.1 11.53
11/4/2020 4:00:00 PM 8.02 46.436 0.254 6.53 6.18 11.53
11/4/2020 4:15:00 PM 7.83 46.094 0.254 6.51 4.71 11.48
11/4/2020 4:30:00 PM 7.58 45.644 0.254 6.5 4.55 11.45
11/4/2020 4:45:00 PM 7.35 45.23 0.254 6.49 4.82 11.41
11/4/2020 5:00:00 PM 7.15 44.87 0.255 6.48 4.96 11.37
11/4/2020 5:15:00 PM 6.97 44.546 0.255 6.48 4.82 11.34
11/4/2020 5:30:00 PM 6.82 44.276 0.255 6.48 4.32 11.33
11/4/2020 5:45:00 PM 6.67 44.006 0.255 6.47 1.37 11.33
11/4/2020 6:00:00 PM 6.55 43.79 0.255 6.47 1.07 11.32
11/4/2020 6:15:00 PM 6.43 43.574 0.255 6.48 2.02 11.3
11/4/2020 6:30:00 PM 6.33 43.394 0.256 6.48 2.78 11.3
11/4/2020 6:45:00 PM 6.23 43.214 0.256 6.48 3.22 11.32
11/4/2020 7:00:00 PM 6.14 43.052 0.256 6.47 1.8 11.31
11/4/2020 7:15:00 PM 6.05 42.89 0.256 6.47 2.67 11.3
11/4/2020 7:30:00 PM 5.99 42.782 0.256 6.47 4.05 11.31
11/4/2020 7:45:00 PM 5.92 42.656 0.256 6.48 3.08 11.31
11/4/2020 8:00:00 PM 5.87 42.566 0.256 6.47 3.23 11.27
11/4/2020 8:15:00 PM 5.83 42.494 0.256 6.47 3.04 11.27
11/4/2020 8:30:00 PM 5.79 42.422 0.256 6.48 3.14 11.29
11/4/2020 8:45:00 PM 5.76 42.368 0.257 6.48 3.02 11.27
11/4/2020 9:00:00 PM 5.73 42.314 0.257 6.48 2.83 11.29
11/4/2020 9:15:00 PM 5.71 42.278 0.257 6.48 2.57 11.26
11/4/2020 9:30:00 PM 5.68 42.224 0.257 6.48 3.41 11.26
11/4/2020 9:45:00 PM 5.65 42.17 0.257 6.48 3.11 11.25
11/4/2020 10:00:00 PM 5.62 42.116 0.257 6.48 3.47 11.22
11/4/2020 10:15:00 PM 5.59 42.062 0.257 6.47 2.64 11.26
11/4/2020 10:30:00 PM 5.56 42.008 0.258 6.47 3.16 11.22
11/4/2020 10:45:00 PM 5.52 41.936 0.258 6.47 3.02 11.24
11/4/2020 11:00:00 PM 5.49 41.882 0.258 6.47 2.96 11.24
11/4/2020 11:15:00 PM 5.45 41.81 0.258 6.47 2.61 11.26
11/4/2020 11:30:00 PM 5.41 41.738 0.258 6.47 2.85 11.26
11/4/2020 11:45:00 PM 5.36 41.648 0.258 6.47 3.38 11.27
11/5/2020 12:00:00 AM 5.31 41.558 0.259 6.46 2.85 11.27
11/5/2020 12:15:00 AM 5.25 41.45 0.259 6.46 2.26 11.28
11/5/2020 12:30:00 AM 5.2 41.36 0.259 6.46 2.12 11.31
11/5/2020 12:45:00 AM 5.14 41.252 0.259 6.46 1.6 11.27
11/5/2020 1:00:00 AM 5.09 41.162 0.259 6.46 1.66 11.33
11/5/2020 1:15:00 AM 5.03 41.054 0.259 6.47 2.8 11.35
11/5/2020 1:30:00 AM 4.97 40.946 0.259 6.47 3.39 11.37
11/5/2020 1:45:00 AM 4.92 40.856 0.259 6.46 1.95 11.38
11/5/2020 2:00:00 AM 4.87 40.766 0.26 6.46 4.67 11.39
11/5/2020 2:15:00 AM 4.83 40.694 0.26 6.46 1.71 11.41
11/5/2020 2:30:00 AM 4.78 40.604 0.26 6.46 1.23 11.41
11/5/2020 2:45:00 AM 4.74 40.532 0.26 6.46 1.86 11.41
11/5/2020 3:00:00 AM 4.71 40.478 0.26 6.47 1.35 11.42
11/5/2020 3:15:00 AM 4.67 40.406 0.26 6.46 1.71 11.43
11/5/2020 3:30:00 AM 4.64 40.352 0.26 6.47 2.32 11.43
11/5/2020 3:45:00 AM 4.61 40.298 0.26 6.47 1.76 11.44
11/5/2020 4:00:00 AM 4.58 40.244 0.26 6.48 2.5 11.44
11/5/2020 4:15:00 AM 4.56 40.208 0.261 6.47 1.66 11.45
11/5/2020 4:30:00 AM 4.54 40.172 0.261 6.47 1.56 11.44
11/5/2020 4:45:00 AM 4.52 40.136 0.261 6.48 2.33 11.45
11/5/2020 5:00:00 AM 4.5 40.1 0.261 6.47 0.9 11.46
11/5/2020 5:15:00 AM 4.48 40.064 0.261 6.48 3.72 11.46
11/5/2020 5:30:00 AM 4.46 40.028 0.261 6.47 1.4 11.44
11/5/2020 5:45:00 AM 4.44 39.992 0.262 6.47 1.45 11.46
11/5/2020 6:00:00 AM 4.42 39.956 0.262 6.47 1.53 11.47
11/5/2020 6:15:00 AM 4.4 39.92 0.262 6.47 1.32 11.47
11/5/2020 6:30:00 AM 4.38 39.884 0.262 6.47 1.87 11.47
11/5/2020 6:45:00 AM 4.36 39.848 0.263 6.47 1.88 11.48
11/5/2020 7:00:00 AM 4.35 39.83 0.262 6.47 1.21 11.5
11/5/2020 7:15:00 AM 4.34 39.812 0.262 6.48 1.17 11.51
11/5/2020 7:30:00 AM 4.34 39.812 0.262 6.48 1.11 11.53
11/5/2020 7:45:00 AM 4.35 39.83 0.262 6.48 1.35 11.54
11/5/2020 8:00:00 AM 4.41 39.938 0.262 6.49 0.77 11.6
11/5/2020 8:15:00 AM 4.47 40.046 0.262 6.5 1.19 11.63
11/5/2020 8:30:00 AM 4.47 40.046 0.262 6.49 0.5 11.62
11/5/2020 8:45:00 AM 4.53 40.154 0.262 6.51 1.35 11.68
11/5/2020 9:00:00 AM 4.6 40.28 0.262 6.5 0.43 11.7
11/5/2020 9:15:00 AM 4.74 40.532 0.262 6.53 1.21 11.74
11/5/2020 9:30:00 AM 4.92 40.856 0.262 6.53 0.5 11.77
11/5/2020 9:45:00 AM 5.11 41.198 0.262 6.54 1.91 11.8
11/5/2020 10:00:00 AM 5.43 41.774 0.262 6.56 0.58 11.83
11/5/2020 10:15:00 AM 5.63 42.134 0.262 6.55 0.39 11.83
11/5/2020 10:30:00 AM 5.76 42.368 0.262 6.55 0.62 11.84
11/5/2020 10:45:00 AM 5.97 42.746 0.262 6.56 0.49 11.84
11/5/2020 11:00:00 AM 6.19 43.142 0.261 6.57 0.53 11.84
11/5/2020 11:15:00 AM 6.42 43.556 0.261 6.57 0.42 11.84
11/5/2020 11:30:00 AM 6.7 44.06 0.261 6.58 0.38 11.83
11/5/2020 11:45:00 AM 7.06 44.708 0.261 6.59 1.86 11.83
11/5/2020 12:00:00 PM 7.41 45.338 0.261 6.59 1.56 11.82
11/5/2020 12:15:00 PM 7.61 45.698 0.261 6.59 0.81 11.8
11/5/2020 12:30:00 PM 7.72 45.896 0.261 6.59 1.56 11.78
11/5/2020 12:45:00 PM 7.86 46.148 0.261 6.59 0.7 11.77
11/5/2020 1:00:00 PM 8 46.4 0.261 6.6 0.81 11.75
11/5/2020 1:15:00 PM 8.2 46.76 0.261 6.61 1.5 11.72
11/5/2020 1:30:00 PM 8.39 47.102 0.261 6.61 1.23 11.7
11/5/2020 1:45:00 PM 8.45 47.21 0.261 6.6 1.9 11.68
11/5/2020 2:00:00 PM 8.5 47.3 0.261 6.6 1.95 11.64
11/5/2020 2:15:00 PM 8.55 47.39 0.261 6.59 1.24 11.63
11/5/2020 2:30:00 PM 8.65 47.57 0.261 6.61 3.11 11.63
11/5/2020 2:45:00 PM 8.74 47.732 0.261 6.61 1.96 11.61
11/5/2020 3:00:00 PM 8.75 47.75 0.262 6.59 1.04 11.58
11/5/2020 3:15:00 PM 8.72 47.696 0.262 6.57 1.36 11.55
11/5/2020 3:30:00 PM 8.67 47.606 0.262 6.58 2.32 11.52
11/5/2020 3:45:00 PM 8.59 47.462 0.263 6.56 1.14 11.49
11/5/2020 4:00:00 PM 8.51 47.318 0.262 6.55 1.37 11.44
11/5/2020 4:15:00 PM 8.4 47.12 0.263 6.56 2.03 11.39
11/5/2020 4:30:00 PM 8.29 46.922 0.263 6.54 2.4 11.33
11/5/2020 4:45:00 PM 8.15 46.67 0.263 6.53 1.9 11.27
11/5/2020 5:00:00 PM 8.01 46.418 0.263 6.51 1.6 11.24
11/5/2020 5:15:00 PM 7.86 46.148 0.264 6.52 1.93 11.19
11/5/2020 5:30:00 PM 7.74 45.932 0.264 6.5 1.24 11.14
11/5/2020 5:45:00 PM 7.63 45.734 0.264 6.49 6.46 11.1
11/5/2020 6:00:00 PM 7.51 45.518 0.264 6.49 0.45 11.1
11/5/2020 6:15:00 PM 7.42 45.356 0.264 6.49 0.18 11.08
11/5/2020 6:30:00 PM 7.33 45.194 0.264 6.51 1.55 11.05
11/5/2020 6:45:00 PM 7.25 45.05 0.264 6.49 0.15 11.04
11/5/2020 7:00:00 PM 7.18 44.924 0.264 6.49 0.4 11.03
11/5/2020 7:15:00 PM 7.1 44.78 0.264 6.5 1.15 11.02
11/5/2020 7:30:00 PM 7.04 44.672 0.264 6.49 0.66 10.99
11/5/2020 7:45:00 PM 6.99 44.582 0.264 6.49 2.96 10.98
11/5/2020 8:00:00 PM 6.94 44.492 0.264 6.48 0.76 10.99
11/5/2020 8:15:00 PM 6.9 44.42 0.264 6.5 2.48 10.97
11/5/2020 8:30:00 PM 6.86 44.348 0.264 6.5 1.4 10.98
11/5/2020 8:45:00 PM 6.83 44.294 0.264 6.5 1.85 10.96
11/5/2020 9:00:00 PM 6.79 44.222 0.264 6.5 1.97 10.96
11/5/2020 9:15:00 PM 6.77 44.186 0.265 6.5 1.67 10.96
11/5/2020 9:30:00 PM 6.75 44.15 0.264 6.49 0.73 10.95
11/5/2020 9:45:00 PM 6.72 44.096 0.264 6.48 1.15 10.96
11/5/2020 10:00:00 PM 6.69 44.042 0.265 6.49 2.27 10.96
11/5/2020 10:15:00 PM 6.65 43.97 0.265 6.49 1.19 10.95
11/5/2020 10:30:00 PM 6.61 43.898 0.264 6.49 2.95 10.94
11/5/2020 10:45:00 PM 6.59 43.862 0.264 6.48 0.8 10.94
11/5/2020 11:00:00 PM 6.57 43.826 0.264 6.49 2.64 10.93
11/5/2020 11:15:00 PM 6.55 43.79 0.264 6.49 1.05 10.94
11/5/2020 11:30:00 PM 6.52 43.736 0.265 6.49 1.77 10.92
11/5/2020 11:45:00 PM 6.48 43.664 0.265 6.48 0.62 10.92
11/6/2020 12:00:00 AM 6.43 43.574 0.264 6.48 2.46 10.93
11/6/2020 12:15:00 AM 6.39 43.502 0.265 6.48 1.66 10.94
11/6/2020 12:30:00 AM 6.35 43.43 0.265 6.48 1.37 10.92
11/6/2020 12:45:00 AM 6.31 43.358 0.265 6.47 2.86 10.93
11/6/2020 1:00:00 AM 6.28 43.304 0.265 6.47 1.7 10.92
11/6/2020 1:15:00 AM 6.25 43.25 0.265 6.47 0.64 10.94
11/6/2020 1:30:00 AM 6.21 43.178 0.265 6.47 0.72 10.95
11/6/2020 1:45:00 AM 6.17 43.106 0.265 6.47 0.47 10.95
11/6/2020 2:00:00 AM 6.14 43.052 0.265 6.48 1.35 10.95
11/6/2020 2:15:00 AM 6.11 42.998 0.265 6.48 1.63 10.96
11/6/2020 2:30:00 AM 6.09 42.962 0.265 6.47 0.75 10.96
11/6/2020 2:45:00 AM 6.06 42.908 0.265 6.47 1.67 10.96
11/6/2020 3:00:00 AM 6.03 42.854 0.265 6.46 0.45 10.97
11/6/2020 3:15:00 AM 5.99 42.782 0.265 6.47 1.56 10.97
11/6/2020 3:30:00 AM 5.96 42.728 0.265 6.46 0.86 10.98
11/6/2020 3:45:00 AM 5.93 42.674 0.265 6.46 0.67 10.99
11/6/2020 4:00:00 AM 5.9 42.62 0.266 6.46 0.83 10.98
11/6/2020 4:15:00 AM 5.86 42.548 0.266 6.45 0.95 10.97
11/6/2020 4:30:00 AM 5.82 42.476 0.266 6.46 1.55 10.98
11/6/2020 4:45:00 AM 5.78 42.404 0.266 6.45 0.79 10.99
11/6/2020 5:00:00 AM 5.73 42.314 0.266 6.45 0.78 11.01
11/6/2020 5:15:00 AM 5.69 42.242 0.266 6.47 2.45 11.01
11/6/2020 5:30:00 AM 5.65 42.17 0.267 6.45 2.81 11.01
11/6/2020 5:45:00 AM 5.62 42.116 0.267 6.45 1.82 11.02
11/6/2020 6:00:00 AM 5.58 42.044 0.267 6.45 0.64 11.04
11/6/2020 6:15:00 AM 5.54 41.972 0.267 6.46 1.61 11.02
11/6/2020 6:30:00 AM 5.5 41.9 0.267 6.45 0.5 11.07
11/6/2020 6:45:00 AM 5.46 41.828 0.267 6.45 0.49 11.06
11/6/2020 7:00:00 AM 5.42 41.756 0.267 6.45 0.25 11.08
11/6/2020 7:15:00 AM 5.4 41.72 0.267 6.46 1.44 11.11
11/6/2020 7:30:00 AM 5.38 41.684 0.267 6.46 0.34 11.12
11/6/2020 7:45:00 AM 5.37 41.666 0.267 6.47 0.07 11.18
11/6/2020 8:00:00 AM 5.38 41.684 0.267 6.47 0.33 11.19
11/6/2020 8:15:00 AM 5.42 41.756 0.267 6.48 -0.28 11.24
11/6/2020 8:30:00 AM 5.48 41.864 0.267 6.49 -0.01 11.27
11/6/2020 8:45:00 AM 5.57 42.026 0.267 6.5 -0.07 11.32
11/6/2020 9:00:00 AM 5.66 42.188 0.267 6.51 -0.42 11.31
11/6/2020 9:15:00 AM 5.81 42.458 0.267 6.52 -0.39 11.38
11/6/2020 9:30:00 AM 6.03 42.854 0.267 6.54 0.28 11.43
11/6/2020 9:45:00 AM 6.25 43.25 0.267 6.55 -0.33 11.46
11/6/2020 10:00:00 AM 6.51 43.718 0.267 6.55 -0.33 11.48
11/6/2020 10:15:00 AM 6.76 44.168 0.266 6.57 0.6 11.52
11/6/2020 10:30:00 AM 7.04 44.672 0.266 6.57 -0.11 11.51
11/6/2020 10:45:00 AM 7.33 45.194 0.266 6.57 -0.39 11.55
11/6/2020 11:00:00 AM 7.64 45.752 0.266 6.58 -0.3 11.53
11/6/2020 11:15:00 AM 7.94 46.292 0.266 6.59 0.13 11.55
11/6/2020 11:30:00 AM 8.26 46.868 0.266 6.6 1.5 11.54
11/6/2020 11:45:00 AM 8.57 47.426 0.266 6.6 0.64 11.54
11/6/2020 12:00:00 PM 8.87 47.966 0.266 6.6 0 11.52
11/6/2020 12:15:00 PM 9.15 48.47 0.266 6.62 0.17 11.51
11/6/2020 12:30:00 PM 9.4 48.92 0.266 6.62 0.9 11.49
11/6/2020 12:45:00 PM 9.64 49.352 0.266 6.63 0.49 11.47
11/6/2020 1:00:00 PM 9.87 49.766 0.265 6.64 -0.09 11.44
11/6/2020 1:15:00 PM 10.05 50.09 0.265 6.64 0.32 11.42
11/6/2020 1:30:00 PM 10.23 50.414 0.265 6.64 1.23 11.4
11/6/2020 1:45:00 PM 10.36 50.648 0.265 6.64 0.33 11.37
11/6/2020 2:00:00 PM 10.48 50.864 0.265 6.64 0.57 11.34
11/6/2020 2:15:00 PM 10.57 51.026 0.265 6.64 1.11 11.3
11/6/2020 2:30:00 PM 10.61 51.098 0.265 6.63 0.38 11.28
11/6/2020 2:45:00 PM 10.63 51.134 0.265 6.63 1.72 11.24
11/6/2020 3:00:00 PM 10.62 51.116 0.265 6.62 0.14 11.22
11/6/2020 3:15:00 PM 10.56 51.008 0.265 6.61 0.55 11.18
11/6/2020 3:30:00 PM 10.48 50.864 0.266 6.61 1.29 11.13
11/6/2020 3:45:00 PM 10.36 50.648 0.266 6.59 0.58 11.1
11/6/2020 4:00:00 PM 10.22 50.396 0.266 6.58 1.16 11.02
11/6/2020 4:15:00 PM 10.04 50.072 0.266 6.56 2.1 10.98
11/6/2020 4:30:00 PM 9.84 49.712 0.266 6.56 1.46 10.92
11/6/2020 4:45:00 PM 9.6 49.28 0.267 6.54 1 10.84
11/6/2020 5:00:00 PM 9.39 48.902 0.267 6.52 0.88 10.78
11/6/2020 5:15:00 PM 9.19 48.542 0.267 6.52 0.58 10.76
11/6/2020 5:30:00 PM 9.03 48.254 0.267 6.52 0.56 10.71
11/6/2020 5:45:00 PM 8.87 47.966 0.268 6.51 1.02 10.68
11/6/2020 6:00:00 PM 8.74 47.732 0.268 6.51 1.5 10.63
11/6/2020 6:15:00 PM 8.61 47.498 0.268 6.51 0.68 10.61
11/6/2020 6:30:00 PM 8.47 47.246 0.268 6.51 1.2 10.63
11/6/2020 6:45:00 PM 8.36 47.048 0.268 6.52 2.98 10.59
11/6/2020 7:00:00 PM 8.25 46.85 0.268 6.52 4.12 10.59
11/6/2020 7:15:00 PM 8.12 46.616 0.268 6.5 3.35 10.53
11/6/2020 7:30:00 PM 8.01 46.418 0.268 6.5 1.25 10.59
11/6/2020 7:45:00 PM 7.92 46.256 0.269 6.5 1.33 10.59
11/6/2020 8:00:00 PM 7.81 46.058 0.268 6.5 21.59 10.59
11/6/2020 8:15:00 PM 7.72 45.896 0.268 6.5 2.23 10.59
11/6/2020 8:30:00 PM 7.63 45.734 0.269 6.49 0.79 10.53
11/6/2020 8:45:00 PM 7.55 45.59 0.269 6.5 2.13 10.6
11/6/2020 9:00:00 PM 7.47 45.446 0.269 6.5 0.87 10.59
11/6/2020 9:15:00 PM 7.41 45.338 0.268 6.5 2.39 10.63
11/6/2020 9:30:00 PM 7.34 45.212 0.269 6.49 1.08 10.63
11/6/2020 9:45:00 PM 7.29 45.122 0.269 6.49 1.47 10.62
11/6/2020 10:00:00 PM 7.24 45.032 0.269 6.5 1.68 10.62
11/6/2020 10:15:00 PM 7.19 44.942 0.268 6.5 0.88 10.63
11/6/2020 10:30:00 PM 7.14 44.852 0.268 6.5 1.16 10.62
11/6/2020 10:45:00 PM 7.1 44.78 0.268 6.51 2.06 10.63
11/6/2020 11:00:00 PM 7.06 44.708 0.269 6.5 1.33 10.65
11/6/2020 11:15:00 PM 7.01 44.618 0.269 6.5 1.73 10.65
11/6/2020 11:30:00 PM 6.98 44.564 0.269 6.51 2.2 10.64
11/6/2020 11:45:00 PM 6.94 44.492 0.268 6.51 1.99 10.63
11/7/2020 12:00:00 AM 6.9 44.42 0.268 6.5 1.81 10.64
11/7/2020 12:15:00 AM 6.85 44.33 0.269 6.49 0.84 10.63
11/7/2020 12:30:00 AM 6.82 44.276 0.268 6.5 1.8 10.66
11/7/2020 12:45:00 AM 6.78 44.204 0.269 6.49 0.4 10.67
11/7/2020 1:00:00 AM 6.73 44.114 0.268 6.5 1.18 10.68
11/7/2020 1:15:00 AM 6.69 44.042 0.268 6.49 1.5 10.68
11/7/2020 1:30:00 AM 6.64 43.952 0.268 6.49 0.28 10.69
11/7/2020 1:45:00 AM 6.58 43.844 0.268 6.48 0.34 10.7
11/7/2020 2:00:00 AM 6.53 43.754 0.268 6.49 0.37 10.71
11/7/2020 2:15:00 AM 6.47 43.646 0.269 6.49 0.03 10.74
11/7/2020 2:30:00 AM 6.41 43.538 0.269 6.49 1.21 10.73
11/7/2020 2:45:00 AM 6.34 43.412 0.269 6.49 0.45 10.76
11/7/2020 3:00:00 AM 6.29 43.322 0.268 6.5 0.97 10.77
11/7/2020 3:15:00 AM 6.23 43.214 0.268 6.49 1.59 10.79
11/7/2020 3:30:00 AM 6.16 43.088 0.269 6.48 0.11 10.81
11/7/2020 3:45:00 AM 6.1 42.98 0.269 6.48 -0.03 10.83
11/7/2020 4:00:00 AM 6.05 42.89 0.269 6.49 -0.07 10.84
11/7/2020 4:15:00 AM 5.99 42.782 0.269 6.49 0 10.86
11/7/2020 4:30:00 AM 5.93 42.674 0.269 6.49 0.28 10.88
11/7/2020 4:45:00 AM 5.87 42.566 0.269 6.5 1.24 10.87
11/7/2020 5:00:00 AM 5.83 42.494 0.269 6.48 0.59 10.9
11/7/2020 5:15:00 AM 5.77 42.386 0.269 6.49 1.45 10.89
11/7/2020 5:30:00 AM 5.73 42.314 0.269 6.49 1.06 10.91
11/7/2020 5:45:00 AM 5.68 42.224 0.269 6.49 0.09 10.94
11/7/2020 6:00:00 AM 5.63 42.134 0.269 6.49 0.87 10.94
11/7/2020 6:15:00 AM 5.59 42.062 0.27 6.49 0.27 10.94
11/7/2020 6:30:00 AM 5.55 41.99 0.27 6.49 0.85 10.95
11/7/2020 6:45:00 AM 5.51 41.918 0.27 6.49 0.51 10.95
11/7/2020 7:00:00 AM 5.48 41.864 0.27 6.49 0.47 10.96
11/7/2020 7:15:00 AM 5.46 41.828 0.27 6.49 0.09 10.99
11/7/2020 7:30:00 AM 5.45 41.81 0.271 6.5 0.12 11.04
11/7/2020 7:45:00 AM 5.44 41.792 0.271 6.5 0.68 11.07
11/7/2020 8:00:00 AM 5.44 41.792 0.271 6.5 -0.26 11.12
11/7/2020 8:15:00 AM 5.48 41.864 0.271 6.51 -0.3 11.16
11/7/2020 8:30:00 AM 5.55 41.99 0.271 6.52 -0.14 11.19
11/7/2020 8:45:00 AM 5.63 42.134 0.271 6.53 -0.09 11.23
11/7/2020 9:00:00 AM 5.73 42.314 0.271 6.54 0.38 11.3
11/7/2020 9:15:00 AM 5.87 42.566 0.271 6.55 0.23 11.33
11/7/2020 9:30:00 AM 6.04 42.872 0.271 6.56 0.12 11.4
11/7/2020 9:45:00 AM 6.25 43.25 0.271 6.56 3.08 11.43
11/7/2020 10:00:00 AM 6.47 43.646 0.271 6.57 -0.32 11.47
11/7/2020 10:15:00 AM 6.7 44.06 0.27 6.58 -0.2 11.51
11/7/2020 10:30:00 AM 6.98 44.564 0.27 6.59 -0.29 11.54
11/7/2020 10:45:00 AM 7.3 45.14 0.27 6.6 0.43 11.56
11/7/2020 11:00:00 AM 7.62 45.716 0.27 6.61 0.59 11.58
11/7/2020 11:15:00 AM 7.91 46.238 0.27 6.61 0.56 11.59
11/7/2020 11:30:00 AM 8.23 46.814 0.269 6.62 0.36 11.58
11/7/2020 11:45:00 AM 8.57 47.426 0.269 6.63 -0.21 11.59
11/7/2020 12:00:00 PM 8.87 47.966 0.269 6.63 0.4 11.57
11/7/2020 12:15:00 PM 9.18 48.524 0.269 6.64 0.27 11.57
11/7/2020 12:30:00 PM 9.46 49.028 0.269 6.65 2.05 11.56
11/7/2020 12:45:00 PM 9.71 49.478 0.269 6.65 0.79 11.55
11/7/2020 1:00:00 PM 9.95 49.91 0.269 6.65 2.54 11.53
11/7/2020 1:15:00 PM 10.16 50.288 0.269 6.66 1.15 11.5
11/7/2020 1:30:00 PM 10.34 50.612 0.269 6.66 0.3 11.47
11/7/2020 1:45:00 PM 10.5 50.9 0.269 6.67 1.06 11.45
11/7/2020 2:00:00 PM 10.62 51.116 0.269 6.65 1.38 11.38
11/7/2020 2:15:00 PM 10.73 51.314 0.269 6.66 53.55 11.39
11/7/2020 2:30:00 PM 10.8 51.44 0.269 6.66 1.97 11.35
11/7/2020 2:45:00 PM 10.83 51.494 0.269 6.65 1.16 11.29
11/7/2020 3:00:00 PM 10.82 51.476 0.269 6.63 0.26 11.28
11/7/2020 3:15:00 PM 10.78 51.404 0.269 6.63 0.9 11.22
11/7/2020 3:30:00 PM 10.7 51.26 0.27 6.62 1.08 11.16
11/7/2020 3:45:00 PM 10.58 51.044 0.269 6.61 1.75 11.13
11/7/2020 4:00:00 PM 10.43 50.774 0.269 6.6 0.31 11.05
11/7/2020 4:15:00 PM 10.26 50.468 0.269 6.58 0.68 10.98
11/7/2020 4:30:00 PM 10.06 50.108 0.269 6.57 1.45 10.87
11/7/2020 4:45:00 PM 9.82 49.676 0.27 6.56 0.57 10.85
11/7/2020 5:00:00 PM 9.58 49.244 0.27 6.55 2.88 10.75
11/7/2020 5:15:00 PM 9.37 48.866 0.271 6.53 1.8 10.7
11/7/2020 5:30:00 PM 9.18 48.524 0.271 6.52 2.71 10.66
11/7/2020 5:45:00 PM 9.01 48.218 0.271 6.51 1.66 10.63
11/7/2020 6:00:00 PM 8.86 47.948 0.271 6.51 1.46 10.59
11/7/2020 6:15:00 PM 8.73 47.714 0.271 6.51 1.6 10.55
11/7/2020 6:30:00 PM 8.61 47.498 0.271 6.51 1.8 10.55
11/7/2020 6:45:00 PM 8.49 47.282 0.271 6.51 2.37 10.52
11/7/2020 7:00:00 PM 8.38 47.084 0.271 6.51 2.95 10.52
11/7/2020 7:15:00 PM 8.27 46.886 0.271 6.51 3.16 10.5
11/7/2020 7:30:00 PM 8.16 46.688 0.271 6.5 2.58 10.32
11/7/2020 7:45:00 PM 8.04 46.472 0.271 6.51 2.69 10.5
11/7/2020 8:00:00 PM 7.95 46.31 0.272 6.5 1.56 10.47
11/7/2020 8:15:00 PM 7.84 46.112 0.272 6.5 2.06 10.51
11/7/2020 8:30:00 PM 7.74 45.932 0.272 6.49 1.8 10.5
11/7/2020 8:45:00 PM 7.66 45.788 0.272 6.49 1.88 10.44
11/7/2020 9:00:00 PM 7.57 45.626 0.272 6.49 1.71 10.49
11/7/2020 9:15:00 PM 7.5 45.5 0.272 6.49 1.89 10.52
11/7/2020 9:30:00 PM 7.42 45.356 0.272 6.49 1.58 10.5
11/7/2020 9:45:00 PM 7.36 45.248 0.272 6.49 1.52 10.51
11/7/2020 10:00:00 PM 7.29 45.122 0.272 6.5 2.04 10.56
11/7/2020 10:15:00 PM 7.25 45.05 0.272 6.5 2.1 10.55
11/7/2020 10:30:00 PM 7.19 44.942 0.272 6.5 2.43 10.55
11/7/2020 10:45:00 PM 7.15 44.87 0.272 6.49 1.38 10.55
11/7/2020 11:00:00 PM 7.1 44.78 0.272 6.51 3.9 10.55
11/7/2020 11:15:00 PM 7.06 44.708 0.272 6.5 1.48 10.56
11/7/2020 11:30:00 PM 7.02 44.636 0.272 6.5 2.41 10.55
11/7/2020 11:45:00 PM 6.97 44.546 0.272 6.5 2.41 10.54
11/8/2020 12:00:00 AM 6.94 44.492 0.272 6.49 1.65 10.54
11/8/2020 12:15:00 AM 6.9 44.42 0.272 6.5 1.97 10.5
11/8/2020 12:30:00 AM 6.87 44.366 0.273 6.49 2.28 10.5
11/8/2020 12:45:00 AM 6.83 44.294 0.272 6.49 2.3 10.54
11/8/2020 1:00:00 AM 6.8 44.24 0.272 6.49 2.28 10.55
11/8/2020 1:15:00 AM 6.76 44.168 0.272 6.49 1.96 10.57
11/8/2020 1:30:00 AM 6.72 44.096 0.273 6.48 1.16 10.56
11/8/2020 1:45:00 AM 6.68 44.024 0.273 6.49 5.88 10.57
11/8/2020 2:00:00 AM 6.64 43.952 0.273 6.48 3.48 10.58
11/8/2020 2:15:00 AM 6.6 43.88 0.273 6.48 3.11 10.56
11/8/2020 2:30:00 AM 6.55 43.79 0.272 6.48 2.79 10.58
11/8/2020 2:45:00 AM 6.49 43.682 0.273 6.48 1.03 10.6
11/8/2020 3:00:00 AM 6.45 43.61 0.273 6.47 1.06 10.62
11/8/2020 3:15:00 AM 6.39 43.502 0.273 6.47 0.78 10.63
11/8/2020 3:30:00 AM 6.33 43.394 0.273 6.48 1.79 10.63
11/8/2020 3:45:00 AM 6.28 43.304 0.273 6.47 0.47 10.64
11/8/2020 4:00:00 AM 6.23 43.214 0.273 6.48 0.72 10.66
11/8/2020 4:15:00 AM 6.17 43.106 0.273 6.49 1.81 10.69
11/8/2020 4:30:00 AM 6.11 42.998 0.273 6.49 1.85 10.71
11/8/2020 4:45:00 AM 6.05 42.89 0.273 6.47 1.1 10.66
11/8/2020 5:00:00 AM 6 42.8 0.273 6.48 1.66 10.73
11/8/2020 5:15:00 AM 5.95 42.71 0.273 6.48 1.04 10.76
11/8/2020 5:30:00 AM 5.9 42.62 0.274 6.47 0.85 10.76
11/8/2020 5:45:00 AM 5.85 42.53 0.274 6.47 0.99 10.79
11/8/2020 6:00:00 AM 5.8 42.44 0.274 6.49 1.8 10.8
11/8/2020 6:15:00 AM 5.77 42.386 0.274 6.48 1.12 10.82
11/8/2020 6:30:00 AM 5.71 42.278 0.274 6.48 1.08 10.81
11/8/2020 6:45:00 AM 5.67 42.206 0.274 6.48 1.96 10.85
11/8/2020 7:00:00 AM 5.63 42.134 0.274 6.48 0.32 10.85
11/8/2020 7:15:00 AM 5.6 42.08 0.274 6.48 0.61 10.88
11/8/2020 7:30:00 AM 5.58 42.044 0.274 6.48 0.67 10.89
11/8/2020 7:45:00 AM 5.57 42.026 0.274 6.48 0.81 10.94
11/8/2020 8:00:00 AM 5.57 42.026 0.274 6.5 0.55 10.98
11/8/2020 8:15:00 AM 5.61 42.098 0.275 6.51 0.64 11.04
11/8/2020 8:30:00 AM 5.67 42.206 0.275 6.52 4.5 11.01
11/8/2020 8:45:00 AM 5.76 42.368 0.276 6.52 0.17 11.11
11/8/2020 9:00:00 AM 5.85 42.53 0.276 6.53 0.28 11.18
11/8/2020 9:15:00 AM 5.98 42.764 0.276 6.53 0.69 11.23
11/8/2020 9:30:00 AM 6.16 43.088 0.276 6.54 -0.02 11.23
11/8/2020 9:45:00 AM 6.36 43.448 0.276 6.56 1.53 11.31
11/8/2020 10:00:00 AM 6.59 43.862 0.275 6.57 0.09 11.38
11/8/2020 10:15:00 AM 6.83 44.294 0.276 6.58 1.05 11.44
11/8/2020 10:30:00 AM 7.09 44.762 0.275 6.59 0.15 11.49
11/8/2020 10:45:00 AM 7.34 45.212 0.276 6.59 0.04 11.45
11/8/2020 11:00:00 AM 7.66 45.788 0.275 6.61 0.14 11.53
11/8/2020 11:15:00 AM 8 46.4 0.275 6.61 0.18 11.55
11/8/2020 11:30:00 AM 8.34 47.012 0.275 6.62 1.14 11.5
11/8/2020 11:45:00 AM 8.67 47.606 0.275 6.63 0.21 11.58
11/8/2020 12:00:00 PM 8.98 48.164 0.275 6.64 0.44 11.59
11/8/2020 12:15:00 PM 9.29 48.722 0.275 6.64 1.2 11.62
11/8/2020 12:30:00 PM 9.56 49.208 0.275 6.65 1.22 11.61
11/8/2020 12:45:00 PM 9.83 49.694 0.275 6.65 1.37 11.6
11/8/2020 1:00:00 PM 10.08 50.144 0.275 6.65 0.55 11.56
11/8/2020 1:15:00 PM 10.29 50.522 0.274 6.66 0.67 11.56
11/8/2020 1:30:00 PM 10.47 50.846 0.276 6.65 0.82 11.54
11/8/2020 1:45:00 PM 10.67 51.206 0.183 6.67 5.52 11.51
11/8/2020 2:00:00 PM 10.81 51.458 0.275 6.66 1.36 11.48
11/8/2020 2:15:00 PM 10.93 51.674 0.275 6.67 1.68 11.45
11/8/2020 2:30:00 PM 11 51.8 0.275 6.67 1.2 11.44
11/8/2020 2:45:00 PM 11.05 51.89 0.275 6.66 1.79 11.43
11/8/2020 3:00:00 PM 11.06 51.908 0.275 6.64 2.14 11.38
11/8/2020 3:15:00 PM 11.04 51.872 0.275 6.64 1.15 11.31
11/8/2020 3:30:00 PM 10.97 51.746 0.275 6.65 1.76 11.25
11/8/2020 3:45:00 PM 10.87 51.566 0.275 6.62 1.35 11.21
11/8/2020 4:00:00 PM 10.73 51.314 0.275 6.61 2.82 11.13
11/8/2020 4:15:00 PM 10.59 51.062 0.275 6.59 1.75 11.06
11/8/2020 4:30:00 PM 10.35 50.63 0.275 6.58 2.38 10.96
11/8/2020 4:45:00 PM 10.13 50.234 0.275 6.56 1.42 10.87
11/8/2020 5:00:00 PM 9.92 49.856 0.276 6.55 8.08 10.79
11/8/2020 5:15:00 PM 9.7 49.46 0.276 6.53 2.01 10.73
11/8/2020 5:30:00 PM 9.48 49.064 0.276 6.53 1.5 10.62
11/8/2020 5:45:00 PM 9.31 48.758 0.276 6.53 1.84 10.58
11/8/2020 6:00:00 PM 9.18 48.524 0.277 6.53 1.61 10.57
11/8/2020 6:15:00 PM 9.04 48.272 0.277 6.52 3.15 10.53
11/8/2020 6:30:00 PM 8.91 48.038 0.277 6.52 3.25 10.49
11/8/2020 6:45:00 PM 8.81 47.858 0.277 6.53 2.95 10.47
11/8/2020 7:00:00 PM 8.7 47.66 0.277 6.52 2.3 10.47
11/8/2020 7:15:00 PM 8.59 47.462 0.277 6.52 1.66 10.45
11/8/2020 7:30:00 PM 8.48 47.264 0.277 6.52 1.74 10.41
11/8/2020 7:45:00 PM 8.38 47.084 0.277 6.52 2.19 10.43
11/8/2020 8:00:00 PM 8.27 46.886 0.277 6.51 2.02 10.41
11/8/2020 8:15:00 PM 8.17 46.706 0.277 6.52 2.23 10.41
11/8/2020 8:30:00 PM 8.06 46.508 0.277 6.51 3.16 10.42
11/8/2020 8:45:00 PM 7.96 46.328 0.277 6.51 2.55 10.43
11/8/2020 9:00:00 PM 7.87 46.166 0.276 6.51 3.59 10.4
11/8/2020 9:15:00 PM 7.78 46.004 0.276 6.52 3.42 10.43
11/8/2020 9:30:00 PM 7.7 45.86 0.276 6.51 3.71 10.43
11/8/2020 9:45:00 PM 7.62 45.716 0.276 6.52 4.23 10.4
11/8/2020 10:00:00 PM 7.55 45.59 0.276 6.51 3.06 10.43
11/8/2020 10:15:00 PM 7.48 45.464 0.275 6.51 2.43 10.39
11/8/2020 10:30:00 PM 7.42 45.356 0.276 6.51 2.17 10.45
11/8/2020 10:45:00 PM 7.36 45.248 0.276 6.51 2.94 10.47
11/8/2020 11:00:00 PM 7.31 45.158 0.276 6.51 2.43 10.46
11/8/2020 11:15:00 PM 7.26 45.068 0.276 6.51 2.32 10.47
11/8/2020 11:30:00 PM 7.21 44.978 0.276 6.51 3.08 10.47
11/8/2020 11:45:00 PM 7.17 44.906 0.276 6.5 2.82 10.44
11/9/2020 12:00:00 AM 7.12 44.816 0.276 6.51 3.04 10.48
11/9/2020 12:15:00 AM 7.08 44.744 0.276 6.52 4.27 10.48
11/9/2020 12:30:00 AM 7.04 44.672 0.276 6.51 2.68 10.49
11/9/2020 12:45:00 AM 7 44.6 0.276 6.5 2.23 10.16
11/9/2020 1:00:00 AM 6.96 44.528 0.276 6.51 4.72 10.46
11/9/2020 1:15:00 AM 6.92 44.456 0.277 6.5 3.22 10.47
11/9/2020 1:30:00 AM 6.89 44.402 0.277 6.5 2.73 10.48
11/9/2020 1:45:00 AM 6.85 44.33 0.277 6.5 6.11 10.46
11/9/2020 2:00:00 AM 6.82 44.276 0.278 6.49 2.9 10.44
11/9/2020 2:15:00 AM 6.77 44.186 0.278 6.49 3.35 10.46
11/9/2020 2:30:00 AM 6.73 44.114 0.278 6.49 3.93 10.45
11/9/2020 2:45:00 AM 6.69 44.042 0.279 6.5 3.18 10.48
11/9/2020 3:00:00 AM 6.65 43.97 0.279 6.48 3.03 10.45
11/9/2020 3:15:00 AM 6.6 43.88 0.279 6.5 2.65 10.51
11/9/2020 3:30:00 AM 6.55 43.79 0.279 6.49 1.54 10.5
11/9/2020 3:45:00 AM 6.5 43.7 0.279 6.49 1.84 10.48
11/9/2020 4:00:00 AM 6.45 43.61 0.279 6.49 2.71 10.49
11/9/2020 4:15:00 AM 6.39 43.502 0.279 6.49 2.36 10.49
11/9/2020 4:30:00 AM 6.35 43.43 0.279 6.49 1.81 10.55
11/9/2020 4:45:00 AM 6.29 43.322 0.279 6.5 2.37 10.55
11/9/2020 5:00:00 AM 6.24 43.232 0.279 6.5 2.76 10.57
11/9/2020 5:15:00 AM 6.18 43.124 0.279 6.49 1.6 10.62
11/9/2020 5:30:00 AM 6.13 43.034 0.279 6.49 1.68 10.6
11/9/2020 5:45:00 AM 6.09 42.962 0.279 6.5 2.36 10.59
11/9/2020 6:00:00 AM 6.03 42.854 0.279 6.49 2.59 10.65
11/9/2020 6:15:00 AM 5.98 42.764 0.279 6.49 2.5 10.68
11/9/2020 6:30:00 AM 5.94 42.692 0.279 6.5 2.32 10.63
11/9/2020 6:45:00 AM 5.89 42.602 0.279 6.49 2.03 10.7
11/9/2020 7:00:00 AM 5.85 42.53 0.279 6.5 2.52 10.7
11/9/2020 7:15:00 AM 5.82 42.476 0.279 6.49 1.72 10.75
11/9/2020 7:30:00 AM 5.8 42.44 0.279 6.48 1.4 10.74
11/9/2020 7:45:00 AM 5.77 42.386 0.279 6.5 2.07 10.74
11/9/2020 8:00:00 AM 5.78 42.404 0.283 6.5 1.17 10.82
11/9/2020 8:15:00 AM 5.82 42.476 0.279 6.51 1.09 10.87
11/9/2020 8:30:00 AM 5.87 42.566 0.279 6.53 1.13 10.96
11/9/2020 8:45:00 AM 5.96 42.728 0.279 6.53 1.76 11.02
11/9/2020 9:00:00 AM 6.07 42.926 0.279 6.54 2.05 11.07
11/9/2020 9:15:00 AM 6.19 43.142 0.279 6.55 1.61 11.09
11/9/2020 9:30:00 AM 6.37 43.466 0.279 6.57 3.55 11.2
11/9/2020 9:45:00 AM 6.57 43.826 0.28 6.57 4.16 11.22
11/9/2020 10:00:00 AM 6.81 44.258 0.28 6.59 2.02 11.26
11/9/2020 10:15:00 AM 7.06 44.708 0.28 6.59 1.42 11.24
11/9/2020 10:30:00 AM 7.35 45.23 0.28 6.6 1.26 11.35
11/9/2020 10:45:00 AM 7.67 45.806 0.28 6.62 1.94 11.46
11/9/2020 11:00:00 AM 8.02 46.436 0.28 6.62 1.57 11.44
11/9/2020 11:15:00 AM 8.35 47.03 0.28 6.63 1.9 11.47
11/9/2020 11:30:00 AM 8.68 47.624 0.279 6.64 1.17 11.49
11/9/2020 11:45:00 AM 9.04 48.272 0.279 6.63 1.92 11.43
11/9/2020 12:00:00 PM 9.37 48.866 0.279 6.64 2.14 11.53
11/9/2020 12:15:00 PM 9.71 49.478 0.279 6.66 1.9 11.57
11/9/2020 12:30:00 PM 10.03 50.054 0.279 6.67 1.56 11.55
11/9/2020 12:45:00 PM 10.33 50.594 0.278 6.67 1.63 11.51
11/9/2020 1:00:00 PM 10.59 51.062 0.278 6.68 2.42 11.54
11/9/2020 1:15:00 PM 10.82 51.476 0.278 6.69 2.3 11.56
11/9/2020 1:30:00 PM 11.02 51.836 0.279 6.69 1.6 11.48
11/9/2020 1:45:00 PM 11.22 52.196 0.278 6.7 2.05 11.49
11/9/2020 2:00:00 PM 11.37 52.466 0.278 6.7 2.71 11.47
11/9/2020 2:15:00 PM 11.5 52.7 0.278 6.68 2.05 11.46
11/9/2020 2:30:00 PM 11.58 52.844 0.279 6.69 2.77 11.4
11/9/2020 2:45:00 PM 11.64 52.952 0.279 6.7 2.22 11.35
11/9/2020 3:00:00 PM 11.65 52.97 0.279 6.68 1.89 11.36
11/9/2020 3:15:00 PM 11.63 52.934 0.279 6.66 2.17 11.27
11/9/2020 3:30:00 PM 11.58 52.844 0.279 6.65 2.25 11.18
11/9/2020 3:45:00 PM 11.47 52.646 0.279 6.65 2.54 11.15
11/9/2020 4:00:00 PM 11.36 52.448 0.279 6.63 2.18 11.09
11/9/2020 4:15:00 PM 11.19 52.142 0.279 6.62 2.52 10.99
11/9/2020 4:30:00 PM 11.01 51.818 0.28 6.61 2.81 10.91
11/9/2020 4:45:00 PM 10.79 51.422 0.279 6.58 2.77 10.74
11/9/2020 5:00:00 PM 10.56 51.008 0.28 6.58 2.42 10.7
11/9/2020 5:15:00 PM 10.33 50.594 0.28 6.58 3.21 10.63
11/9/2020 5:30:00 PM 10.14 50.252 0.28 6.57 2.84 10.54
11/9/2020 5:45:00 PM 9.95 49.91 0.28 6.56 3.98 10.47
11/9/2020 6:00:00 PM 9.8 49.64 0.281 6.54 3.59 10.41
11/9/2020 6:15:00 PM 9.65 49.37 0.28 6.56 3.13 10.39
11/9/2020 6:30:00 PM 9.51 49.118 0.28 6.56 4.66 10.35
11/9/2020 6:45:00 PM 9.4 48.92 0.28 6.55 3.25 10.24
11/9/2020 7:00:00 PM 9.29 48.722 0.281 6.54 4.63 10.27
11/9/2020 7:15:00 PM 9.19 48.542 0.281 6.54 5.22 10.29
11/9/2020 7:30:00 PM 9.08 48.344 0.281 6.55 4.25 10.26
11/9/2020 7:45:00 PM 8.98 48.164 0.281 6.55 5.9 10.24
11/9/2020 8:00:00 PM 8.88 47.984 0.281 6.55 4.57 10.25
11/9/2020 8:15:00 PM 8.77 47.786 0.281 6.54 4.16 10.22
11/9/2020 8:30:00 PM 8.67 47.606 0.281 6.53 3.98 10.22
11/9/2020 8:45:00 PM 8.58 47.444 0.281 6.54 5.01 10.24
11/9/2020 9:00:00 PM 8.47 47.246 0.281 6.51 4.48 10.2
11/9/2020 9:15:00 PM 8.39 47.102 0.281 6.53 5.39 10.16
11/9/2020 9:30:00 PM 8.29 46.922 0.281 6.53 4.03 10.2
11/9/2020 9:45:00 PM 8.22 46.796 0.281 6.54 4.91 10.18
11/9/2020 10:00:00 PM 8.14 46.652 0.281 6.54 4.48 10.24
11/9/2020 10:15:00 PM 8.07 46.526 0.282 6.54 3.53 10.26
11/9/2020 10:30:00 PM 8.01 46.418 0.281 6.54 5.31 10.24
11/9/2020 10:45:00 PM 7.96 46.328 0.282 6.54 5.24 10.24
11/9/2020 11:00:00 PM 7.9 46.22 0.282 6.55 5.21 10.25
11/9/2020 11:15:00 PM 7.84 46.112 0.282 6.55 5.01 10.26
11/9/2020 11:30:00 PM 7.79 46.022 0.282 6.54 5.75 10.26
11/9/2020 11:45:00 PM 7.74 45.932 0.281 6.54 5.45 10.27
11/10/2020 12:00:00 AM 7.69 45.842 0.282 6.54 4.42 10.26
11/10/2020 12:15:00 AM 7.65 45.77 0.282 6.54 4.37 10.24
11/10/2020 12:30:00 AM 7.61 45.698 0.281 6.54 4.84 10.25
11/10/2020 12:45:00 AM 7.58 45.644 0.281 6.55 5.98 10.28
11/10/2020 1:00:00 AM 7.54 45.572 0.282 6.53 4.17 10.25
11/10/2020 1:15:00 AM 7.51 45.518 0.282 6.54 3.97 10.28
11/10/2020 1:30:00 AM 7.48 45.464 0.282 6.55 4.29 10.26
11/10/2020 1:45:00 AM 7.45 45.41 0.282 6.54 3.38 10.28
11/10/2020 2:00:00 AM 7.42 45.356 0.282 6.54 3.95 10.28
11/10/2020 2:15:00 AM 7.4 45.32 0.282 6.55 4.75 10.29
11/10/2020 2:30:00 AM 7.37 45.266 0.282 6.53 4.47 10.29
11/10/2020 2:45:00 AM 7.34 45.212 0.282 6.54 3.55 10.29
11/10/2020 3:00:00 AM 7.31 45.158 0.282 6.54 3.54 10.3
11/10/2020 3:15:00 AM 7.28 45.104 0.282 6.54 6.44 10.25
11/10/2020 3:30:00 AM 7.25 45.05 0.282 6.54 3.85 10.26
11/10/2020 3:45:00 AM 7.22 44.996 0.282 6.53 3.47 10.27
11/10/2020 4:00:00 AM 7.18 44.924 0.282 6.53 3.89 10.3
11/10/2020 4:15:00 AM 7.15 44.87 0.283 6.53 4.42 10.3
11/10/2020 4:30:00 AM 7.12 44.816 0.283 6.53 4.04 10.27
11/10/2020 4:45:00 AM 7.07 44.726 0.283 6.53 4.31 10.29
11/10/2020 5:00:00 AM 7.04 44.672 0.283 6.53 4.23 10.3
11/10/2020 5:15:00 AM 7 44.6 0.283 6.53 3.55 10.28
11/10/2020 5:30:00 AM 6.95 44.51 0.283 6.53 4.96 10.34
11/10/2020 5:45:00 AM 6.91 44.438 0.283 6.53 4.38 10.32
11/10/2020 6:00:00 AM 6.87 44.366 0.283 6.52 3.45 10.35
11/10/2020 6:15:00 AM 6.83 44.294 0.283 6.52 3.41 10.34
11/10/2020 6:30:00 AM 6.78 44.204 0.283 6.52 3.14 10.38
11/10/2020 6:45:00 AM 6.74 44.132 0.283 6.52 3.55 10.38
11/10/2020 7:00:00 AM 6.71 44.078 0.283 6.52 4.15 10.4
11/10/2020 7:15:00 AM 6.67 44.006 0.283 6.52 3.64 10.4
11/10/2020 7:30:00 AM 6.66 43.988 0.284 6.52 2.75 10.42
11/10/2020 7:45:00 AM 6.64 43.952 0.284 6.53 3.45 10.48
11/10/2020 8:00:00 AM 6.63 43.934 0.284 6.53 3.88 10.49
11/10/2020 8:15:00 AM 6.66 43.988 0.284 6.54 3.28 10.57
11/10/2020 8:30:00 AM 6.72 44.096 0.284 6.55 3.1 10.64
11/10/2020 8:45:00 AM 6.81 44.258 0.284 6.55 2.7 10.68
11/10/2020 9:00:00 AM 6.92 44.456 0.284 6.57 3.14 10.76
11/10/2020 9:15:00 AM 7.05 44.69 0.284 6.58 2.6 10.84
11/10/2020 9:30:00 AM 7.21 44.978 0.284 6.59 2.3 10.9
11/10/2020 9:45:00 AM 7.42 45.356 0.284 6.6 2.53 11
11/10/2020 10:00:00 AM 7.69 45.842 0.284 6.62 3.2 11.05
11/10/2020 10:15:00 AM 7.96 46.328 0.284 6.63 3.09 11.16
11/10/2020 10:30:00 AM 8.23 46.814 0.285 6.64 2.59 11.21
11/10/2020 10:45:00 AM 8.55 47.39 0.284 6.65 3.09 11.27
11/10/2020 11:00:00 AM 8.87 47.966 0.284 6.66 7.41 11.32
11/10/2020 11:15:00 AM 9.2 48.56 0.284 6.66 7.74 11.35
11/10/2020 11:30:00 AM 9.55 49.19 0.284 6.68 3.16 11.36
11/10/2020 11:45:00 AM 9.93 49.874 0.284 6.68 3.7 11.43
11/10/2020 12:00:00 PM 10.26 50.468 0.284 6.69 3.51 11.45
11/10/2020 12:15:00 PM 10.59 51.062 0.284 6.69 3.65 11.47
11/10/2020 12:30:00 PM 10.92 51.656 0.284 6.71 3.4 11.47
11/10/2020 12:45:00 PM 11.26 52.268 0.284 6.72 3.34 11.46
11/10/2020 1:00:00 PM 11.55 52.79 0.283 6.73 3.4 11.42
11/10/2020 1:15:00 PM 11.83 53.294 0.284 6.72 3.78 11.45
11/10/2020 1:30:00 PM 12.04 53.672 0.283 6.74 3.6 11.43
11/10/2020 1:45:00 PM 12.22 53.996 0.284 6.74 4.6 11.4
11/10/2020 2:00:00 PM 12.35 54.23 0.283 6.74 4 11.34
11/10/2020 2:15:00 PM 12.51 54.518 0.284 6.75 7.49 11.32
11/10/2020 2:30:00 PM 12.51 54.518 0.284 6.72 3.67 11.25
11/10/2020 2:45:00 PM 12.56 54.608 0.284 6.73 4.15 11.24
11/10/2020 3:00:00 PM 12.58 54.644 0.284 6.72 4.38 11.15
11/10/2020 3:15:00 PM 12.57 54.626 0.284 6.73 5 11.08
11/10/2020 3:30:00 PM 12.56 54.608 0.284 6.71 4.67 11
11/10/2020 3:45:00 PM 12.51 54.518 0.284 6.7 4.04 10.97
11/10/2020 4:00:00 PM 12.4 54.32 0.284 6.69 4.52 10.91
11/10/2020 4:15:00 PM 12.27 54.086 0.284 6.68 6.08 10.77
11/10/2020 4:30:00 PM 12.09 53.762 0.284 6.67 5.09 10.65
11/10/2020 4:45:00 PM 11.94 53.492 0.284 6.64 7.64 10.56
11/10/2020 5:00:00 PM 11.72 53.096 0.285 6.63 6 10.47
11/10/2020 5:15:00 PM 11.5 52.7 0.285 6.62 4.78 10.37
11/10/2020 5:30:00 PM 11.33 52.394 0.285 6.6 4.95 10.28
11/10/2020 5:45:00 PM 11.16 52.088 0.285 6.6 4.31 10.21
11/10/2020 6:00:00 PM 11 51.8 0.285 6.6 5.91 10.11
11/10/2020 6:15:00 PM 10.86 51.548 0.286 6.59 6.31 10.1
11/10/2020 6:30:00 PM 10.74 51.332 0.286 6.58 7.26 10.03
11/10/2020 6:45:00 PM 10.61 51.098 0.286 6.57 6.3 9.88
11/10/2020 7:00:00 PM 10.49 50.882 0.286 6.58 5.59 9.95
11/10/2020 7:15:00 PM 10.39 50.702 0.286 6.58 6.88 9.95
11/10/2020 7:30:00 PM 10.3 50.54 0.286 6.58 5.4 9.91
11/10/2020 7:45:00 PM 10.2 50.36 0.286 6.57 5.2 9.91
11/10/2020 8:00:00 PM 10.1 50.18 0.286 6.58 6.8 9.88
11/10/2020 8:15:00 PM 10.02 50.036 0.286 6.57 5.43 9.8
11/10/2020 8:30:00 PM 9.91 49.838 0.286 6.57 5.59 9.86
11/10/2020 8:45:00 PM 9.82 49.676 0.286 6.56 5.59 9.84
11/10/2020 9:00:00 PM 9.72 49.496 0.286 6.56 4.68 9.77
11/10/2020 9:15:00 PM 9.63 49.334 0.286 6.56 5.61 9.8
11/10/2020 9:30:00 PM 9.55 49.19 0.286 6.55 5.51 9.79
11/10/2020 9:45:00 PM 9.47 49.046 0.285 6.56 5.08 9.78
11/10/2020 10:00:00 PM 9.39 48.902 0.285 6.56 4.97 9.79
11/10/2020 10:15:00 PM 9.32 48.776 0.285 6.55 5.35 9.82
11/10/2020 10:30:00 PM 9.25 48.65 0.285 6.56 5.4 9.83
11/10/2020 10:45:00 PM 9.18 48.524 0.285 6.57 5.72 9.84
11/10/2020 11:00:00 PM 9.13 48.434 0.285 6.55 4.91 9.81
11/10/2020 11:15:00 PM 9.07 48.326 0.285 6.56 5.32 9.83
11/10/2020 11:30:00 PM 9.03 48.254 0.285 6.55 4.94 9.84
11/10/2020 11:45:00 PM 8.98 48.164 0.285 6.55 5.28 9.84
11/11/2020 12:00:00 AM 8.93 48.074 0.285 6.55 5.44 9.87
11/11/2020 12:15:00 AM 8.89 48.002 0.285 6.55 5.38 9.82
11/11/2020 12:30:00 AM 8.85 47.93 0.285 6.55 5.57 9.87
11/11/2020 12:45:00 AM 8.82 47.876 0.285 6.57 5.77 9.82
11/11/2020 1:00:00 AM 8.79 47.822 0.285 6.56 5.29 9.77
11/11/2020 1:15:00 AM 8.77 47.786 0.285 6.55 4.49 9.83
11/11/2020 1:30:00 AM 8.74 47.732 0.285 6.56 6.73 9.82
11/11/2020 1:45:00 AM 8.72 47.696 0.285 6.56 5.17 9.78
11/11/2020 2:00:00 AM 8.71 47.678 0.285 6.56 5.63 9.81
11/11/2020 2:15:00 AM 8.71 47.678 0.285 6.57 5.57 9.82
11/11/2020 2:30:00 AM 8.7 47.66 0.285 6.57 5.32 9.84
11/11/2020 2:45:00 AM 8.69 47.642 0.285 6.55 4.84 9.84
11/11/2020 3:00:00 AM 8.7 47.66 0.285 6.56 5.13 9.75
11/11/2020 3:15:00 AM 8.73 47.714 0.285 6.56 5.55 9.76
11/11/2020 3:30:00 AM 8.73 47.714 0.285 6.57 5.7 9.8
11/11/2020 3:45:00 AM 8.75 47.75 0.284 6.57 5.51 9.71
11/11/2020 4:00:00 AM 8.8 47.84 0.284 6.58 7.87 9.78
11/11/2020 4:15:00 AM 8.84 47.912 0.284 6.58 6.09 9.79
11/11/2020 4:30:00 AM 8.88 47.984 0.284 6.57 5.5 9.75
11/11/2020 4:45:00 AM 8.91 48.038 0.284 6.58 5.37 9.73
11/11/2020 5:00:00 AM 8.95 48.11 0.284 6.57 5.35 9.76
11/11/2020 5:15:00 AM 9 48.2 0.284 6.58 5.14 9.76
11/11/2020 5:30:00 AM 9.03 48.254 0.284 6.57 4.83 9.76
11/11/2020 5:45:00 AM 9.06 48.308 0.284 6.58 6.41 9.77
11/11/2020 6:00:00 AM 9.08 48.344 0.284 6.59 6.38 9.76
11/11/2020 6:15:00 AM 9.13 48.434 0.282 6.57 5.73 9.75
11/11/2020 6:30:00 AM 9.17 48.506 0.282 6.57 5.55 9.72
11/11/2020 6:45:00 AM 9.2 48.56 0.288 6.58 6.88 9.73
11/11/2020 7:00:00 AM 9.28 48.704 0.303 6.57 13.41 9.66
11/11/2020 7:15:00 AM 9.34 48.812 0.303 6.57 11.52 9.64
11/11/2020 7:30:00 AM 9.43 48.974 0.296 6.59 15.02 9.63
11/11/2020 7:45:00 AM 9.64 49.352 0.281 6.61 19.09 9.56
11/11/2020 8:00:00 AM 9.65 49.37 0.279 6.57 14.73 9.63
11/11/2020 8:15:00 AM 9.71 49.478 0.278 6.59 13.73 9.71
11/11/2020 8:30:00 AM 10.32 50.576 0.249 6.68 56.51 9.76
11/11/2020 8:45:00 AM 11.12 52.016 0.218 6.71 79.09 9.7
11/11/2020 9:00:00 AM 10.77 51.386 0.25 6.59 31.95 9.69
11/11/2020 9:15:00 AM 10.78 51.404 0.272 6.6 27.07 9.69
11/11/2020 9:30:00 AM 10.93 51.674 0.26 6.65 35.17 9.66
11/11/2020 9:45:00 AM 11.09 51.962 0.252 6.67 46.93 9.63
11/11/2020 10:00:00 AM 11.22 52.196 0.244 6.67 37.02 9.6
11/11/2020 10:15:00 AM 11.64 52.952 0.216 6.72 60.97 9.63
11/11/2020 10:30:00 AM 12.32 54.176 0.178 6.71 47.91 9.59
11/11/2020 10:45:00 AM 11.92 53.456 0.202 6.6 39.98 9.62
11/11/2020 11:00:00 AM 11.85 53.33 0.21 6.6 37.29 9.62
11/11/2020 11:15:00 AM 11.96 53.528 0.208 6.63 39.55 9.59
11/11/2020 11:30:00 AM 12.04 53.672 0.204 6.63 44.12 9.59
11/11/2020 11:45:00 AM 12.04 53.672 0.204 6.62 41.01 9.59
11/11/2020 12:00:00 PM 12.04 53.672 0.205 6.61 41.67 9.63
11/11/2020 12:15:00 PM 12.04 53.672 0.209 6.6 45.56 9.66
11/11/2020 12:30:00 PM 11.94 53.492 0.224 6.59 47.52 9.69
11/11/2020 12:45:00 PM 11.87 53.366 0.231 6.6 87.23 9.71
11/11/2020 1:00:00 PM 11.81 53.258 0.25 6.62 169.97 9.76
11/11/2020 1:15:00 PM 11.6 52.88 0.262 6.61 179.58 9.83
11/11/2020 1:30:00 PM 11.52 52.736 0.255 6.62 259.24 9.87
11/11/2020 1:45:00 PM 11.51 52.718 0.252 6.62 274.73 9.84
11/11/2020 2:00:00 PM 11.56 52.808 0.254 6.64 261.07 9.78
11/11/2020 2:15:00 PM 11.59 52.862 0.26 6.66 196.18 9.76
11/11/2020 2:30:00 PM 11.59 52.862 0.267 6.66 183.92 9.78
11/11/2020 2:45:00 PM 11.58 52.844 0.272 6.66 154.01 9.8
11/11/2020 3:00:00 PM 11.57 52.826 0.269 6.67 162.18 9.81
11/11/2020 3:15:00 PM 11.58 52.844 0.258 6.65 151 9.8
11/11/2020 3:30:00 PM 11.58 52.844 0.247 6.64 116.05 9.79
11/11/2020 3:45:00 PM 11.58 52.844 0.239 6.65 91.58 9.79
11/11/2020 4:00:00 PM 11.58 52.844 0.233 6.63 81.42 9.77
11/11/2020 4:15:00 PM 11.57 52.826 0.227 6.61 82.72 9.75
11/11/2020 4:30:00 PM 11.52 52.736 0.219 6.59 62.01 9.73
11/11/2020 4:45:00 PM 11.46 52.628 0.214 6.58 71.07 9.7
11/11/2020 5:00:00 PM 11.38 52.484 0.21 6.56 65.03 9.7
11/11/2020 5:15:00 PM 11.29 52.322 0.207 6.57 112.92 9.7
11/11/2020 5:30:00 PM 11.21 52.178 0.206 6.56 52.88 9.72
11/11/2020 5:45:00 PM 11.12 52.016 0.206 6.57 55.99 9.74
11/11/2020 6:00:00 PM 11.03 51.854 0.209 6.58 50.73 9.75
11/11/2020 6:15:00 PM 10.93 51.674 0.212 6.59 47.29 9.75
11/11/2020 6:30:00 PM 10.86 51.548 0.214 6.61 49.25 9.74
11/11/2020 6:45:00 PM 10.78 51.404 0.215 6.61 55.45 9.74
11/11/2020 7:00:00 PM 10.75 51.35 0.213 6.61 53.11 9.73
11/11/2020 7:15:00 PM 10.75 51.35 0.208 6.61 51.95 9.71
11/11/2020 7:30:00 PM 10.8 51.44 0.201 6.61 57.13 9.68
11/11/2020 7:45:00 PM 10.85 51.53 0.195 6.6 91.31 9.64
11/11/2020 8:00:00 PM 10.88 51.584 0.192 6.58 65.07 9.63
11/11/2020 8:15:00 PM 10.89 51.602 0.193 6.57 57 9.62
11/11/2020 8:30:00 PM 10.89 51.602 0.195 6.56 115.09 9.61
11/11/2020 8:45:00 PM 10.88 51.584 0.197 6.56 67.88 9.6
11/11/2020 9:00:00 PM 10.86 51.548 0.198 6.54 66.6 9.59
11/11/2020 9:15:00 PM 10.85 51.53 0.197 6.53 72.64 9.58
11/11/2020 9:30:00 PM 10.83 51.494 0.197 6.52 73.15 9.56
11/11/2020 9:45:00 PM 10.82 51.476 0.195 6.53 74 9.55
11/11/2020 10:00:00 PM 10.8 51.44 0.195 6.52 77.7 9.53
11/11/2020 10:15:00 PM 10.78 51.404 0.195 6.52 79.32 9.52
11/11/2020 10:30:00 PM 10.77 51.386 0.195 6.52 75.68 9.5
11/11/2020 10:45:00 PM 10.76 51.368 0.194 6.53 76.66 9.49
11/11/2020 11:00:00 PM 10.76 51.368 0.193 6.53 88.22 9.47
11/11/2020 11:15:00 PM 10.76 51.368 0.192 6.52 77.9 9.46
11/11/2020 11:30:00 PM 10.76 51.368 0.191 6.52 74.04 9.45
11/11/2020 11:45:00 PM 10.76 51.368 0.19 6.53 70.91 9.43
11/12/2020 12:00:00 AM 10.76 51.368 0.19 6.53 85.53 9.41
11/12/2020 12:15:00 AM 10.76 51.368 0.19 6.52 73.97 9.4
11/12/2020 12:30:00 AM 10.76 51.368 0.19 6.52 94.97 9.38
11/12/2020 12:45:00 AM 10.75 51.35 0.191 6.53 74.57 9.37
11/12/2020 1:00:00 AM 10.74 51.332 0.191 6.53 62.9 9.36
11/12/2020 1:15:00 AM 10.72 51.296 0.192 6.53 67.22 9.37
11/12/2020 1:30:00 AM 10.7 51.26 0.192 6.53 63.08 9.37
11/12/2020 1:45:00 AM 10.67 51.206 0.192 6.55 63.63 9.38
11/12/2020 2:00:00 AM 10.64 51.152 0.192 6.52 53.9 9.39
11/12/2020 2:15:00 AM 10.61 51.098 0.193 6.53 53.37 9.4
11/12/2020 2:30:00 AM 10.59 51.062 0.192 6.55 50.92 9.4
11/12/2020 2:45:00 AM 10.57 51.026 0.192 6.55 53.94 9.41
11/12/2020 3:00:00 AM 10.55 50.99 0.192 6.55 56.75 9.42
11/12/2020 3:15:00 AM 10.53 50.954 0.191 6.56 50.3 9.41
11/12/2020 3:30:00 AM 10.52 50.936 0.19 6.53 50.45 9.4
11/12/2020 3:45:00 AM 10.52 50.936 0.189 6.53 43.02 9.41
11/12/2020 4:00:00 AM 10.51 50.918 0.187 6.55 41.21 9.4
11/12/2020 4:15:00 AM 10.51 50.918 0.185 6.55 45.22 9.39
11/12/2020 4:30:00 AM 10.51 50.918 0.184 6.54 42.1 9.38
11/12/2020 4:45:00 AM 10.51 50.918 0.182 6.54 40.69 9.37
11/12/2020 5:00:00 AM 10.51 50.918 0.181 6.53 44.98 9.36
11/12/2020 5:15:00 AM 10.52 50.936 0.179 6.52 44.16 9.35
11/12/2020 5:30:00 AM 10.53 50.954 0.178 6.51 39.94 9.35
11/12/2020 5:45:00 AM 10.53 50.954 0.176 6.51 40.75 9.34
11/12/2020 6:00:00 AM 10.53 50.954 0.175 6.5 39.04 9.34
11/12/2020 6:15:00 AM 10.53 50.954 0.174 6.5 43.01 9.34
11/12/2020 6:30:00 AM 10.53 50.954 0.173 6.5 41.07 9.35
11/12/2020 6:45:00 AM 10.52 50.936 0.172 6.49 42.41 9.34
11/12/2020 7:00:00 AM 10.52 50.936 0.171 6.49 41.46 9.35
11/12/2020 7:15:00 AM 10.5 50.9 0.17 6.47 41.67 9.35
11/12/2020 7:30:00 AM 10.48 50.864 0.17 6.47 38.46 9.37
11/12/2020 7:45:00 AM 10.46 50.828 0.169 6.47 38.81 9.37
11/12/2020 8:00:00 AM 10.45 50.81 0.169 6.47 41.59 9.39
11/12/2020 8:15:00 AM 10.43 50.774 0.168 6.46 35.13 9.4
11/12/2020 8:30:00 AM 10.41 50.738 0.168 6.46 32.06 9.42
11/12/2020 8:45:00 AM 10.41 50.738 0.168 6.46 32.42 9.43
11/12/2020 9:00:00 AM 10.4 50.72 0.167 6.47 33.23 9.45
11/12/2020 9:15:00 AM 10.4 50.72 0.167 6.45 25.99 9.46
11/12/2020 9:30:00 AM 10.39 50.702 0.167 6.46 28.88 9.48
11/12/2020 9:45:00 AM 10.39 50.702 0.167 6.45 29.99 9.49
11/12/2020 10:00:00 AM 10.42 50.756 0.167 6.46 30.35 9.51
11/12/2020 10:15:00 AM 10.45 50.81 0.167 6.47 27.87 9.54
11/12/2020 10:30:00 AM 10.49 50.882 0.167 6.47 28.37 9.56
11/12/2020 10:45:00 AM 10.53 50.954 0.167 6.48 27.34 9.57
11/12/2020 11:00:00 AM 10.56 51.008 0.168 6.48 26.9 9.58
11/12/2020 11:15:00 AM 10.57 51.026 0.168 6.47 24.81 9.6
11/12/2020 11:30:00 AM 10.59 51.062 0.168 6.47 23.8 9.62
11/12/2020 11:45:00 AM 10.61 51.098 0.168 6.48 22.73 9.64
11/12/2020 12:00:00 PM 10.68 51.224 0.169 6.49 23.79 9.66
11/12/2020 12:15:00 PM 10.69 51.242 0.169 6.47 22.29 9.67
11/12/2020 12:30:00 PM 10.71 51.278 0.169 6.47 25.69 9.68
11/12/2020 12:45:00 PM 10.72 51.296 0.17 6.48 21.47 9.69
11/12/2020 1:00:00 PM 10.71 51.278 0.17 6.48 21.45 9.7
11/12/2020 1:15:00 PM 10.68 51.224 0.17 6.47 19.81 9.71
11/12/2020 1:30:00 PM 10.66 51.188 0.171 6.48 19.3 9.72
11/12/2020 1:45:00 PM 10.66 51.188 0.171 6.48 19.32 9.74
11/12/2020 2:00:00 PM 10.69 51.242 0.171 6.49 18.92 9.76
11/12/2020 2:15:00 PM 10.69 51.242 0.172 6.49 19.2 9.77
11/12/2020 2:30:00 PM 10.7 51.26 0.172 6.48 18.15 9.78
11/12/2020 2:45:00 PM 10.67 51.206 0.172 6.48 18.28 9.79
11/12/2020 3:00:00 PM 10.64 51.152 0.172 6.48 16.61 9.8
11/12/2020 3:15:00 PM 10.62 51.116 0.173 6.48 16.28 9.81
11/12/2020 3:30:00 PM 10.56 51.008 0.173 6.48 16.74 9.82
11/12/2020 3:45:00 PM 10.48 50.864 0.174 6.47 15.9 9.81
11/12/2020 4:00:00 PM 10.41 50.738 0.174 6.47 15.73 9.81
11/12/2020 4:15:00 PM 10.35 50.63 0.174 6.47 16.58 9.81
11/12/2020 4:30:00 PM 10.29 50.522 0.175 6.46 17.22 9.81
11/12/2020 4:45:00 PM 10.24 50.432 0.175 6.46 13.1 9.8
11/12/2020 5:00:00 PM 10.18 50.324 0.175 6.46 16.35 9.81
11/12/2020 5:15:00 PM 10.13 50.234 0.176 6.46 14.6 9.81
11/12/2020 5:30:00 PM 10.07 50.126 0.176 6.48 14.34 9.81
11/12/2020 5:45:00 PM 10.01 50.018 0.176 6.46 13.82 9.81
11/12/2020 6:00:00 PM 9.94 49.892 0.177 6.48 14.44 9.82
11/12/2020 6:15:00 PM 9.88 49.784 0.177 6.46 12.14 9.83
11/12/2020 6:30:00 PM 9.82 49.676 0.177 6.45 14.3 9.84
11/12/2020 6:45:00 PM 9.76 49.568 0.178 6.47 14.14 9.85
11/12/2020 7:00:00 PM 9.7 49.46 0.178 6.48 13.55 9.86
11/12/2020 7:15:00 PM 9.64 49.352 0.178 6.47 16.39 9.87
11/12/2020 7:30:00 PM 9.58 49.244 0.178 6.48 11.68 9.87
11/12/2020 7:45:00 PM 9.52 49.136 0.179 6.48 12.38 9.88
11/12/2020 8:00:00 PM 9.47 49.046 0.179 6.48 21.39 9.9
11/12/2020 8:15:00 PM 9.41 48.938 0.18 6.47 11.37 9.91
11/12/2020 8:30:00 PM 9.35 48.83 0.18 6.48 10.29 9.93
11/12/2020 8:45:00 PM 9.29 48.722 0.18 6.48 12.25 9.94
11/12/2020 9:00:00 PM 9.24 48.632 0.18 6.47 11.41 9.95
11/12/2020 9:15:00 PM 9.18 48.524 0.181 6.47 11.07 9.97
11/12/2020 9:30:00 PM 9.13 48.434 0.181 6.47 12.18 9.97
11/12/2020 9:45:00 PM 9.07 48.326 0.181 6.47 10.6 9.99
11/12/2020 10:00:00 PM 9.01 48.218 0.182 6.46 11.73 10
11/12/2020 10:15:00 PM 8.95 48.11 0.182 6.46 9.92 10.01
11/12/2020 10:30:00 PM 8.89 48.002 0.183 6.47 11.01 10.03
11/12/2020 10:45:00 PM 8.83 47.894 0.183 6.47 9.43 10.05
11/12/2020 11:00:00 PM 8.77 47.786 0.183 6.47 10.63 10.06
11/12/2020 11:15:00 PM 8.71 47.678 0.183 6.5 10.33 10.07
11/12/2020 11:30:00 PM 8.66 47.588 0.184 6.5 9.68 10.09
11/12/2020 11:45:00 PM 8.6 47.48 0.184 6.47 9.46 10.11
11/13/2020 12:00:00 AM 8.54 47.372 0.184 6.48 8.66 10.12
11/13/2020 12:15:00 AM 8.48 47.264 0.184 6.49 8.87 10.14
11/13/2020 12:30:00 AM 8.43 47.174 0.185 6.49 10.24 10.15
11/13/2020 12:45:00 AM 8.37 47.066 0.185 6.48 7.97 10.16
11/13/2020 1:00:00 AM 8.31 46.958 0.185 6.48 8.46 10.18
11/13/2020 1:15:00 AM 8.25 46.85 0.186 6.49 7.89 10.19
11/13/2020 1:30:00 AM 8.2 46.76 0.186 6.49 8.42 10.2
11/13/2020 1:45:00 AM 8.14 46.652 0.186 6.48 8.29 10.21
11/13/2020 2:00:00 AM 8.08 46.544 0.186 6.5 9.5 10.24
11/13/2020 2:15:00 AM 8.03 46.454 0.187 6.5 7.91 10.25
11/13/2020 2:30:00 AM 7.97 46.346 0.187 6.48 16.94 10.27
11/13/2020 2:45:00 AM 7.91 46.238 0.187 6.49 7.27 10.28
11/13/2020 3:00:00 AM 7.86 46.148 0.187 6.49 7.3 10.3
11/13/2020 3:15:00 AM 7.81 46.058 0.187 6.49 7.32 10.32
11/13/2020 3:30:00 AM 7.76 45.968 0.188 6.47 7.17 10.32
11/13/2020 3:45:00 AM 7.72 45.896 0.188 6.49 6.44 10.34
11/13/2020 4:00:00 AM 7.68 45.824 0.188 6.48 7.27 10.36
11/13/2020 4:15:00 AM 7.64 45.752 0.188 6.48 6.79 10.37
11/13/2020 4:30:00 AM 7.6 45.68 0.189 6.5 6.68 10.38
11/13/2020 4:45:00 AM 7.56 45.608 0.189 6.49 6.36 10.39
11/13/2020 5:00:00 AM 7.52 45.536 0.189 6.48 6.4 10.41
11/13/2020 5:15:00 AM 7.5 45.5 0.189 6.49 6.06 10.42
11/13/2020 5:30:00 AM 7.48 45.464 0.19 6.49 6.13 10.43
11/13/2020 5:45:00 AM 7.46 45.428 0.19 6.51 6.66 10.44
11/13/2020 6:00:00 AM 7.42 45.356 0.19 6.49 5.71 10.46
11/13/2020 6:15:00 AM 7.38 45.284 0.19 6.49 5.63 10.47
11/13/2020 6:30:00 AM 7.34 45.212 0.19 6.49 5.94 10.49
11/13/2020 6:45:00 AM 7.28 45.104 0.19 6.5 6.68 10.51
11/13/2020 7:00:00 AM 7.25 45.05 0.191 6.5 5.29 10.52
11/13/2020 7:15:00 AM 7.22 44.996 0.191 6.51 6.09 10.54
11/13/2020 7:30:00 AM 7.18 44.924 0.191 6.49 4.72 10.56
11/13/2020 7:45:00 AM 7.14 44.852 0.191 6.49 4.15 10.58
11/13/2020 8:00:00 AM 7.1 44.78 0.192 6.5 4.11 10.6
11/13/2020 8:15:00 AM 7.06 44.708 0.192 6.5 4.59 10.62
11/13/2020 8:30:00 AM 7.06 44.708 0.192 6.52 4.85 10.66
11/13/2020 8:45:00 AM 7.06 44.708 0.192 6.51 3.71 10.69
11/13/2020 9:00:00 AM 7.08 44.744 0.192 6.52 3.7 10.71
11/13/2020 9:15:00 AM 7.15 44.87 0.192 6.55 4.49 10.75